Provisional Data: Little Pine Creek near Waterville, PA


Please select a monitoring station.
Please select start date.
Please select start date.

<
Toggle Unit: C/F Toggle Unit: C/F
Sample Time Temperature (C) Temperature (F) Specific Conductivity (mS/cm) pH   Turbidity (NTU+) DO (mg/L)
3/23/2021 12:00:00 AM 5.8 42.44 0.076 6.87 2.69 12.7
3/23/2021 12:15:00 AM 5.82 42.476 0.076 6.87 2.79 12.69
3/23/2021 12:30:00 AM 5.84 42.512 0.076 6.87 2.7 12.68
3/23/2021 12:45:00 AM 5.84 42.512 0.076 6.87 2.82 12.68
3/23/2021 1:00:00 AM 5.84 42.512 0.076 6.87 2.81 12.68
3/23/2021 1:15:00 AM 5.84 42.512 0.076 6.86 2.79 12.68
3/23/2021 1:30:00 AM 5.85 42.53 0.077 6.87 2.75 12.68
3/23/2021 1:45:00 AM 5.85 42.53 0.077 6.87 2.66 12.67
3/23/2021 2:00:00 AM 5.86 42.548 0.076 6.86 2.75 12.67
3/23/2021 2:15:00 AM 5.86 42.548 0.076 6.87 3.08 12.67
3/23/2021 2:30:00 AM 5.85 42.53 0.077 6.87 2.67 12.67
3/23/2021 2:45:00 AM 5.85 42.53 0.076 6.86 2.77 12.67
3/23/2021 3:00:00 AM 5.85 42.53 0.076 6.87 2.7 12.66
3/23/2021 3:15:00 AM 5.84 42.512 0.076 6.87 2.63 12.66
3/23/2021 3:30:00 AM 5.85 42.53 0.076 6.85 2.71 12.66
3/23/2021 3:45:00 AM 5.86 42.548 0.076 6.87 2.68 12.65
3/23/2021 4:00:00 AM 5.86 42.548 0.076 6.87 2.73 12.65
3/23/2021 4:15:00 AM 5.86 42.548 0.076 6.86 2.7 12.65
3/23/2021 4:30:00 AM 5.86 42.548 0.076 6.87 2.77 12.64
3/23/2021 4:45:00 AM 5.85 42.53 0.076 6.86 2.66 12.64
3/23/2021 5:00:00 AM 5.84 42.512 0.076 6.85 2.73 12.65
3/23/2021 5:15:00 AM 5.82 42.476 0.076 6.86 2.73 12.64
3/23/2021 5:30:00 AM 5.8 42.44 0.076 6.86 2.79 12.65
3/23/2021 5:45:00 AM 5.79 42.422 0.076 6.86 2.84 12.65
3/23/2021 6:00:00 AM 5.77 42.386 0.076 6.86 2.69 12.66
3/23/2021 6:15:00 AM 5.75 42.35 0.076 6.85 2.7 12.66
3/23/2021 6:30:00 AM 5.73 42.314 0.076 6.86 2.77 12.66
3/23/2021 6:45:00 AM 5.71 42.278 0.076 6.85 2.86 12.67
3/23/2021 7:00:00 AM 5.69 42.242 0.076 6.85 2.76 12.68
3/23/2021 7:15:00 AM 5.66 42.188 0.076 6.85 2.81 12.69
3/23/2021 7:30:00 AM 5.64 42.152 0.076 6.85 2.79 12.71
3/23/2021 7:45:00 AM 5.61 42.098 0.076 6.86 2.76 12.74
3/23/2021 8:00:00 AM 5.59 42.062 0.076 6.86 2.72 12.77
3/23/2021 8:15:00 AM 5.58 42.044 0.076 6.87 2.77 12.8
3/23/2021 8:30:00 AM 5.57 42.026 0.076 6.87 2.7 12.82
3/23/2021 8:45:00 AM 5.57 42.026 0.076 6.88 2.8 12.85
3/23/2021 9:00:00 AM 5.58 42.044 0.076 6.89 2.8 12.88
3/23/2021 9:15:00 AM 5.6 42.08 0.076 6.9 2.69 12.91
3/23/2021 9:30:00 AM 5.63 42.134 0.076 6.91 2.7 12.93
3/23/2021 9:45:00 AM 5.66 42.188 0.076 6.91 2.68 12.96
3/23/2021 10:00:00 AM 5.69 42.242 0.076 6.92 2.65 12.98
3/23/2021 10:15:00 AM 5.73 42.314 0.076 6.92 2.7 13
3/23/2021 10:30:00 AM 5.78 42.404 0.076 6.93 2.68 13.01
3/23/2021 10:45:00 AM 5.86 42.548 0.076 6.94 2.65 13.02
3/23/2021 11:00:00 AM 5.95 42.71 0.076 6.95 2.71 13.02
3/23/2021 11:15:00 AM 6.06 42.908 0.076 6.96 2.68 13.01
3/23/2021 11:30:00 AM 6.17 43.106 0.076 6.96 2.78 13.01
3/23/2021 11:45:00 AM 6.29 43.322 0.076 6.97 2.69 13
3/23/2021 12:00:00 PM 6.42 43.556 0.076 6.97 2.75 12.99
3/23/2021 12:15:00 PM 6.53 43.754 0.076 6.98 2.66 12.98
3/23/2021 12:30:00 PM 6.64 43.952 0.076 6.98 2.7 12.97
3/23/2021 12:45:00 PM 6.72 44.096 0.076 6.99 2.66 12.96
3/23/2021 1:00:00 PM 6.83 44.294 0.076 6.99 2.83 12.95
3/23/2021 1:15:00 PM 6.92 44.456 0.076 6.99 2.67 12.93
3/23/2021 1:30:00 PM 7.01 44.618 0.076 6.99 2.69 12.91
3/23/2021 1:45:00 PM 7.02 44.636 0.076 6.99 2.7 12.91
3/23/2021 2:00:00 PM 6.99 44.582 0.076 6.98 2.69 12.9
3/23/2021 2:15:00 PM 6.96 44.528 0.076 6.98 2.68 12.91
3/23/2021 2:30:00 PM 6.95 44.51 0.076 6.98 2.73 12.92
3/23/2021 2:45:00 PM 6.88 44.384 0.076 6.98 2.78 12.93
3/23/2021 3:00:00 PM 6.83 44.294 0.076 6.97 2.81 12.94
3/23/2021 3:15:00 PM 6.75 44.15 0.076 6.98 2.78 12.95
3/23/2021 3:30:00 PM 6.64 43.952 0.076 6.97 3.09 12.97
3/23/2021 3:45:00 PM 6.54 43.772 0.077 6.97 2.71 12.98
3/23/2021 4:00:00 PM 6.45 43.61 0.077 6.96 2.81 12.99
3/23/2021 4:15:00 PM 6.39 43.502 0.077 6.97 2.95 13
3/23/2021 4:30:00 PM 6.33 43.394 0.077 6.98 2.86 13
3/23/2021 4:45:00 PM 6.26 43.268 0.077 6.96 2.75 13
3/23/2021 5:00:00 PM 6.2 43.16 0.077 6.97 2.7 13
3/23/2021 5:15:00 PM 6.15 43.07 0.077 6.97 2.65 13.01
3/23/2021 5:30:00 PM 6.11 42.998 0.077 6.95 2.79 13.01
3/23/2021 5:45:00 PM 6.07 42.926 0.077 6.97 2.63 13
3/23/2021 6:00:00 PM 6.04 42.872 0.077 6.97 2.81 12.98
3/23/2021 6:15:00 PM 6.02 42.836 0.077 6.97 2.64 12.98
3/23/2021 6:30:00 PM 5.99 42.782 0.077 6.97 2.68 12.96
3/23/2021 6:45:00 PM 5.97 42.746 0.077 6.96 2.77 12.94
3/23/2021 7:00:00 PM 5.96 42.728 0.077 6.96 2.69 12.91
3/23/2021 7:15:00 PM 5.94 42.692 0.077 6.95 2.77 12.87
3/23/2021 7:30:00 PM 5.92 42.656 0.077 6.94 2.71 12.83
3/23/2021 7:45:00 PM 5.89 42.602 0.078 6.93 2.74 12.8
3/23/2021 8:00:00 PM 5.86 42.548 0.078 6.92 2.72 12.77
3/23/2021 8:15:00 PM 5.85 42.53 0.078 6.91 2.68 12.75
3/23/2021 8:30:00 PM 5.85 42.53 0.078 6.91 2.72 12.73
3/23/2021 8:45:00 PM 5.85 42.53 0.077 6.91 2.66 12.7
3/23/2021 9:00:00 PM 5.85 42.53 0.078 6.9 2.67 12.69
3/23/2021 9:15:00 PM 5.84 42.512 0.078 6.88 2.7 12.68
3/23/2021 9:30:00 PM 5.84 42.512 0.078 6.89 2.63 12.67
3/23/2021 9:45:00 PM 5.85 42.53 0.077 6.89 2.73 12.66
3/23/2021 10:00:00 PM 5.86 42.548 0.077 6.89 2.71 12.65
3/23/2021 10:15:00 PM 5.88 42.584 0.077 6.88 2.81 12.64
3/23/2021 10:30:00 PM 5.9 42.62 0.078 6.88 2.81 12.63
3/23/2021 10:45:00 PM 5.94 42.692 0.077 6.88 2.73 12.61
3/23/2021 11:00:00 PM 5.97 42.746 0.077 6.89 2.7 12.6
3/23/2021 11:15:00 PM 6 42.8 0.077 6.89 2.7 12.59
3/23/2021 11:30:00 PM 6.03 42.854 0.077 6.89 2.75 12.57
3/23/2021 11:45:00 PM 6.06 42.908 0.077 6.86 2.69 12.56
3/24/2021 12:00:00 AM 6.08 42.944 0.077 6.89 2.69 12.55
3/24/2021 12:15:00 AM 6.1 42.98 0.077 6.89 2.69 12.54
3/24/2021 12:30:00 AM 6.12 43.016 0.077 6.88 2.66 12.53
3/24/2021 12:45:00 AM 6.14 43.052 0.077 6.89 2.58 12.53
3/24/2021 1:00:00 AM 6.17 43.106 0.077 6.89 2.72 12.52
3/24/2021 1:15:00 AM 6.2 43.16 0.077 6.89 2.76 12.51
3/24/2021 1:30:00 AM 6.22 43.196 0.077 6.89 2.76 12.51
3/24/2021 1:45:00 AM 6.23 43.214 0.077 6.89 2.71 12.5
3/24/2021 2:00:00 AM 6.24 43.232 0.077 6.88 2.69 12.49
3/24/2021 2:15:00 AM 6.26 43.268 0.077 6.87 2.77 12.49
3/24/2021 2:30:00 AM 6.27 43.286 0.077 6.86 2.67 12.48
3/24/2021 2:45:00 AM 6.29 43.322 0.077 6.89 2.66 12.48
3/24/2021 3:00:00 AM 6.3 43.34 0.077 6.89 2.72 12.47
3/24/2021 3:15:00 AM 6.32 43.376 0.077 6.89 2.81 12.47
3/24/2021 3:30:00 AM 6.34 43.412 0.077 6.89 2.67 12.46
3/24/2021 3:45:00 AM 6.35 43.43 0.077 6.89 2.65 12.45
3/24/2021 4:00:00 AM 6.37 43.466 0.077 6.88 2.66 12.45
3/24/2021 4:15:00 AM 6.39 43.502 0.077 6.89 2.6 12.44
3/24/2021 4:30:00 AM 6.4 43.52 0.077 6.89 2.64 12.44
3/24/2021 4:45:00 AM 6.42 43.556 0.077 6.89 2.63 12.43
3/24/2021 5:00:00 AM 6.44 43.592 0.077 6.89 2.58 12.42
3/24/2021 5:15:00 AM 6.46 43.628 0.077 6.88 2.69 12.41
3/24/2021 5:30:00 AM 6.49 43.682 0.077 6.89 2.71 12.41
3/24/2021 5:45:00 AM 6.51 43.718 0.077 6.89 2.64 12.4
3/24/2021 6:00:00 AM 6.52 43.736 0.077 6.89 2.63 12.39
3/24/2021 6:15:00 AM 6.54 43.772 0.077 6.88 2.56 12.39
3/24/2021 6:30:00 AM 6.55 43.79 0.076 6.88 2.61 12.38
3/24/2021 6:45:00 AM 6.55 43.79 0.076 6.88 2.66 12.37
3/24/2021 7:00:00 AM 6.55 43.79 0.076 6.88 2.69 12.37
3/24/2021 7:15:00 AM 6.55 43.79 0.076 6.88 2.7 12.37
3/24/2021 7:30:00 AM 6.55 43.79 0.076 6.87 2.65 12.37
3/24/2021 7:45:00 AM 6.54 43.772 0.076 6.87 2.71 12.37
3/24/2021 8:00:00 AM 6.54 43.772 0.076 6.8 2.73 12.38
3/24/2021 8:15:00 AM 6.53 43.754 0.076 6.87 2.65 12.39
3/24/2021 8:30:00 AM 6.54 43.772 0.076 6.87 2.84 12.39
3/24/2021 8:45:00 AM 6.54 43.772 0.076 6.88 3.3 12.4
3/24/2021 9:00:00 AM 6.55 43.79 0.076 6.89 4.29 12.41
3/24/2021 9:15:00 AM 6.56 43.808 0.076 6.9 4.68 12.42
3/24/2021 9:30:00 AM 6.56 43.808 0.076 6.89 4.15 12.43
3/24/2021 9:45:00 AM 6.55 43.79 0.076 6.9 4.28 12.44
3/24/2021 10:00:00 AM 6.55 43.79 0.076 6.9 4.32 12.46
3/24/2021 10:15:00 AM 6.55 43.79 0.076 6.89 3.84 12.5
3/24/2021 10:30:00 AM 6.56 43.808 0.076 6.9 3.9 12.53
3/24/2021 10:45:00 AM 6.57 43.826 0.075 6.91 3.8 12.56
3/24/2021 11:00:00 AM 6.57 43.826 0.075 6.92 3.34 12.58
3/24/2021 11:15:00 AM 6.58 43.844 0.076 6.92 3.14 12.6
3/24/2021 11:30:00 AM 6.59 43.862 0.076 6.93 3.2 12.62
3/24/2021 11:45:00 AM 6.61 43.898 0.075 6.94 3.29 12.64
3/24/2021 12:00:00 PM 6.63 43.934 0.075 6.95 2.84 12.66
3/24/2021 12:15:00 PM 6.65 43.97 0.076 6.95 2.96 12.68
3/24/2021 12:30:00 PM 6.66 43.988 0.076 6.96 2.88 12.69
3/24/2021 12:45:00 PM 6.67 44.006 0.076 6.96 2.93 12.69
3/24/2021 1:00:00 PM 6.68 44.024 0.076 6.96 2.89 12.69
3/24/2021 1:15:00 PM 6.68 44.024 0.076 6.97 2.96 12.69
3/24/2021 1:30:00 PM 6.69 44.042 0.076 6.97 2.81 12.68
3/24/2021 1:45:00 PM 6.69 44.042 0.075 6.97 2.82 12.67
3/24/2021 2:00:00 PM 6.69 44.042 0.075 6.96 2.88 12.67
3/24/2021 2:15:00 PM 6.69 44.042 0.075 6.96 3.61 12.66
3/24/2021 2:30:00 PM 6.68 44.024 0.075 6.96 2.84 12.65
3/24/2021 2:45:00 PM 6.68 44.024 0.075 6.96 2.84 12.65
3/24/2021 3:00:00 PM 6.69 44.042 0.075 6.96 2.72 12.66
3/24/2021 3:15:00 PM 6.71 44.078 0.075 6.97 2.84 12.67
3/24/2021 3:30:00 PM 6.74 44.132 0.075 6.97 2.85 12.67
3/24/2021 3:45:00 PM 6.76 44.168 0.076 6.98 2.74 12.67
3/24/2021 4:00:00 PM 6.77 44.186 0.076 6.96 2.81 12.67
3/24/2021 4:15:00 PM 6.77 44.186 0.076 6.98 2.81 12.66
3/24/2021 4:30:00 PM 6.79 44.222 0.075 6.97 2.84 12.66
3/24/2021 4:45:00 PM 6.77 44.186 0.076 6.97 2.76 12.65
3/24/2021 5:00:00 PM 6.76 44.168 0.075 6.96 2.82 12.63
3/24/2021 5:15:00 PM 6.73 44.114 0.076 6.96 2.74 12.61
3/24/2021 5:30:00 PM 6.71 44.078 0.076 6.95 2.81 12.59
3/24/2021 5:45:00 PM 6.7 44.06 0.076 6.94 2.81 12.58
3/24/2021 6:00:00 PM 6.68 44.024 0.076 6.94 2.81 12.57
3/24/2021 6:15:00 PM 6.68 44.024 0.076 6.93 2.81 12.55
3/24/2021 6:30:00 PM 6.67 44.006 0.077 6.93 2.9 12.55
3/24/2021 6:45:00 PM 6.66 43.988 0.077 6.93 2.77 12.54
3/24/2021 7:00:00 PM 6.65 43.97 0.077 6.92 2.83 12.53
3/24/2021 7:15:00 PM 6.64 43.952 0.077 6.92 2.83 12.52
3/24/2021 7:30:00 PM 6.64 43.952 0.077 6.91 2.85 12.5
3/24/2021 7:45:00 PM 6.64 43.952 0.078 6.91 2.92 12.48
3/24/2021 8:00:00 PM 6.65 43.97 0.077 6.9 2.84 12.47
3/24/2021 8:15:00 PM 6.65 43.97 0.078 6.9 2.92 12.46
3/24/2021 8:30:00 PM 6.66 43.988 0.078 6.89 2.98 12.45
3/24/2021 8:45:00 PM 6.67 44.006 0.079 6.89 3.13 12.43
3/24/2021 9:00:00 PM 6.68 44.024 0.079 6.89 3.03 12.42
3/24/2021 9:15:00 PM 6.69 44.042 0.079 6.89 3.14 12.42
3/24/2021 9:30:00 PM 6.7 44.06 0.079 6.89 3.09 12.41
3/24/2021 9:45:00 PM 6.71 44.078 0.079 6.89 3.05 12.41
3/24/2021 10:00:00 PM 6.73 44.114 0.079 6.89 2.98 12.41
3/24/2021 10:15:00 PM 6.73 44.114 0.079 6.89 3.23 12.41
3/24/2021 10:30:00 PM 6.73 44.114 0.079 6.88 3.06 12.41
3/24/2021 10:45:00 PM 6.74 44.132 0.079 6.88 3.11 12.41
3/24/2021 11:00:00 PM 6.74 44.132 0.078 6.88 3.13 12.41
3/24/2021 11:15:00 PM 6.74 44.132 0.078 6.88 3.03 12.41
3/24/2021 11:30:00 PM 6.75 44.15 0.078 6.87 3.2 12.4
3/24/2021 11:45:00 PM 6.77 44.186 0.077 6.88 3.14 12.4
3/25/2021 12:00:00 AM 6.79 44.222 0.077 6.88 3.18 12.39
3/25/2021 12:15:00 AM 6.8 44.24 0.077 6.88 3.32 12.38
3/25/2021 12:30:00 AM 6.82 44.276 0.077 6.87 3.19 12.38
3/25/2021 12:45:00 AM 6.84 44.312 0.076 6.88 3.28 12.37
3/25/2021 1:00:00 AM 6.85 44.33 0.076 6.86 3.41 12.37
3/25/2021 1:15:00 AM 6.86 44.348 0.076 6.87 3.23 12.37
3/25/2021 1:30:00 AM 6.87 44.366 0.076 6.87 3.46 12.36
3/25/2021 1:45:00 AM 6.87 44.366 0.076 6.86 3.51 12.36
3/25/2021 2:00:00 AM 6.88 44.384 0.075 6.86 3.4 12.36
3/25/2021 2:15:00 AM 6.88 44.384 0.076 6.86 3.44 12.35
3/25/2021 2:30:00 AM 6.88 44.384 0.076 6.86 3.37 12.35
3/25/2021 2:45:00 AM 6.89 44.402 0.075 6.86 3.44 12.34
3/25/2021 3:00:00 AM 6.9 44.42 0.075 6.86 3.48 12.34
3/25/2021 3:15:00 AM 6.91 44.438 0.075 6.86 3.5 12.33
3/25/2021 3:30:00 AM 6.91 44.438 0.075 6.86 3.39 12.33
3/25/2021 3:45:00 AM 6.92 44.456 0.075 6.86 3.53 12.32
3/25/2021 4:00:00 AM 6.93 44.474 0.075 6.86 3.62 12.32
3/25/2021 4:15:00 AM 6.93 44.474 0.075 6.86 3.69 12.31
3/25/2021 4:30:00 AM 6.94 44.492 0.075 6.86 3.62 12.31
3/25/2021 4:45:00 AM 6.93 44.474 0.075 6.85 3.66 12.31
3/25/2021 5:00:00 AM 6.93 44.474 0.075 6.85 3.59 12.31
3/25/2021 5:15:00 AM 6.93 44.474 0.075 6.85 3.73 12.31
3/25/2021 5:30:00 AM 6.93 44.474 0.076 6.85 3.63 12.31
3/25/2021 5:45:00 AM 6.94 44.492 0.076 6.85 3.77 12.31
3/25/2021 6:00:00 AM 6.94 44.492 0.076 6.85 3.63 12.3
3/25/2021 6:15:00 AM 6.95 44.51 0.076 6.85 3.79 12.3
3/25/2021 6:30:00 AM 6.96 44.528 0.076 6.85 3.85 12.3
3/25/2021 6:45:00 AM 6.97 44.546 0.076 6.85 3.88 12.29
3/25/2021 7:00:00 AM 6.97 44.546 0.076 6.84 3.86 12.29
3/25/2021 7:15:00 AM 6.98 44.564 0.076 6.85 3.89 12.29
3/25/2021 7:30:00 AM 6.98 44.564 0.076 6.85 3.78 12.3
3/25/2021 7:45:00 AM 6.98 44.564 0.076 6.85 3.83 12.32
3/25/2021 8:00:00 AM 6.98 44.564 0.076 6.85 3.76 12.34
3/25/2021 8:15:00 AM 6.99 44.582 0.076 6.86 3.8 12.36
3/25/2021 8:30:00 AM 7 44.6 0.076 6.85 4.02 12.38
3/25/2021 8:45:00 AM 7.01 44.618 0.076 6.86 3.9 12.4
3/25/2021 9:00:00 AM 7.03 44.654 0.076 6.87 3.93 12.43
3/25/2021 9:15:00 AM 7.06 44.708 0.076 6.89 4.02 12.46
3/25/2021 9:30:00 AM 7.09 44.762 0.076 6.89 3.93 12.49
3/25/2021 9:45:00 AM 7.13 44.834 0.076 6.9 3.96 12.52
3/25/2021 10:00:00 AM 7.16 44.888 0.076 6.91 3.88 12.54
3/25/2021 10:15:00 AM 7.19 44.942 0.076 6.92 3.78 12.56
3/25/2021 10:30:00 AM 7.24 45.032 0.076 6.93 3.8 12.58
3/25/2021 10:45:00 AM 7.29 45.122 0.076 6.95 3.91 12.59
3/25/2021 11:00:00 AM 7.35 45.23 0.076 6.96 3.69 12.6
3/25/2021 11:15:00 AM 7.4 45.32 0.076 6.96 4.04 12.6
3/25/2021 11:30:00 AM 7.46 45.428 0.076 6.97 3.75 12.61
3/25/2021 11:45:00 AM 7.58 45.644 0.076 6.98 3.75 12.61
3/25/2021 12:00:00 PM 7.72 45.896 0.076 6.99 3.84 12.6
3/25/2021 12:15:00 PM 7.79 46.022 0.076 6.99 3.73 12.6
3/25/2021 12:30:00 PM 7.88 46.184 0.076 7 3.77 12.58
3/25/2021 12:45:00 PM 7.97 46.346 0.076 7 3.69 12.57
3/25/2021 1:00:00 PM 8.07 46.526 0.076 7 3.79 12.56
3/25/2021 1:15:00 PM 8.17 46.706 0.076 7.01 3.54 12.55
3/25/2021 1:30:00 PM 8.25 46.85 0.076 7 3.55 12.54
3/25/2021 1:45:00 PM 8.32 46.976 0.076 7.01 3.55 12.52
3/25/2021 2:00:00 PM 8.37 47.066 0.076 7 3.68 12.51
3/25/2021 2:15:00 PM 8.41 47.138 0.077 7 3.56 12.51
3/25/2021 2:30:00 PM 8.43 47.174 0.077 7 3.62 12.5
3/25/2021 2:45:00 PM 8.44 47.192 0.077 7 3.69 12.49
3/25/2021 3:00:00 PM 8.41 47.138 0.078 7 3.48 12.48
3/25/2021 3:15:00 PM 8.37 47.066 0.077 6.99 3.9 12.47
3/25/2021 3:30:00 PM 8.32 46.976 0.076 6.99 3.52 12.46
3/25/2021 3:45:00 PM 8.27 46.886 0.076 7 3.75 12.45
3/25/2021 4:00:00 PM 8.24 46.832 0.077 6.99 4.03 12.45
3/25/2021 4:15:00 PM 8.21 46.778 0.076 6.99 3.42 12.44
3/25/2021 4:30:00 PM 8.17 46.706 0.077 7 3.38 12.43
3/25/2021 4:45:00 PM 8.13 46.634 0.077 6.99 3.43 12.43
3/25/2021 5:00:00 PM 8.06 46.508 0.077 6.98 3.53 12.42
3/25/2021 5:15:00 PM 8.01 46.418 0.077 6.98 3.38 12.41
3/25/2021 5:30:00 PM 7.96 46.328 0.077 6.98 3.48 12.4
3/25/2021 5:45:00 PM 7.93 46.274 0.077 6.97 3.53 12.38
3/25/2021 6:00:00 PM 7.91 46.238 0.077 6.98 3.5 12.35
3/25/2021 6:15:00 PM 7.92 46.256 0.077 6.97 3.54 12.32
3/25/2021 6:30:00 PM 7.93 46.274 0.077 6.97 3.41 12.29
3/25/2021 6:45:00 PM 7.91 46.238 0.077 6.96 3.39 12.25
3/25/2021 7:00:00 PM 7.88 46.184 0.077 6.94 3.37 12.22
3/25/2021 7:15:00 PM 7.87 46.166 0.077 6.94 3.43 12.18
3/25/2021 7:30:00 PM 7.9 46.22 0.077 6.93 3.48 12.14
3/25/2021 7:45:00 PM 7.96 46.328 0.077 6.94 3.42 12.09
3/25/2021 8:00:00 PM 8.02 46.436 0.077 6.93 3.41 12.05
3/25/2021 8:15:00 PM 8.09 46.562 0.077 6.93 3.44 12.01
3/25/2021 8:30:00 PM 8.17 46.706 0.077 6.93 3.44 11.97
3/25/2021 8:45:00 PM 8.27 46.886 0.078 6.93 3.43 11.92
3/25/2021 9:00:00 PM 8.37 47.066 0.077 6.93 3.38 11.89
3/25/2021 9:15:00 PM 8.46 47.228 0.078 6.93 3.27 11.85
3/25/2021 9:30:00 PM 8.53 47.354 0.077 6.92 3.35 11.82
3/25/2021 9:45:00 PM 8.58 47.444 0.077 6.89 3.25 11.8
3/25/2021 10:00:00 PM 8.61 47.498 0.077 6.91 3.27 11.79
3/25/2021 10:15:00 PM 8.65 47.57 0.077 6.91 3.28 11.77
3/25/2021 10:30:00 PM 8.69 47.642 0.077 6.91 3.26 11.76
3/25/2021 10:45:00 PM 8.71 47.678 0.077 6.91 3.3 11.75
3/25/2021 11:00:00 PM 8.74 47.732 0.077 6.91 3.26 11.73
3/25/2021 11:15:00 PM 8.79 47.822 0.077 6.84 3.15 11.71
3/25/2021 11:30:00 PM 8.85 47.93 0.077 6.91 3.26 11.7
3/25/2021 11:45:00 PM 8.9 48.02 0.077 6.9 3.12 11.68
3/26/2021 12:00:00 AM 8.94 48.092 0.077 6.91 3.08 11.67
3/26/2021 12:15:00 AM 8.97 48.146 0.077 6.91 3.15 11.66
3/26/2021 12:30:00 AM 8.99 48.182 0.077 6.91 3.14 11.65
3/26/2021 12:45:00 AM 8.98 48.164 0.077 6.9 3.18 11.65
3/26/2021 1:00:00 AM 8.98 48.164 0.077 6.88 3.19 11.64
3/26/2021 1:15:00 AM 8.98 48.164 0.076 6.9 3.05 11.64
3/26/2021 1:30:00 AM 8.98 48.164 0.076 6.89 3.08 11.63
3/26/2021 1:45:00 AM 8.98 48.164 0.077 6.89 3.07 11.63
3/26/2021 2:00:00 AM 8.98 48.164 0.077 6.89 3.1 11.63
3/26/2021 2:15:00 AM 8.98 48.164 0.076 6.89 3.11 11.63
3/26/2021 2:30:00 AM 8.98 48.164 0.077 6.89 3.03 11.62
3/26/2021 2:45:00 AM 8.97 48.146 0.077 6.89 3.15 11.62
3/26/2021 3:00:00 AM 8.98 48.164 0.077 6.89 3.1 11.61
3/26/2021 3:15:00 AM 9 48.2 0.076 6.89 3.09 11.61
3/26/2021 3:30:00 AM 9.02 48.236 0.077 6.9 3.04 11.59
3/26/2021 3:45:00 AM 9.04 48.272 0.076 6.89 3.11 11.58
3/26/2021 4:00:00 AM 9.07 48.326 0.076 6.88 3.12 11.57
3/26/2021 4:15:00 AM 9.06 48.308 0.076 6.89 3.01 11.56
3/26/2021 4:30:00 AM 9.07 48.326 0.076 6.88 3.12 11.55
3/26/2021 4:45:00 AM 9.09 48.362 0.076 6.88 3.13 11.53
3/26/2021 5:00:00 AM 9.11 48.398 0.076 6.88 2.99 11.52
3/26/2021 5:15:00 AM 9.12 48.416 0.076 6.88 3.09 11.51
3/26/2021 5:30:00 AM 9.13 48.434 0.076 6.87 2.98 11.5
3/26/2021 5:45:00 AM 9.11 48.398 0.076 6.87 3.04 11.5
3/26/2021 6:00:00 AM 9.11 48.398 0.076 6.87 3.09 11.49
3/26/2021 6:15:00 AM 9.1 48.38 0.076 6.87 3.11 11.49
3/26/2021 6:30:00 AM 9.1 48.38 0.076 6.86 2.93 11.49
3/26/2021 6:45:00 AM 9.1 48.38 0.076 6.87 3.13 11.49
3/26/2021 7:00:00 AM 9.1 48.38 0.076 6.87 3.14 11.49
3/26/2021 7:15:00 AM 9.1 48.38 0.076 6.87 3.16 11.49
3/26/2021 7:30:00 AM 9.09 48.362 0.076 6.87 3.11 11.5
3/26/2021 7:45:00 AM 9.09 48.362 0.076 6.88 3.12 11.52
3/26/2021 8:00:00 AM 9.12 48.416 0.076 6.89 3.1 11.54
3/26/2021 8:15:00 AM 9.13 48.434 0.076 6.89 3.14 11.55
3/26/2021 8:30:00 AM 9.14 48.452 0.076 6.89 3 11.57
3/26/2021 8:45:00 AM 9.18 48.524 0.076 6.9 3.06 11.59
3/26/2021 9:00:00 AM 9.24 48.632 0.076 6.93 3.18 11.63
3/26/2021 9:15:00 AM 9.33 48.794 0.076 6.93 3 11.66
3/26/2021 9:30:00 AM 9.4 48.92 0.076 6.95 3 11.68
3/26/2021 9:45:00 AM 9.48 49.064 0.076 6.97 3 11.7
3/26/2021 10:00:00 AM 9.53 49.154 0.076 6.98 2.97 11.71
3/26/2021 10:15:00 AM 9.61 49.298 0.076 6.99 2.99 11.73
3/26/2021 10:30:00 AM 9.69 49.442 0.076 7 3.01 11.73
3/26/2021 10:45:00 AM 9.73 49.514 0.076 7 3.14 11.75
3/26/2021 11:00:00 AM 9.75 49.55 0.076 7.01 3.17 11.76
3/26/2021 11:15:00 AM 9.76 49.568 0.076 7.01 3.29 11.76
3/26/2021 11:30:00 AM 9.76 49.568 0.076 7.01 3.4 11.78
3/26/2021 11:45:00 AM 9.73 49.514 0.076 7 4.28 11.8
3/26/2021 12:00:00 PM 9.77 49.586 0.076 7.02 3.2 11.8
3/26/2021 12:15:00 PM 9.9 49.82 0.076 7.02 3.19 11.8
3/26/2021 12:30:00 PM 10.01 50.018 0.076 7.03 3.2 11.79
3/26/2021 12:45:00 PM 9.99 49.982 0.076 7.02 3.14 11.77
3/26/2021 1:00:00 PM 9.97 49.946 0.076 7.03 3.14 11.77
3/26/2021 1:15:00 PM 9.94 49.892 0.077 7.03 3.26 11.75
3/26/2021 1:30:00 PM 9.88 49.784 0.077 7.03 3.63 11.75
3/26/2021 1:45:00 PM 9.86 49.748 0.077 7.05 3.08 11.76
3/26/2021 2:00:00 PM 9.95 49.91 0.077 7.05 3.12 11.78
3/26/2021 2:15:00 PM 10.02 50.036 0.077 7.04 3.3 11.77
3/26/2021 2:30:00 PM 10.01 50.018 0.077 7.05 3.08 11.76
3/26/2021 2:45:00 PM 9.93 49.874 0.077 7.04 3.06 11.76
3/26/2021 3:00:00 PM 9.9 49.82 0.077 7.05 3.12 11.76
3/26/2021 3:15:00 PM 9.89 49.802 0.077 7.05 3.34 11.77
3/26/2021 3:30:00 PM 9.94 49.892 0.077 7.01 3.11 11.77
3/26/2021 3:45:00 PM 9.9 49.82 0.077 7.05 3.14 11.77
3/26/2021 4:00:00 PM 9.88 49.784 0.077 7.04 3.18 11.78
3/26/2021 4:15:00 PM 9.83 49.694 0.077 7.02 3.16 11.78
3/26/2021 4:30:00 PM 9.78 49.604 0.077 7.02 3 11.76
3/26/2021 4:45:00 PM 9.77 49.586 0.077 7.02 3.22 11.76
3/26/2021 5:00:00 PM 9.77 49.586 0.077 7.03 3.06 11.76
3/26/2021 5:15:00 PM 9.76 49.568 0.077 7.03 3.04 11.76
3/26/2021 5:30:00 PM 9.73 49.514 0.077 7.02 3.21 11.75
3/26/2021 5:45:00 PM 9.69 49.442 0.077 7.01 3.25 11.72
3/26/2021 6:00:00 PM 9.67 49.406 0.077 7 3.14 11.71
3/26/2021 6:15:00 PM 9.64 49.352 0.077 7 3.42 11.69
3/26/2021 6:30:00 PM 9.63 49.334 0.077 6.99 3.23 11.67
3/26/2021 6:45:00 PM 9.61 49.298 0.077 6.92 3.23 11.65
3/26/2021 7:00:00 PM 9.59 49.262 0.077 6.99 3.26 11.62
3/26/2021 7:15:00 PM 9.59 49.262 0.077 6.97 3.13 11.59
3/26/2021 7:30:00 PM 9.58 49.244 0.077 6.97 3.14 11.56
3/26/2021 7:45:00 PM 9.58 49.244 0.077 6.95 3.18 11.52
3/26/2021 8:00:00 PM 9.57 49.226 0.077 6.94 3.54 11.5
3/26/2021 8:15:00 PM 9.57 49.226 0.077 6.92 3.21 11.47
3/26/2021 8:30:00 PM 9.56 49.208 0.077 6.9 3.16 11.47
3/26/2021 8:45:00 PM 9.54 49.172 0.077 6.92 3.27 11.45
3/26/2021 9:00:00 PM 9.53 49.154 0.077 6.91 3.51 11.44
3/26/2021 9:15:00 PM 9.54 49.172 0.077 6.91 3.2 11.44
3/26/2021 9:30:00 PM 9.56 49.208 0.077 6.91 3.15 11.44
3/26/2021 9:45:00 PM 9.59 49.262 0.077 6.91 3.19 11.42
3/26/2021 10:00:00 PM 9.62 49.316 0.077 6.91 3.39 11.42
3/26/2021 10:15:00 PM 9.66 49.388 0.077 6.91 3.27 11.42
3/26/2021 10:30:00 PM 9.71 49.478 0.078 6.92 3.4 11.4
3/26/2021 10:45:00 PM 9.76 49.568 0.078 6.92 3.32 11.38
3/26/2021 11:00:00 PM 9.81 49.658 0.078 6.93 3.14 11.38
3/26/2021 11:15:00 PM 9.85 49.73 0.078 6.93 3.22 11.37
3/26/2021 11:30:00 PM 9.89 49.802 0.078 6.93 3.3 11.36
3/26/2021 11:45:00 PM 9.91 49.838 0.078 6.93 3.21 11.35
3/27/2021 12:00:00 AM 9.92 49.856 0.078 6.93 3.4 11.35
3/27/2021 12:15:00 AM 9.92 49.856 0.078 6.93 3.27 11.34
3/27/2021 12:30:00 AM 9.92 49.856 0.078 6.94 3.08 11.34
3/27/2021 12:45:00 AM 9.92 49.856 0.077 6.93 3.13 11.34
3/27/2021 1:00:00 AM 9.92 49.856 0.077 6.93 3.12 11.35
3/27/2021 1:15:00 AM 9.9 49.82 0.077 6.93 3.05 11.35
3/27/2021 1:30:00 AM 9.89 49.802 0.077 6.92 3.04 11.36
3/27/2021 1:45:00 AM 9.87 49.766 0.078 6.92 3.09 11.36
3/27/2021 2:00:00 AM 9.85 49.73 0.077 6.92 3.13 11.37
3/27/2021 2:15:00 AM 9.84 49.712 0.077 6.92 3.16 11.37
3/27/2021 2:30:00 AM 9.82 49.676 0.077 6.92 3.08 11.37
3/27/2021 2:45:00 AM 9.81 49.658 0.078 6.91 3.01 11.37
3/27/2021 3:00:00 AM 9.8 49.64 0.078 6.91 3.03 11.38
3/27/2021 3:15:00 AM 9.79 49.622 0.078 6.91 3.17 11.38
3/27/2021 3:30:00 AM 9.78 49.604 0.077 6.91 3.2 11.38
3/27/2021 3:45:00 AM 9.77 49.586 0.077 6.91 3.04 11.38
3/27/2021 4:00:00 AM 9.77 49.586 0.078 6.91 3.05 11.38
3/27/2021 4:15:00 AM 9.75 49.55 0.078 6.91 3.19 11.38
3/27/2021 4:30:00 AM 9.73 49.514 0.078 6.91 2.98 11.39
3/27/2021 4:45:00 AM 9.71 49.478 0.078 6.91 3.08 11.39
3/27/2021 5:00:00 AM 9.68 49.424 0.078 6.91 3.03 11.39
3/27/2021 5:15:00 AM 9.65 49.37 0.077 6.9 3.28 11.4
3/27/2021 5:30:00 AM 9.61 49.298 0.077 6.9 2.9 11.41
3/27/2021 5:45:00 AM 9.58 49.244 0.077 6.9 2.99 11.42
3/27/2021 6:00:00 AM 9.55 49.19 0.077 6.9 3.33 11.42
3/27/2021 6:15:00 AM 9.51 49.118 0.077 6.9 3.09 11.43
3/27/2021 6:30:00 AM 9.47 49.046 0.077 6.89 3.14 11.44
3/27/2021 6:45:00 AM 9.44 48.992 0.077 6.89 3.17 11.44
3/27/2021 7:00:00 AM 9.41 48.938 0.077 6.89 3.08 11.45
3/27/2021 7:15:00 AM 9.38 48.884 0.077 6.89 3.19 11.47
3/27/2021 7:30:00 AM 9.35 48.83 0.077 6.9 2.96 11.5
3/27/2021 7:45:00 AM 9.32 48.776 0.077 6.89 3.13 11.53
3/27/2021 8:00:00 AM 9.29 48.722 0.077 6.91 3.43 11.57
3/27/2021 8:15:00 AM 9.26 48.668 0.077 6.92 3.17 11.6
3/27/2021 8:30:00 AM 9.24 48.632 0.077 6.92 3.06 11.63
3/27/2021 8:45:00 AM 9.24 48.632 0.077 6.94 3.19 11.68
3/27/2021 9:00:00 AM 9.24 48.632 0.077 6.95 3.14 11.72
3/27/2021 9:15:00 AM 9.25 48.65 0.077 6.95 3.16 11.75
3/27/2021 9:30:00 AM 9.26 48.668 0.077 6.96 3.08 11.78
3/27/2021 9:45:00 AM 9.27 48.686 0.077 6.97 3.17 11.81
3/27/2021 10:00:00 AM 9.28 48.704 0.077 6.98 3.06 11.84
3/27/2021 10:15:00 AM 9.31 48.758 0.077 6.99 3.14 11.87
3/27/2021 10:30:00 AM 9.35 48.83 0.077 6.94 2.99 11.89
3/27/2021 10:45:00 AM 9.43 48.974 0.077 7.01 3 11.91
3/27/2021 11:00:00 AM 9.52 49.136 0.077 7.02 3.05 11.92
3/27/2021 11:15:00 AM 9.54 49.172 0.077 7.03 3.09 11.93
3/27/2021 11:30:00 AM 9.65 49.37 0.077 7.04 2.99 11.94
3/27/2021 11:45:00 AM 9.78 49.604 0.077 7.05 3.07 11.94
3/27/2021 12:00:00 PM 9.89 49.802 0.077 7.05 3.14 11.93
3/27/2021 12:15:00 PM 10.02 50.036 0.077 7.05 3.12 11.92
3/27/2021 12:30:00 PM 10.13 50.234 0.077 7.06 2.99 11.91
3/27/2021 12:45:00 PM 10.2 50.36 0.077 7.06 2.95 11.91
3/27/2021 1:00:00 PM 10.3 50.54 0.077 7.06 3.06 11.9
3/27/2021 1:15:00 PM 10.36 50.648 0.077 7.06 3.01 11.89
3/27/2021 1:30:00 PM 10.39 50.702 0.078 7.06 2.89 11.89
3/27/2021 1:45:00 PM 10.43 50.774 0.078 7.06 3.01 11.89
3/27/2021 2:00:00 PM 10.48 50.864 0.077 7.06 3.05 11.89
3/27/2021 2:15:00 PM 10.49 50.882 0.077 7.06 3.07 11.9
3/27/2021 2:30:00 PM 10.46 50.828 0.078 7.06 3.07 11.9
3/27/2021 2:45:00 PM 10.45 50.81 0.077 7.06 3.09 11.9
3/27/2021 3:00:00 PM 10.4 50.72 0.078 7.06 2.93 11.9
3/27/2021 3:15:00 PM 10.3 50.54 0.078 7.05 2.98 11.9
3/27/2021 3:30:00 PM 10.21 50.378 0.078 7.05 3.04 11.91
3/27/2021 3:45:00 PM 10.1 50.18 0.078 7.04 2.91 11.91
3/27/2021 4:00:00 PM 9.98 49.964 0.078 7.05 2.94 11.93
3/27/2021 4:15:00 PM 9.86 49.748 0.078 7.04 3.13 11.94
3/27/2021 4:30:00 PM 9.75 49.55 0.078 7.04 2.95 11.95
3/27/2021 4:45:00 PM 9.66 49.388 0.078 7.04 3.06 11.96
3/27/2021 5:00:00 PM 9.58 49.244 0.078 7.04 2.91 11.96
3/27/2021 5:15:00 PM 9.51 49.118 0.078 7.04 3 11.97
3/27/2021 5:30:00 PM 9.41 48.938 0.078 7.03 2.97 11.98
3/27/2021 5:45:00 PM 9.33 48.794 0.078 7.03 3.09 11.98
3/27/2021 6:00:00 PM 9.27 48.686 0.078 7.04 2.92 11.98
3/27/2021 6:15:00 PM 9.2 48.56 0.078 7.03 2.98 11.96
3/27/2021 6:30:00 PM 9.14 48.452 0.079 7.02 3.02 11.93
3/27/2021 6:45:00 PM 9.09 48.362 0.079 7.01 2.99 11.91
3/27/2021 7:00:00 PM 9.05 48.29 0.079 6.99 2.84 11.87
3/27/2021 7:15:00 PM 9.01 48.218 0.079 7 3.01 11.83
3/27/2021 7:30:00 PM 8.98 48.164 0.079 6.99 2.84 11.79
3/27/2021 7:45:00 PM 8.96 48.128 0.079 6.97 2.99 11.74
3/27/2021 8:00:00 PM 8.93 48.074 0.079 6.96 2.95 11.71
3/27/2021 8:15:00 PM 8.91 48.038 0.079 6.95 2.89 11.68
3/27/2021 8:30:00 PM 8.91 48.038 0.079 6.95 2.97 11.65
3/27/2021 8:45:00 PM 8.93 48.074 0.079 6.94 3.15 11.62
3/27/2021 9:00:00 PM 8.97 48.146 0.079 6.94 2.94 11.58
3/27/2021 9:15:00 PM 9.01 48.218 0.079 6.93 3 11.56
3/27/2021 9:30:00 PM 9.06 48.308 0.079 6.93 2.97 11.53
3/27/2021 9:45:00 PM 9.1 48.38 0.079 6.93 2.81 11.51
3/27/2021 10:00:00 PM 9.15 48.47 0.079 6.93 3.2 11.49
3/27/2021 10:15:00 PM 9.21 48.578 0.079 6.93 2.91 11.47
3/27/2021 10:30:00 PM 9.26 48.668 0.079 6.9 2.83 11.45
3/27/2021 10:45:00 PM 9.31 48.758 0.079 6.93 2.84 11.44
3/27/2021 11:00:00 PM 9.35 48.83 0.079 6.92 2.81 11.42
3/27/2021 11:15:00 PM 9.4 48.92 0.079 6.92 2.88 11.4
3/27/2021 11:30:00 PM 9.46 49.028 0.079 6.92 2.83 11.38
3/27/2021 11:45:00 PM 9.51 49.118 0.079 6.92 2.81 11.36
3/28/2021 12:00:00 AM 9.56 49.208 0.08 6.92 2.9 11.35
3/28/2021 12:15:00 AM 9.59 49.262 0.08 6.93 2.72 11.33
3/28/2021 12:30:00 AM 9.61 49.298 0.08 6.92 2.88 11.32
3/28/2021 12:45:00 AM 9.63 49.334 0.08 6.92 3.25 11.31
3/28/2021 1:00:00 AM 9.63 49.334 0.08 6.91 2.9 11.31
3/28/2021 1:15:00 AM 9.63 49.334 0.08 6.92 2.81 11.31
3/28/2021 1:30:00 AM 9.62 49.316 0.08 6.92 2.84 11.31
3/28/2021 1:45:00 AM 9.61 49.298 0.08 6.91 2.88 11.31
3/28/2021 2:00:00 AM 9.61 49.298 0.08 6.9 2.86 11.31
3/28/2021 2:15:00 AM 9.6 49.28 0.08 6.91 2.75 11.31
3/28/2021 2:30:00 AM 9.59 49.262 0.08 6.91 2.97 11.31
3/28/2021 2:45:00 AM 9.57 49.226 0.08 6.9 2.66 11.3
3/28/2021 3:00:00 AM 9.56 49.208 0.08 6.91 2.73 11.31
3/28/2021 3:15:00 AM 9.55 49.19 0.08 6.92 2.8 11.3
3/28/2021 3:30:00 AM 9.54 49.172 0.08 6.92 2.87 11.31
3/28/2021 3:45:00 AM 9.53 49.154 0.08 6.92 2.66 11.31
3/28/2021 4:00:00 AM 9.52 49.136 0.08 6.92 2.76 11.31
3/28/2021 4:15:00 AM 9.51 49.118 0.08 6.92 2.87 11.31
3/28/2021 4:30:00 AM 9.51 49.118 0.08 6.91 2.68 11.31
3/28/2021 4:45:00 AM 9.5 49.1 0.08 6.92 2.6 11.31
3/28/2021 5:00:00 AM 9.49 49.082 0.08 6.92 2.68 11.31
3/28/2021 5:15:00 AM 9.48 49.064 0.08 6.91 2.88 11.31
3/28/2021 5:30:00 AM 9.48 49.064 0.08 6.91 2.77 11.31
3/28/2021 5:45:00 AM 9.47 49.046 0.08 6.91 2.64 11.31
3/28/2021 6:00:00 AM 9.49 49.082 0.08 6.91 2.73 11.31
3/28/2021 6:15:00 AM 9.5 49.1 0.08 6.91 2.89 11.3
3/28/2021 6:30:00 AM 9.52 49.136 0.08 6.91 2.79 11.3
3/28/2021 6:45:00 AM 9.53 49.154 0.08 6.91 2.92 11.29
3/28/2021 7:00:00 AM 9.54 49.172 0.08 6.91 2.81 11.29
3/28/2021 7:15:00 AM 9.55 49.19 0.08 6.91 2.87 11.29
3/28/2021 7:30:00 AM 9.56 49.208 0.08 6.91 2.71 11.29
3/28/2021 7:45:00 AM 9.58 49.244 0.08 6.91 2.83 11.3
3/28/2021 8:00:00 AM 9.58 49.244 0.081 6.91 2.82 11.31
3/28/2021 8:15:00 AM 9.58 49.244 0.081 6.92 2.85 11.32
3/28/2021 8:30:00 AM 9.57 49.226 0.082 6.92 2.86 11.34
3/28/2021 8:45:00 AM 9.57 49.226 0.081 6.93 2.7 11.37
3/28/2021 9:00:00 AM 9.58 49.244 0.08 6.94 2.8 11.39
3/28/2021 9:15:00 AM 9.57 49.226 0.081 6.94 2.72 11.39
3/28/2021 9:30:00 AM 9.57 49.226 0.081 6.94 2.7 11.4
3/28/2021 9:45:00 AM 9.57 49.226 0.081 6.95 2.7 11.41
3/28/2021 10:00:00 AM 9.56 49.208 0.081 6.96 2.85 11.44
3/28/2021 10:15:00 AM 9.57 49.226 0.081 6.95 2.87 11.49
3/28/2021 10:30:00 AM 9.56 49.208 0.081 6.97 2.89 11.51
3/28/2021 10:45:00 AM 9.54 49.172 0.081 6.97 2.74 11.52
3/28/2021 11:00:00 AM 9.54 49.172 0.081 6.98 2.88 11.55
3/28/2021 11:15:00 AM 9.52 49.136 0.081 7 2.93 11.57
3/28/2021 11:30:00 AM 9.49 49.082 0.081 6.98 2.88 11.57
3/28/2021 11:45:00 AM 9.47 49.046 0.081 6.98 3.04 11.59
3/28/2021 12:00:00 PM 9.46 49.028 0.081 6.99 2.88 11.62
3/28/2021 12:15:00 PM 9.45 49.01 0.081 7 2.81 11.65
3/28/2021 12:30:00 PM 9.43 48.974 0.081 7.01 2.85 11.66
3/28/2021 12:45:00 PM 9.42 48.956 0.082 7.02 2.8 11.69
3/28/2021 1:00:00 PM 9.42 48.956 0.082 7.02 2.96 11.7
3/28/2021 1:15:00 PM 9.42 48.956 0.082 7.02 2.84 11.72
3/28/2021 1:30:00 PM 9.4 48.92 0.082 7.01 3.3 11.73
3/28/2021 1:45:00 PM 9.39 48.902 0.082 7.03 2.82 11.75
3/28/2021 2:00:00 PM 9.34 48.812 0.082 7.03 2.78 11.73
3/28/2021 2:15:00 PM 9.29 48.722 0.082 7.02 2.81 11.7
3/28/2021 2:30:00 PM 9.25 48.65 0.082 7.01 2.76 11.68
3/28/2021 2:45:00 PM 9.23 48.614 0.082 6.99 2.82 11.69
3/28/2021 3:00:00 PM 9.23 48.614 0.083 7.03 2.79 11.7
3/28/2021 3:15:00 PM 9.22 48.596 0.082 7.02 2.79 11.69
3/28/2021 3:30:00 PM 9.23 48.614 0.082 7.02 2.91 11.66
3/28/2021 3:45:00 PM 9.2 48.56 0.082 7.01 3.22 11.66
3/28/2021 4:00:00 PM 9.15 48.47 0.083 7.02 3.17 11.64
3/28/2021 4:15:00 PM 9.12 48.416 0.083 7.02 3.74 11.65
3/28/2021 4:30:00 PM 9.1 48.38 0.083 7.03 3.9 11.65
3/28/2021 4:45:00 PM 9.06 48.308 0.083 7.01 3.44 11.63
3/28/2021 5:00:00 PM 9.01 48.218 0.083 7 3.12 11.65
3/28/2021 5:15:00 PM 8.98 48.164 0.082 7 3.47 11.66
3/28/2021 5:30:00 PM 8.97 48.146 0.083 7.01 3.02 11.71
3/28/2021 5:45:00 PM 8.94 48.092 0.083 6.98 3.03 11.74
3/28/2021 6:00:00 PM 8.92 48.056 0.083 7.02 2.99 11.75
3/28/2021 6:15:00 PM 8.87 47.966 0.083 7 2.95 11.75
3/28/2021 6:30:00 PM 8.85 47.93 0.083 7.02 2.79 11.73
3/28/2021 6:45:00 PM 8.84 47.912 0.083 7.02 2.89 11.72
3/28/2021 7:00:00 PM 8.83 47.894 0.083 7.02 2.74 11.69
3/28/2021 7:15:00 PM 8.81 47.858 0.083 7.01 2.83 11.66
3/28/2021 7:30:00 PM 8.76 47.768 0.083 7 2.72 11.63
3/28/2021 7:45:00 PM 8.71 47.678 0.083 6.98 2.8 11.61
3/28/2021 8:00:00 PM 8.69 47.642 0.083 6.98 2.8 11.58
3/28/2021 8:15:00 PM 8.67 47.606 0.083 6.97 2.77 11.55
3/28/2021 8:30:00 PM 8.66 47.588 0.083 6.96 2.74 11.53
3/28/2021 8:45:00 PM 8.65 47.57 0.083 6.97 2.84 11.52
3/28/2021 9:00:00 PM 8.63 47.534 0.083 6.96 2.86 11.51
3/28/2021 9:15:00 PM 8.61 47.498 0.083 6.96 2.77 11.51
3/28/2021 9:30:00 PM 8.59 47.462 0.083 6.95 3.03 11.51
3/28/2021 9:45:00 PM 8.57 47.426 0.083 6.95 2.79 11.51
3/28/2021 10:00:00 PM 8.54 47.372 0.083 6.92 2.89 11.52
3/28/2021 10:15:00 PM 8.53 47.354 0.083 6.96 2.85 11.53
3/28/2021 10:30:00 PM 8.51 47.318 0.083 6.95 2.87 11.53
3/28/2021 10:45:00 PM 8.5 47.3 0.083 6.95 2.75 11.54
3/28/2021 11:00:00 PM 8.5 47.3 0.083 6.95 2.8 11.55
3/28/2021 11:15:00 PM 8.51 47.318 0.083 6.88 2.71 11.55
3/28/2021 11:30:00 PM 8.52 47.336 0.083 6.96 2.63 11.55
3/28/2021 11:45:00 PM 8.53 47.354 0.083 6.95 2.88 11.54
3/29/2021 12:00:00 AM 8.51 47.318 0.083 6.95 2.7 11.55
3/29/2021 12:15:00 AM 8.51 47.318 0.083 6.95 2.79 11.55
3/29/2021 12:30:00 AM 8.5 47.3 0.083 6.95 2.7 11.56
3/29/2021 12:45:00 AM 8.5 47.3 0.083 6.95 2.75 11.56
3/29/2021 1:00:00 AM 8.49 47.282 0.083 6.95 2.82 11.56
3/29/2021 1:15:00 AM 8.47 47.246 0.083 6.95 2.75 11.57
3/29/2021 1:30:00 AM 8.45 47.21 0.083 6.95 2.7 11.58
3/29/2021 1:45:00 AM 8.43 47.174 0.083 6.95 2.84 11.59
3/29/2021 2:00:00 AM 8.43 47.174 0.083 6.95 2.79 11.59
3/29/2021 2:15:00 AM 8.42 47.156 0.083 6.95 2.82 11.6
3/29/2021 2:30:00 AM 8.42 47.156 0.083 6.94 2.79 11.59
3/29/2021 2:45:00 AM 8.41 47.138 0.083 6.95 2.75 11.6
3/29/2021 3:00:00 AM 8.42 47.156 0.083 6.95 2.81 11.59
3/29/2021 3:15:00 AM 8.44 47.192 0.083 6.95 2.72 11.6
3/29/2021 3:30:00 AM 8.45 47.21 0.083 6.94 2.69 11.59
3/29/2021 3:45:00 AM 8.47 47.246 0.083 6.95 2.7 11.58
3/29/2021 4:00:00 AM 8.49 47.282 0.082 6.95 2.76 11.58
3/29/2021 4:15:00 AM 8.49 47.282 0.082 6.94 2.8 11.59
3/29/2021 4:30:00 AM 8.48 47.264 0.083 6.94 2.87 11.59
3/29/2021 4:45:00 AM 8.48 47.264 0.083 6.94 2.66 11.6
3/29/2021 5:00:00 AM 8.47 47.246 0.083 6.93 2.91 11.6
3/29/2021 5:15:00 AM 8.45 47.21 0.083 6.94 2.83 11.62
3/29/2021 5:30:00 AM 8.4 47.12 0.083 6.94 2.76 11.64
3/29/2021 5:45:00 AM 8.36 47.048 0.083 6.94 2.75 11.66
3/29/2021 6:00:00 AM 8.31 46.958 0.083 6.94 2.92 11.67
3/29/2021 6:15:00 AM 8.28 46.904 0.083 6.95 2.84 11.69
3/29/2021 6:30:00 AM 8.25 46.85 0.083 6.94 2.92 11.7
3/29/2021 6:45:00 AM 8.21 46.778 0.083 6.94 2.94 11.72
3/29/2021 7:00:00 AM 8.19 46.742 0.083 6.95 2.84 11.73
3/29/2021 7:15:00 AM 8.15 46.67 0.084 6.94 3.02 11.75
3/29/2021 7:30:00 AM 8.11 46.598 0.084 6.95 3.83 11.78
3/29/2021 7:45:00 AM 8.04 46.472 0.084 6.95 2.92 11.81
3/29/2021 8:00:00 AM 8 46.4 0.084 6.96 2.92 11.85
3/29/2021 8:15:00 AM 7.95 46.31 0.084 6.9 3.45 11.9
3/29/2021 8:30:00 AM 7.92 46.256 0.084 6.97 3.12 11.95
3/29/2021 8:45:00 AM 7.9 46.22 0.084 6.99 2.89 11.99
3/29/2021 9:00:00 AM 7.87 46.166 0.085 7 2.82 12.03
3/29/2021 9:15:00 AM 7.87 46.166 0.085 7 2.97 12.07
3/29/2021 9:30:00 AM 7.87 46.166 0.084 7.01 3.1 12.12
3/29/2021 9:45:00 AM 7.88 46.184 0.084 7.03 3.02 12.16
3/29/2021 10:00:00 AM 7.9 46.22 0.085 7.04 2.88 12.2
3/29/2021 10:15:00 AM 7.91 46.238 0.084 7.06 2.81 12.23
3/29/2021 10:30:00 AM 7.94 46.292 0.084 7.07 2.81 12.26
3/29/2021 10:45:00 AM 7.96 46.328 0.084 7.06 2.84 12.29
3/29/2021 11:00:00 AM 7.99 46.382 0.084 7.07 3.38 12.31
3/29/2021 11:15:00 AM 8.05 46.49 0.084 7.08 2.82 12.34
3/29/2021 11:30:00 AM 8.1 46.58 0.084 7.08 2.89 12.35
3/29/2021 11:45:00 AM 8.18 46.724 0.084 7.1 2.88 12.35
3/29/2021 12:00:00 PM 8.25 46.85 0.084 7.1 2.92 12.36
3/29/2021 12:15:00 PM 8.32 46.976 0.085 7.1 2.86 12.36
3/29/2021 12:30:00 PM 8.35 47.03 0.084 7.09 2.74 12.36
3/29/2021 12:45:00 PM 8.41 47.138 0.084 7.1 2.9 12.36
3/29/2021 1:00:00 PM 8.49 47.282 0.084 7.11 2.85 12.35
3/29/2021 1:15:00 PM 8.61 47.498 0.085 7.11 2.91 12.33
3/29/2021 1:30:00 PM 8.76 47.768 0.085 7.11 2.86 12.32
3/29/2021 1:45:00 PM 8.9 48.02 0.085 7.11 2.88 12.3
3/29/2021 2:00:00 PM 9 48.2 0.085 7.11 2.91 12.28
3/29/2021 2:15:00 PM 9.07 48.326 0.085 7.11 2.82 12.27
3/29/2021 2:30:00 PM 9.13 48.434 0.085 7.1 2.9 12.26
3/29/2021 2:45:00 PM 9.15 48.47 0.085 7.1 2.87 12.25
3/29/2021 3:00:00 PM 9.17 48.506 0.085 7.11 2.92 12.24
3/29/2021 3:15:00 PM 9.17 48.506 0.085 7.1 2.91 12.23
3/29/2021 3:30:00 PM 9.14 48.452 0.085 7.09 2.88 12.23
3/29/2021 3:45:00 PM 9.08 48.344 0.085 7.09 2.86 12.22
3/29/2021 4:00:00 PM 9 48.2 0.085 7.08 2.91 12.21
3/29/2021 4:15:00 PM 8.89 48.002 0.085 7.08 2.9 12.21
3/29/2021 4:30:00 PM 8.75 47.75 0.085 7.07 2.84 12.2
3/29/2021 4:45:00 PM 8.6 47.48 0.085 7.06 3.04 12.19
3/29/2021 5:00:00 PM 8.46 47.228 0.085 7.05 2.88 12.19
3/29/2021 5:15:00 PM 8.36 47.048 0.085 7.05 3.08 12.19
3/29/2021 5:30:00 PM 8.27 46.886 0.085 7.04 3.03 12.18
3/29/2021 5:45:00 PM 8.2 46.76 0.085 7.04 3.05 12.17
3/29/2021 6:00:00 PM 8.13 46.634 0.085 7.03 3.21 12.16
3/29/2021 6:15:00 PM 8.06 46.508 0.085 7.03 2.97 12.16
3/29/2021 6:30:00 PM 7.99 46.382 0.085 7.03 2.89 12.15
3/29/2021 6:45:00 PM 7.91 46.238 0.085 7.02 3.05 12.13
3/29/2021 7:00:00 PM 7.83 46.094 0.086 7.02 2.94 12.13
3/29/2021 7:15:00 PM 7.77 45.986 0.086 7.02 2.87 12.12
3/29/2021 7:30:00 PM 7.7 45.86 0.086 7 2.87 12.11
3/29/2021 7:45:00 PM 7.64 45.752 0.085 7 2.99 12.1
3/29/2021 8:00:00 PM 7.58 45.644 0.085 6.99 2.88 12.08
3/29/2021 8:15:00 PM 7.52 45.536 0.086 6.98 2.91 12.07
3/29/2021 8:30:00 PM 7.47 45.446 0.086 6.98 2.97 12.06
3/29/2021 8:45:00 PM 7.43 45.374 0.086 6.97 2.99 12.06
3/29/2021 9:00:00 PM 7.39 45.302 0.086 6.98 3 12.06
3/29/2021 9:15:00 PM 7.35 45.23 0.086 6.96 2.94 12.06
3/29/2021 9:30:00 PM 7.32 45.176 0.086 6.97 3.13 12.06
3/29/2021 9:45:00 PM 7.28 45.104 0.086 6.97 2.98 12.07
3/29/2021 10:00:00 PM 7.25 45.05 0.086 6.96 2.92 12.07
3/29/2021 10:15:00 PM 7.22 44.996 0.086 6.97 2.88 12.08
3/29/2021 10:30:00 PM 7.2 44.96 0.086 6.97 3.03 12.08
3/29/2021 10:45:00 PM 7.18 44.924 0.086 6.96 2.98 12.09
3/29/2021 11:00:00 PM 7.17 44.906 0.086 6.96 3.04 12.09
3/29/2021 11:15:00 PM 7.15 44.87 0.086 6.96 3.14 12.09
3/29/2021 11:30:00 PM 7.14 44.852 0.086 6.96 2.93 12.09
3/29/2021 11:45:00 PM 7.13 44.834 0.086 6.96 2.88 12.1
3/30/2021 12:00:00 AM 7.12 44.816 0.086 6.97 2.89 12.1
3/30/2021 12:15:00 AM 7.12 44.816 0.087 6.96 2.96 12.1
3/30/2021 12:30:00 AM 7.12 44.816 0.087 6.97 2.8 12.1
3/30/2021 12:45:00 AM 7.11 44.798 0.087 6.97 2.88 12.1
3/30/2021 1:00:00 AM 7.11 44.798 0.087 6.97 2.81 12.1
3/30/2021 1:15:00 AM 7.11 44.798 0.087 6.96 2.84 12.1
3/30/2021 1:30:00 AM 7.1 44.78 0.087 6.97 2.82 12.1
3/30/2021 1:45:00 AM 7.1 44.78 0.087 6.97 2.86 12.1
3/30/2021 2:00:00 AM 7.1 44.78 0.087 6.97 2.85 12.1
3/30/2021 2:15:00 AM 7.1 44.78 0.087 6.97 2.87 12.09
3/30/2021 2:30:00 AM 7.11 44.798 0.087 6.97 2.79 12.09
3/30/2021 2:45:00 AM 7.11 44.798 0.087 6.97 2.91 12.09
3/30/2021 3:00:00 AM 7.11 44.798 0.087 6.97 2.84 12.09
3/30/2021 3:15:00 AM 7.11 44.798 0.087 6.97 2.87 12.09
3/30/2021 3:30:00 AM 7.11 44.798 0.087 6.97 2.81 12.09
3/30/2021 3:45:00 AM 7.11 44.798 0.087 6.97 2.8 12.08
3/30/2021 4:00:00 AM 7.11 44.798 0.087 6.97 2.82 12.08
3/30/2021 4:15:00 AM 7.1 44.78 0.087 6.97 2.8 12.09
3/30/2021 4:30:00 AM 7.09 44.762 0.087 6.97 2.72 12.09
3/30/2021 4:45:00 AM 7.07 44.726 0.087 6.97 2.68 12.09
3/30/2021 5:00:00 AM 7.06 44.708 0.087 6.97 2.75 12.1
3/30/2021 5:15:00 AM 7.04 44.672 0.087 6.97 2.67 12.1
3/30/2021 5:30:00 AM 7.01 44.618 0.087 6.97 2.8 12.11
3/30/2021 5:45:00 AM 6.99 44.582 0.087 6.96 2.8 12.11
3/30/2021 6:00:00 AM 6.97 44.546 0.087 6.97 2.95 12.12
3/30/2021 6:15:00 AM 6.94 44.492 0.087 6.96 2.7 12.12
3/30/2021 6:30:00 AM 6.92 44.456 0.087 6.96 2.88 12.13
3/30/2021 6:45:00 AM 6.9 44.42 0.087 6.96 2.78 12.13
3/30/2021 7:00:00 AM 6.89 44.402 0.087 6.96 2.84 12.14
3/30/2021 7:15:00 AM 6.88 44.384 0.087 6.97 2.78 12.15
3/30/2021 7:30:00 AM 6.86 44.348 0.087 6.97 2.75 12.17
3/30/2021 7:45:00 AM 6.85 44.33 0.087 6.98 3.42 12.2
3/30/2021 8:00:00 AM 6.84 44.312 0.087 6.98 2.64 12.23
3/30/2021 8:15:00 AM 6.83 44.294 0.087 6.98 2.82 12.25
3/30/2021 8:30:00 AM 6.82 44.276 0.087 6.99 2.69 12.28
3/30/2021 8:45:00 AM 6.84 44.312 0.087 7 3 12.31
3/30/2021 9:00:00 AM 6.87 44.366 0.087 7.01 2.82 12.35
3/30/2021 9:15:00 AM 6.9 44.42 0.087 7.01 2.66 12.37
3/30/2021 9:30:00 AM 6.93 44.474 0.087 7.02 2.68 12.4
3/30/2021 9:45:00 AM 6.98 44.564 0.087 7.03 2.72 12.42
3/30/2021 10:00:00 AM 7.02 44.636 0.087 7.03 2.71 12.44
3/30/2021 10:15:00 AM 7.1 44.78 0.087 7.04 2.75 12.46
3/30/2021 10:30:00 AM 7.19 44.942 0.087 7.05 2.75 12.47
3/30/2021 10:45:00 AM 7.29 45.122 0.087 7.06 2.79 12.47
3/30/2021 11:00:00 AM 7.41 45.338 0.087 7.07 2.79 12.48
3/30/2021 11:15:00 AM 7.54 45.572 0.087 7.08 2.79 12.48
3/30/2021 11:30:00 AM 7.69 45.842 0.087 7.08 2.7 12.46
3/30/2021 11:45:00 AM 7.86 46.148 0.087 7.09 2.76 12.46
3/30/2021 12:00:00 PM 8.05 46.49 0.087 7.09 2.71 12.44
3/30/2021 12:15:00 PM 8.23 46.814 0.086 7.1 2.78 12.43
3/30/2021 12:30:00 PM 8.42 47.156 0.087 7.11 2.66 12.41
3/30/2021 12:45:00 PM 8.59 47.462 0.087 7.11 2.64 12.38
3/30/2021 1:00:00 PM 8.76 47.768 0.087 7.09 2.68 12.35
3/30/2021 1:15:00 PM 8.92 48.056 0.087 7.11 2.67 12.33
3/30/2021 1:30:00 PM 9.06 48.308 0.087 7.11 2.62 12.31
3/30/2021 1:45:00 PM 9.17 48.506 0.087 7.11 2.58 12.3
3/30/2021 2:00:00 PM 9.25 48.65 0.088 7.11 2.69 12.29
3/30/2021 2:15:00 PM 9.32 48.776 0.087 7.11 2.65 12.28
3/30/2021 2:30:00 PM 9.34 48.812 0.088 7.11 2.59 12.28
3/30/2021 2:45:00 PM 9.33 48.794 0.088 7.1 2.58 12.28
3/30/2021 3:00:00 PM 9.27 48.686 0.088 7.1 2.65 12.3
3/30/2021 3:15:00 PM 9.18 48.524 0.089 7.09 2.55 12.32
3/30/2021 3:30:00 PM 9.05 48.29 0.089 7.08 2.74 12.34
3/30/2021 3:45:00 PM 8.89 48.002 0.089 7.08 2.55 12.35
3/30/2021 4:00:00 PM 8.76 47.768 0.089 7.08 2.59 12.36
3/30/2021 4:15:00 PM 8.61 47.498 0.089 7.08 2.56 12.37
3/30/2021 4:30:00 PM 8.49 47.282 0.089 7.08 2.74 12.36
3/30/2021 4:45:00 PM 8.35 47.03 0.089 7.05 2.64 12.35
3/30/2021 5:00:00 PM 8.28 46.904 0.089 7.07 2.82 12.35
3/30/2021 5:15:00 PM 8.17 46.706 0.089 7.07 2.63 12.34
3/30/2021 5:30:00 PM 8.09 46.562 0.089 7.09 2.67 12.33
3/30/2021 5:45:00 PM 8.04 46.472 0.089 7.07 2.66 12.33
3/30/2021 6:00:00 PM 7.98 46.364 0.089 7.07 2.7 12.32
3/30/2021 6:15:00 PM 7.9 46.22 0.089 7.07 2.75 12.31
3/30/2021 6:30:00 PM 7.81 46.058 0.089 7.06 2.68 12.28
3/30/2021 6:45:00 PM 7.74 45.932 0.089 7.06 2.74 12.26
3/30/2021 7:00:00 PM 7.68 45.824 0.089 7.05 2.64 12.24
3/30/2021 7:15:00 PM 7.62 45.716 0.089 6.96 2.61 12.21
3/30/2021 7:30:00 PM 7.56 45.608 0.089 7.04 2.72 12.18
3/30/2021 7:45:00 PM 7.52 45.536 0.089 7.03 2.72 12.15
3/30/2021 8:00:00 PM 7.47 45.446 0.089 7.02 2.87 12.12
3/30/2021 8:15:00 PM 7.42 45.356 0.089 7.01 2.71 12.1
3/30/2021 8:30:00 PM 7.39 45.302 0.089 7.01 2.79 12.08
3/30/2021 8:45:00 PM 7.35 45.23 0.09 6.99 2.75 12.06
3/30/2021 9:00:00 PM 7.34 45.212 0.09 6.99 2.72 12.05
3/30/2021 9:15:00 PM 7.34 45.212 0.09 6.99 2.84 12.03
3/30/2021 9:30:00 PM 7.35 45.23 0.09 6.99 2.71 12.02
3/30/2021 9:45:00 PM 7.36 45.248 0.089 6.99 2.79 12
3/30/2021 10:00:00 PM 7.36 45.248 0.089 6.99 2.81 12
3/30/2021 10:15:00 PM 7.37 45.266 0.09 6.98 2.87 11.99
3/30/2021 10:30:00 PM 7.37 45.266 0.089 6.98 2.76 11.99
3/30/2021 10:45:00 PM 7.37 45.266 0.09 6.98 2.8 11.99
3/30/2021 11:00:00 PM 7.37 45.266 0.089 6.98 2.84 11.99
3/30/2021 11:15:00 PM 7.37 45.266 0.089 6.93 2.83 11.99
3/30/2021 11:30:00 PM 7.36 45.248 0.089 6.97 2.69 11.98
3/30/2021 11:45:00 PM 7.36 45.248 0.089 6.97 2.83 11.98
3/31/2021 12:00:00 AM 7.36 45.248 0.089 6.96 3.03 11.98
3/31/2021 12:15:00 AM 7.37 45.266 0.089 6.97 2.82 11.97
3/31/2021 12:30:00 AM 7.39 45.302 0.089 6.97 2.75 11.96
3/31/2021 12:45:00 AM 7.4 45.32 0.089 6.96 2.76 11.96
3/31/2021 1:00:00 AM 7.41 45.338 0.089 6.97 2.7 11.95
3/31/2021 1:15:00 AM 7.42 45.356 0.089 6.95 2.73 11.94
3/31/2021 1:30:00 AM 7.44 45.392 0.089 6.96 2.74 11.93
3/31/2021 1:45:00 AM 7.46 45.428 0.089 6.96 2.72 11.92
3/31/2021 2:00:00 AM 7.48 45.464 0.089 6.96 2.67 11.92
3/31/2021 2:15:00 AM 7.51 45.518 0.089 6.96 2.78 11.91
3/31/2021 2:30:00 AM 7.54 45.572 0.089 6.96 2.89 11.89
3/31/2021 2:45:00 AM 7.58 45.644 0.089 6.96 2.82 11.88
3/31/2021 3:00:00 AM 7.61 45.698 0.089 6.96 2.68 11.86
3/31/2021 3:15:00 AM 7.63 45.734 0.089 6.96 2.81 11.85
3/31/2021 3:30:00 AM 7.65 45.77 0.089 6.96 2.66 11.85
3/31/2021 3:45:00 AM 7.66 45.788 0.089 6.95 2.67 11.84
3/31/2021 4:00:00 AM 7.67 45.806 0.089 6.95 2.74 11.83
3/31/2021 4:15:00 AM 7.69 45.842 0.09 6.96 2.83 11.82
3/31/2021 4:30:00 AM 7.71 45.878 0.089 6.96 2.84 11.82
3/31/2021 4:45:00 AM 7.73 45.914 0.089 6.96 2.8 11.81
3/31/2021 5:00:00 AM 7.75 45.95 0.089 6.96 2.69 11.8
3/31/2021 5:15:00 AM 7.78 46.004 0.09 6.96 2.77 11.79
3/31/2021 5:30:00 AM 7.81 46.058 0.089 6.96 2.9 11.77
3/31/2021 5:45:00 AM 7.84 46.112 0.089 6.96 2.74 11.76
3/31/2021 6:00:00 AM 7.88 46.184 0.09 6.96 2.81 11.75
3/31/2021 6:15:00 AM 7.91 46.238 0.09 6.96 2.73 11.73
3/31/2021 6:30:00 AM 7.94 46.292 0.09 6.96 2.67 11.73
3/31/2021 6:45:00 AM 7.97 46.346 0.09 6.96 2.68 11.72
3/31/2021 7:00:00 AM 7.99 46.382 0.089 6.96 2.76 11.71
3/31/2021 7:15:00 AM 8.02 46.436 0.089 6.96 2.65 11.71
3/31/2021 7:30:00 AM 8.04 46.472 0.09 6.96 2.69 11.72
3/31/2021 7:45:00 AM 8.07 46.526 0.089 6.98 2.96 11.75
3/31/2021 8:00:00 AM 8.11 46.598 0.089 6.98 2.66 11.78
3/31/2021 8:15:00 AM 8.14 46.652 0.089 6.99 2.77 11.81
3/31/2021 8:30:00 AM 8.17 46.706 0.089 7 2.66 11.84
3/31/2021 8:45:00 AM 8.2 46.76 0.089 7.01 3.05 11.86
3/31/2021 9:00:00 AM 8.23 46.814 0.089 7.02 2.56 11.89
3/31/2021 9:15:00 AM 8.27 46.886 0.089 7.03 2.58 11.92
3/31/2021 9:30:00 AM 8.3 46.94 0.089 7.03 2.54 11.95
3/31/2021 9:45:00 AM 8.32 46.976 0.089 7.04 2.58 11.96
3/31/2021 10:00:00 AM 8.33 46.994 0.09 7.04 2.66 11.96
3/31/2021 10:15:00 AM 8.34 47.012 0.089 7.05 2.53 11.96
3/31/2021 10:30:00 AM 8.34 47.012 0.089 6.97 2.88 11.96
3/31/2021 10:45:00 AM 8.34 47.012 0.09 7.05 2.84 11.94
3/31/2021 11:00:00 AM 8.34 47.012 0.09 7.04 3.02 11.91
3/31/2021 11:15:00 AM 8.36 47.048 0.09 7.04 3.56 11.88
3/31/2021 11:30:00 AM 8.37 47.066 0.09 7.04 3.25 11.86
3/31/2021 11:45:00 AM 8.38 47.084 0.089 7.04 3.08 11.84
3/31/2021 12:00:00 PM 8.39 47.102 0.09 7.03 3.03 11.84
3/31/2021 12:15:00 PM 8.41 47.138 0.089 7.04 2.74 11.87
3/31/2021 12:30:00 PM 8.43 47.174 0.089 7.04 2.89 11.92
3/31/2021 12:45:00 PM 8.44 47.192 0.089 7.05 2.88 11.94
3/31/2021 1:00:00 PM 8.44 47.192 0.089 7.05 2.58 11.95
3/31/2021 1:15:00 PM 8.44 47.192 0.089 7.05 2.63 11.94
3/31/2021 1:30:00 PM 8.43 47.174 0.089 7.06 2.79 11.94
3/31/2021 1:45:00 PM 8.43 47.174 0.089 7.06 2.74 11.95
3/31/2021 2:00:00 PM 8.43 47.174 0.089 7.06 2.76 11.95
3/31/2021 2:15:00 PM 8.43 47.174 0.089 7.06 2.66 11.94
3/31/2021 2:30:00 PM 8.42 47.156 0.089 6.98 2.64 11.93
3/31/2021 2:45:00 PM 8.42 47.156 0.09 7.06 2.69 11.93
3/31/2021 3:00:00 PM 8.41 47.138 0.09 7.06 2.67 11.94
3/31/2021 3:15:00 PM 8.39 47.102 0.09 7.05 3.03 11.93
3/31/2021 3:30:00 PM 8.39 47.102 0.09 7.05 3.23 11.93
3/31/2021 3:45:00 PM 8.38 47.084 0.09 7.05 2.89 11.94
3/31/2021 4:00:00 PM 8.38 47.084 0.09 7.06 2.65 11.94
3/31/2021 4:15:00 PM 8.38 47.084 0.09 7.06 2.75 11.95
3/31/2021 4:30:00 PM 8.38 47.084 0.09 7.05 2.65 11.94
3/31/2021 4:45:00 PM 8.39 47.102 0.09 7.06 2.53 11.93
3/31/2021 5:00:00 PM 8.39 47.102 0.09 7.06 2.58 11.92
3/31/2021 5:15:00 PM 8.38 47.084 0.09 7.05 2.6 11.88
3/31/2021 5:30:00 PM 8.36 47.048 0.091 7.04 2.49 11.85
3/31/2021 5:45:00 PM 8.35 47.03 0.09 7.04 2.68 11.86
3/31/2021 6:00:00 PM 8.34 47.012 0.091 7.02 2.65 11.87
3/31/2021 6:15:00 PM 8.33 46.994 0.09 7.03 2.65 11.84
3/31/2021 6:30:00 PM 8.31 46.958 0.09 7.02 2.68 11.82
3/31/2021 6:45:00 PM 8.29 46.922 0.091 6.97 2.57 11.79
3/31/2021 7:00:00 PM 8.28 46.904 0.091 7.01 2.83 11.78
3/31/2021 7:15:00 PM 8.27 46.886 0.091 6.94 2.6 11.77
3/31/2021 7:30:00 PM 8.26 46.868 0.091 7 2.66 11.75
3/31/2021 7:45:00 PM 8.25 46.85 0.091 6.99 2.68 11.73
3/31/2021 8:00:00 PM 8.24 46.832 0.091 6.99 2.8 11.71
3/31/2021 8:15:00 PM 8.23 46.814 0.091 6.98 2.66 11.7
3/31/2021 8:30:00 PM 8.22 46.796 0.091 6.99 2.77 11.69
3/31/2021 8:45:00 PM 8.2 46.76 0.091 6.98 2.77 11.69
3/31/2021 9:00:00 PM 8.18 46.724 0.091 6.98 2.67 11.68
3/31/2021 9:15:00 PM 8.15 46.67 0.091 6.98 2.73 11.69
3/31/2021 9:30:00 PM 8.13 46.634 0.091 6.98 2.62 11.69
3/31/2021 9:45:00 PM 8.11 46.598 0.091 6.98 2.64 11.69
3/31/2021 10:00:00 PM 8.08 46.544 0.091 6.98 2.64 11.69
3/31/2021 10:15:00 PM 8.07 46.526 0.091 6.98 2.67 11.7
3/31/2021 10:30:00 PM 8.07 46.526 0.091 6.98 2.66 11.69
3/31/2021 10:45:00 PM 8.07 46.526 0.091 6.98 2.69 11.69
3/31/2021 11:00:00 PM 8.08 46.544 0.091 6.98 2.68 11.68
3/31/2021 11:15:00 PM 8.09 46.562 0.091 6.98 2.54 11.69
3/31/2021 11:30:00 PM 8.09 46.562 0.091 6.98 2.55 11.68
3/31/2021 11:45:00 PM 8.1 46.58 0.091 6.98 2.52 11.68
4/1/2021 12:00:00 AM 8.09 46.562 0.091 6.98 2.6 11.68
4/1/2021 12:15:00 AM 8.08 46.544 0.09 6.98 2.46 11.69
4/1/2021 12:30:00 AM 8.07 46.526 0.09 6.98 2.6 11.69
4/1/2021 12:45:00 AM 8.05 46.49 0.091 6.98 2.54 11.7
4/1/2021 1:00:00 AM 8.04 46.472 0.091 6.98 2.55 11.7
4/1/2021 1:15:00 AM 8.02 46.436 0.091 6.98 2.52 11.71
4/1/2021 1:30:00 AM 8 46.4 0.091 6.97 2.51 11.71
4/1/2021 1:45:00 AM 7.98 46.364 0.09 6.98 2.55 11.72
4/1/2021 2:00:00 AM 7.96 46.328 0.091 6.98 2.63 11.73
4/1/2021 2:15:00 AM 7.93 46.274 0.09 6.98 2.61 11.73
4/1/2021 2:30:00 AM 7.89 46.202 0.091 6.97 2.47 11.73
4/1/2021 2:45:00 AM 7.87 46.166 0.09 6.98 2.61 11.74
4/1/2021 3:00:00 AM 7.84 46.112 0.09 6.97 2.62 11.75
4/1/2021 3:15:00 AM 7.82 46.076 0.091 6.98 2.56 11.75
4/1/2021 3:30:00 AM 7.8 46.04 0.091 6.94 2.73 11.75
4/1/2021 3:45:00 AM 7.79 46.022 0.09 6.98 2.55 11.75
4/1/2021 4:00:00 AM 7.78 46.004 0.091 6.94 2.62 11.76
4/1/2021 4:15:00 AM 7.77 45.986 0.091 6.98 2.52 11.76
4/1/2021 4:30:00 AM 7.74 45.932 0.091 6.98 2.48 11.76
4/1/2021 4:45:00 AM 7.71 45.878 0.091 6.98 2.58 11.77
4/1/2021 5:00:00 AM 7.69 45.842 0.091 6.98 2.58 11.77
4/1/2021 5:15:00 AM 7.67 45.806 0.091 6.98 2.51 11.78
4/1/2021 5:30:00 AM 7.65 45.77 0.09 6.98 2.67 11.78
4/1/2021 5:45:00 AM 7.63 45.734 0.09 6.98 2.62 11.79
4/1/2021 6:00:00 AM 7.61 45.698 0.091 6.98 2.5 11.79
4/1/2021 6:15:00 AM 7.58 45.644 0.09 6.98 2.64 11.8
4/1/2021 6:30:00 AM 7.56 45.608 0.091 6.98 2.54 11.8
4/1/2021 6:45:00 AM 7.55 45.59 0.091 6.98 2.65 11.81
4/1/2021 7:00:00 AM 7.53 45.554 0.091 6.98 2.65 11.81
4/1/2021 7:15:00 AM 7.51 45.518 0.09 6.99 2.56 11.82
4/1/2021 7:30:00 AM 7.51 45.518 0.09 6.99 2.52 11.84
4/1/2021 7:45:00 AM 7.49 45.482 0.091 6.99 3.2 11.86
4/1/2021 8:00:00 AM 7.49 45.482 0.09 7 2.53 11.89
4/1/2021 8:15:00 AM 7.49 45.482 0.09 7.01 2.58 11.94
4/1/2021 8:30:00 AM 7.52 45.536 0.09 7.03 2.55 12.01
4/1/2021 8:45:00 AM 7.52 45.536 0.09 7.04 2.49 12.05
4/1/2021 9:00:00 AM 7.55 45.59 0.09 7.05 2.57 12.09
4/1/2021 9:15:00 AM 7.59 45.662 0.09 7.05 2.51 12.13
4/1/2021 9:30:00 AM 7.62 45.716 0.09 7.07 2.58 12.17
4/1/2021 9:45:00 AM 7.64 45.752 0.09 7.08 2.5 12.18
4/1/2021 10:00:00 AM 7.63 45.734 0.09 7.08 2.52 12.2
4/1/2021 10:15:00 AM 7.73 45.914 0.09 7.1 2.54 12.21
4/1/2021 10:30:00 AM 7.77 45.986 0.09 7.1 2.52 12.23
4/1/2021 10:45:00 AM 7.82 46.076 0.09 7.07 2.53 12.24
4/1/2021 11:00:00 AM 7.85 46.13 0.09 7.11 2.5 12.24
4/1/2021 11:15:00 AM 7.88 46.184 0.09 7.1 2.55 12.25
4/1/2021 11:30:00 AM 7.92 46.256 0.09 7.12 2.63 12.25
4/1/2021 11:45:00 AM 8.01 46.418 0.09 7.13 2.51 12.26
4/1/2021 12:00:00 PM 8.15 46.67 0.09 7.14 2.55 12.25
4/1/2021 12:15:00 PM 8.28 46.904 0.09 7.14 2.4 12.24
4/1/2021 12:30:00 PM 8.26 46.868 0.09 7.13 2.65 12.23
4/1/2021 12:45:00 PM 8.31 46.958 0.09 7.13 2.66 12.23
4/1/2021 1:00:00 PM 8.4 47.12 0.09 7.14 2.58 12.23
4/1/2021 1:15:00 PM 8.52 47.336 0.09 7.15 2.58 12.21
4/1/2021 1:30:00 PM 8.56 47.408 0.09 7.14 2.55 12.2
4/1/2021 1:45:00 PM 8.46 47.228 0.09 7.11 2.62 12.2
4/1/2021 2:00:00 PM 8.34 47.012 0.09 7.13 2.66 12.21
4/1/2021 2:15:00 PM 8.27 46.886 0.091 7.11 2.6 12.21
4/1/2021 2:30:00 PM 8.21 46.778 0.09 7.13 2.57 12.22
4/1/2021 2:45:00 PM 8.2 46.76 0.09 7.13 2.66 12.22
4/1/2021 3:00:00 PM 8.2 46.76 0.09 7.14 2.81 12.23
4/1/2021 3:15:00 PM 8.21 46.778 0.09 7.14 2.53 12.23
4/1/2021 3:30:00 PM 8.27 46.886 0.091 7.15 2.66 12.24
4/1/2021 3:45:00 PM 8.17 46.706 0.09 7.13 2.64 12.23
4/1/2021 4:00:00 PM 8.08 46.544 0.091 7.13 2.8 12.23
4/1/2021 4:15:00 PM 7.98 46.364 0.091 7.12 2.78 12.24
4/1/2021 4:30:00 PM 7.89 46.202 0.091 7.12 2.61 12.27
4/1/2021 4:45:00 PM 7.8 46.04 0.091 7.12 2.74 12.28
4/1/2021 5:00:00 PM 7.73 45.914 0.091 7.12 3 12.29
4/1/2021 5:15:00 PM 7.69 45.842 0.091 7.12 3.75 12.28
4/1/2021 5:30:00 PM 7.65 45.77 0.091 7.13 6.07 12.28
4/1/2021 5:45:00 PM 7.63 45.734 0.091 7.13 2.81 12.28
4/1/2021 6:00:00 PM 7.59 45.662 0.091 7.12 3.31 12.28
4/1/2021 6:15:00 PM 7.51 45.518 0.091 7.12 2.92 12.27
4/1/2021 6:30:00 PM 7.43 45.374 0.091 7.11 2.99 12.27
4/1/2021 6:45:00 PM 7.37 45.266 0.091 7.1 2.86 12.26
4/1/2021 7:00:00 PM 7.32 45.176 0.091 7.1 2.93 12.24
4/1/2021 7:15:00 PM 7.27 45.086 0.092 7.09 2.94 12.21
4/1/2021 7:30:00 PM 7.21 44.978 0.091 7.07 5.46 12.17
4/1/2021 7:45:00 PM 7.14 44.852 0.092 7.06 2.97 12.14
4/1/2021 8:00:00 PM 7.09 44.762 0.091 7.05 3.05 12.11
4/1/2021 8:15:00 PM 7.06 44.708 0.091 7.04 3.36 12.09
4/1/2021 8:30:00 PM 7.02 44.636 0.092 7.04 3.4 12.07
4/1/2021 8:45:00 PM 6.98 44.564 0.092 7.03 3.37 12.06
4/1/2021 9:00:00 PM 6.94 44.492 0.092 7.02 3.29 12.05
4/1/2021 9:15:00 PM 6.9 44.42 0.091 7.03 3.26 12.05
4/1/2021 9:30:00 PM 6.87 44.366 0.092 7.02 3.13 12.05
4/1/2021 9:45:00 PM 6.86 44.348 0.092 7.01 3.09 12.05
4/1/2021 10:00:00 PM 6.85 44.33 0.092 7.02 2.96 12.05
4/1/2021 10:15:00 PM 6.85 44.33 0.092 7.02 3.23 12.05
4/1/2021 10:30:00 PM 6.85 44.33 0.092 7.01 3.02 12.05
4/1/2021 10:45:00 PM 6.84 44.312 0.092 7.02 3.33 12.05
4/1/2021 11:00:00 PM 6.82 44.276 0.092 7.01 3.43 12.06
4/1/2021 11:15:00 PM 6.79 44.222 0.092 7.01 3.09 12.07
4/1/2021 11:30:00 PM 6.75 44.15 0.092 7.02 3.26 12.08
4/1/2021 11:45:00 PM 6.72 44.096 0.092 7.01 3.47 12.08
4/2/2021 12:00:00 AM 6.67 44.006 0.092 7.01 3.38 12.09
4/2/2021 12:15:00 AM 6.63 43.934 0.092 6.99 3.06 12.1
4/2/2021 12:30:00 AM 6.59 43.862 0.092 7 3.07 12.11
4/2/2021 12:45:00 AM 6.54 43.772 0.092 7 3.23 12.12
4/2/2021 1:00:00 AM 6.51 43.718 0.092 6.95 3.15 12.13
4/2/2021 1:15:00 AM 6.47 43.646 0.092 7 3.18 12.14
4/2/2021 1:30:00 AM 6.43 43.574 0.092 7 3.02 12.16
4/2/2021 1:45:00 AM 6.39 43.502 0.092 7 3.06 12.17
4/2/2021 2:00:00 AM 6.35 43.43 0.092 7.01 3.19 12.18
4/2/2021 2:15:00 AM 6.33 43.394 0.092 7 3.25 12.19
4/2/2021 2:30:00 AM 6.31 43.358 0.092 7 2.99 12.19
4/2/2021 2:45:00 AM 6.27 43.286 0.092 7.01 3.02 12.2
4/2/2021 3:00:00 AM 6.26 43.268 0.092 7 3.28 12.21
4/2/2021 3:15:00 AM 6.23 43.214 0.092 7.01 3.19 12.21
4/2/2021 3:30:00 AM 6.22 43.196 0.092 7.01 3.05 12.22
4/2/2021 3:45:00 AM 6.21 43.178 0.092 7.01 3.07 12.22
4/2/2021 4:00:00 AM 6.2 43.16 0.092 7.02 3.11 12.22
4/2/2021 4:15:00 AM 6.19 43.142 0.092 7.02 3.08 12.23
4/2/2021 4:30:00 AM 6.18 43.124 0.092 7.02 3.08 12.23
4/2/2021 4:45:00 AM 6.16 43.088 0.092 7.02 3.12 12.23
4/2/2021 5:00:00 AM 6.14 43.052 0.092 7.01 3.03 12.23
4/2/2021 5:15:00 AM 6.12 43.016 0.092 7.01 3.02 12.24
4/2/2021 5:30:00 AM 6.1 42.98 0.092 7.03 3.03 12.25
4/2/2021 5:45:00 AM 6.09 42.962 0.092 7.03 3.11 12.26
4/2/2021 6:00:00 AM 6.07 42.926 0.092 7.02 3.07 12.26
4/2/2021 6:15:00 AM 6.04 42.872 0.092 7.01 3.05 12.27
4/2/2021 6:30:00 AM 6.01 42.818 0.092 6.98 3 12.28
4/2/2021 6:45:00 AM 5.99 42.782 0.092 6.98 2.99 12.29
4/2/2021 7:00:00 AM 5.96 42.728 0.092 6.98 3.03 12.3
4/2/2021 7:15:00 AM 5.94 42.692 0.092 6.99 2.86 12.33
4/2/2021 7:30:00 AM 5.92 42.656 0.092 7.01 3 12.36
4/2/2021 7:45:00 AM 5.9 42.62 0.092 7.01 3.16 12.39
4/2/2021 8:00:00 AM 5.87 42.566 0.092 7.01 3.03 12.42
4/2/2021 8:15:00 AM 5.85 42.53 0.092 7 3.1 12.44
4/2/2021 8:30:00 AM 5.85 42.53 0.092 7.03 3.27 12.48
4/2/2021 8:45:00 AM 5.86 42.548 0.092 7.05 2.57 12.51
4/2/2021 9:00:00 AM 5.88 42.584 0.092 7.06 2.62 12.55
4/2/2021 9:15:00 AM 5.9 42.62 0.092 7.04 2.6 12.57
4/2/2021 9:30:00 AM 5.91 42.638 0.092 7.07 2.95 12.6
4/2/2021 9:45:00 AM 5.92 42.656 0.092 7.08 2.72 12.63
4/2/2021 10:00:00 AM 5.94 42.692 0.092 7.07 2.51 12.65
4/2/2021 10:15:00 AM 5.97 42.746 0.092 7.08 2.96 12.67
4/2/2021 10:30:00 AM 6.02 42.836 0.092 7.1 3.03 12.68
4/2/2021 10:45:00 AM 6.08 42.944 0.092 7.11 3.19 12.69
4/2/2021 11:00:00 AM 6.17 43.106 0.092 7.1 2.79 12.7
4/2/2021 11:15:00 AM 6.27 43.286 0.092 7.1 2.62 12.7
4/2/2021 11:30:00 AM 6.42 43.556 0.091 7.11 2.48 12.69
4/2/2021 11:45:00 AM 6.58 43.844 0.092 7.12 2.57 12.68
4/2/2021 12:00:00 PM 6.75 44.15 0.091 7.12 2.54 12.66
4/2/2021 12:15:00 PM 6.92 44.456 0.091 7.12 2.5 12.64
4/2/2021 12:30:00 PM 7.09 44.762 0.091 7.12 2.4 12.62
4/2/2021 12:45:00 PM 7.28 45.104 0.092 7.13 2.53 12.6
4/2/2021 1:00:00 PM 7.46 45.428 0.091 7.13 2.47 12.57
4/2/2021 1:15:00 PM 7.62 45.716 0.092 7.13 2.47 12.55
4/2/2021 1:30:00 PM 7.77 45.986 0.091 7.13 2.46 12.53
4/2/2021 1:45:00 PM 7.9 46.22 0.091 7.13 2.46 12.51
4/2/2021 2:00:00 PM 8.03 46.454 0.091 7.14 2.98 12.5
4/2/2021 2:15:00 PM 8.13 46.634 0.091 7.14 2.97 12.49
4/2/2021 2:30:00 PM 8.22 46.796 0.091 7.14 2.95 12.47
4/2/2021 2:45:00 PM 8.26 46.868 0.091 7.03 2.92 12.45
4/2/2021 3:00:00 PM 8.27 46.886 0.091 7.14 2.6 12.45
4/2/2021 3:15:00 PM 8.25 46.85 0.091 7.07 3.23 12.44
4/2/2021 3:30:00 PM 8.19 46.742 0.091 7.13 2.94 12.44
4/2/2021 3:45:00 PM 8.08 46.544 0.091 7.13 2.93 12.45
4/2/2021 4:00:00 PM 7.91 46.238 0.092 7.12 2.55 12.47
4/2/2021 4:15:00 PM 7.71 45.878 0.092 7.12 2.52 12.49
4/2/2021 4:30:00 PM 7.46 45.428 0.092 7.11 2.61 12.52
4/2/2021 4:45:00 PM 7.17 44.906 0.092 7.1 2.67 12.54
4/2/2021 5:00:00 PM 6.88 44.384 0.092 7.09 14.01 12.57
4/2/2021 5:15:00 PM 6.69 44.042 0.092 7.09 2.7 12.59
4/2/2021 5:30:00 PM 6.52 43.736 0.092 7.08 2.57 12.61
4/2/2021 5:45:00 PM 6.35 43.43 0.092 7.07 2.63 12.63
4/2/2021 6:00:00 PM 6.18 43.124 0.092 7.1 2.61 12.66
4/2/2021 6:15:00 PM 6.03 42.854 0.093 7.08 2.72 12.68
4/2/2021 6:30:00 PM 5.9 42.62 0.093 7.06 2.98 12.69
4/2/2021 6:45:00 PM 5.79 42.422 0.093 7.06 2.68 12.7
4/2/2021 7:00:00 PM 5.66 42.188 0.093 7.06 2.76 12.7
4/2/2021 7:15:00 PM 5.57 42.026 0.093 7.06 2.75 12.7
4/2/2021 7:30:00 PM 5.47 41.846 0.093 7.05 2.67 12.7
4/2/2021 7:45:00 PM 5.38 41.684 0.093 7.04 2.59 12.7
4/2/2021 8:00:00 PM 5.31 41.558 0.093 7.04 2.83 12.69
4/2/2021 8:15:00 PM 5.23 41.414 0.094 7.04 3.15 12.69
4/2/2021 8:30:00 PM 5.16 41.288 0.093 7.02 2.69 12.69
4/2/2021 8:45:00 PM 5.11 41.198 0.093 7.02 2.71 12.68
4/2/2021 9:00:00 PM 5.07 41.126 0.094 7.02 2.6 12.68
4/2/2021 9:15:00 PM 5.06 41.108 0.093 7.02 2.71 12.67
4/2/2021 9:30:00 PM 5.04 41.072 0.094 7.02 2.62 12.67
4/2/2021 9:45:00 PM 5.02 41.036 0.094 7.01 2.59 12.66
4/2/2021 10:00:00 PM 5.01 41.018 0.094 7.01 2.53 12.66
4/2/2021 10:15:00 PM 5 41 0.094 7.01 2.8 12.66
4/2/2021 10:30:00 PM 4.98 40.964 0.094 7.01 2.63 12.66
4/2/2021 10:45:00 PM 4.97 40.946 0.094 7.01 2.71 12.67
4/2/2021 11:00:00 PM 4.95 40.91 0.094 7.01 2.72 12.67
4/2/2021 11:15:00 PM 4.94 40.892 0.094 7.01 2.66 12.67
4/2/2021 11:30:00 PM 4.92 40.856 0.094 7.01 2.74 12.68
4/2/2021 11:45:00 PM 4.91 40.838 0.094 7.01 2.53 12.69
4/3/2021 12:00:00 AM 4.89 40.802 0.094 7 3.36 12.69
4/3/2021 12:15:00 AM 4.88 40.784 0.094 7 2.74 12.69
4/3/2021 12:30:00 AM 4.88 40.784 0.094 7 2.69 12.69
4/3/2021 12:45:00 AM 4.87 40.766 0.094 7 2.61 12.69
4/3/2021 1:00:00 AM 4.86 40.748 0.094 7.02 2.61 12.69
4/3/2021 1:15:00 AM 4.85 40.73 0.094 7.01 2.46 12.69
4/3/2021 1:30:00 AM 4.85 40.73 0.094 7.01 2.54 12.7
4/3/2021 1:45:00 AM 4.84 40.712 0.094 7 2.59 12.7
4/3/2021 2:00:00 AM 4.83 40.694 0.094 7 2.59 12.7
4/3/2021 2:15:00 AM 4.82 40.676 0.094 6.95 2.55 12.7
4/3/2021 2:30:00 AM 4.81 40.658 0.094 7 2.37 12.7
4/3/2021 2:45:00 AM 4.8 40.64 0.094 6.99 2.47 12.71
4/3/2021 3:00:00 AM 4.79 40.622 0.094 6.99 2.49 12.71
4/3/2021 3:15:00 AM 4.77 40.586 0.094 6.99 2.48 12.72
4/3/2021 3:30:00 AM 4.75 40.55 0.094 6.98 2.49 12.72
4/3/2021 3:45:00 AM 4.72 40.496 0.094 6.99 2.49 12.73
4/3/2021 4:00:00 AM 4.69 40.442 0.094 6.98 2.42 12.74
4/3/2021 4:15:00 AM 4.66 40.388 0.094 6.99 2.49 12.75
4/3/2021 4:30:00 AM 4.63 40.334 0.094 6.98 2.46 12.76
4/3/2021 4:45:00 AM 4.61 40.298 0.094 6.98 2.45 12.77
4/3/2021 5:00:00 AM 4.59 40.262 0.094 6.98 2.48 12.77
4/3/2021 5:15:00 AM 4.58 40.244 0.094 6.99 2.39 12.78
4/3/2021 5:30:00 AM 4.57 40.226 0.094 6.99 2.38 12.78
4/3/2021 5:45:00 AM 4.56 40.208 0.094 6.99 2.45 12.79
4/3/2021 6:00:00 AM 4.55 40.19 0.094 6.98 2.43 12.79
4/3/2021 6:15:00 AM 4.54 40.172 0.094 6.99 2.42 12.79
4/3/2021 6:30:00 AM 4.53 40.154 0.094 6.99 2.56 12.79
4/3/2021 6:45:00 AM 4.52 40.136 0.094 6.99 2.43 12.8
4/3/2021 7:00:00 AM 4.51 40.118 0.094 6.9 2.36 12.81
4/3/2021 7:15:00 AM 4.51 40.118 0.094 7 2.45 12.83
4/3/2021 7:30:00 AM 4.5 40.1 0.094 7 2.44 12.86
4/3/2021 7:45:00 AM 4.5 40.1 0.094 7.01 2.67 12.88
4/3/2021 8:00:00 AM 4.5 40.1 0.094 6.99 2.33 12.91
4/3/2021 8:15:00 AM 4.51 40.118 0.094 7.02 2.33 12.94
4/3/2021 8:30:00 AM 4.53 40.154 0.094 7.02 2.44 12.96
4/3/2021 8:45:00 AM 4.56 40.208 0.094 7.03 2.6 12.99
4/3/2021 9:00:00 AM 4.62 40.316 0.094 7.01 2.44 13.02
4/3/2021 9:15:00 AM 4.67 40.406 0.093 7.05 2.5 13.04
4/3/2021 9:30:00 AM 4.74 40.532 0.094 7.05 2.51 13.06
4/3/2021 9:45:00 AM 4.81 40.658 0.093 7.06 2.43 13.07
4/3/2021 10:00:00 AM 4.88 40.784 0.094 7.02 2.33 13.08
4/3/2021 10:15:00 AM 4.95 40.91 0.093 7.07 2.42 13.08
4/3/2021 10:30:00 AM 5.05 41.09 0.093 7.08 2.41 13.09
4/3/2021 10:45:00 AM 5.17 41.306 0.094 7.09 2.55 13.08
4/3/2021 11:00:00 AM 5.31 41.558 0.094 7.09 2.47 13.07
4/3/2021 11:15:00 AM 5.47 41.846 0.094 7.1 2.45 13.06
4/3/2021 11:30:00 AM 5.64 42.152 0.093 7.1 2.53 13.05
4/3/2021 11:45:00 AM 5.85 42.53 0.094 7.11 2.4 13.02
4/3/2021 12:00:00 PM 6.05 42.89 0.093 7.12 2.44 12.99
4/3/2021 12:15:00 PM 6.27 43.286 0.093 7.12 2.4 12.95
4/3/2021 12:30:00 PM 6.5 43.7 0.094 7.13 2.44 12.92
4/3/2021 12:45:00 PM 6.67 44.006 0.093 7.12 2.39 12.9
4/3/2021 1:00:00 PM 6.77 44.186 0.093 7.12 2.55 12.87
4/3/2021 1:15:00 PM 6.85 44.33 0.093 7.12 2.49 12.86
4/3/2021 1:30:00 PM 6.9 44.42 0.093 7.13 2.39 12.84
4/3/2021 1:45:00 PM 7.1 44.78 0.094 7.13 2.42 12.82
4/3/2021 2:00:00 PM 7.26 45.068 0.094 7.13 2.48 12.79
4/3/2021 2:15:00 PM 7.22 44.996 0.094 7.02 2.54 12.77
4/3/2021 2:30:00 PM 7.19 44.942 0.094 7.13 2.47 12.77
4/3/2021 2:45:00 PM 7.34 45.212 0.094 7.13 2.48 12.76
4/3/2021 3:00:00 PM 7.44 45.392 0.094 7.13 2.52 12.74
4/3/2021 3:15:00 PM 7.53 45.554 0.094 7.13 2.38 12.72
4/3/2021 3:30:00 PM 7.55 45.59 0.094 7.12 2.39 12.7
4/3/2021 3:45:00 PM 7.5 45.5 0.094 7.12 2.67 12.69
4/3/2021 4:00:00 PM 7.38 45.284 0.094 7.11 2.44 12.69
4/3/2021 4:15:00 PM 7.26 45.068 0.094 7.11 2.57 12.69
4/3/2021 4:30:00 PM 7.1 44.78 0.094 7.11 2.43 12.71
4/3/2021 4:45:00 PM 6.89 44.402 0.094 7.1 2.36 12.72
4/3/2021 5:00:00 PM 6.71 44.078 0.095 7.08 2.42 12.74
4/3/2021 5:15:00 PM 6.6 43.88 0.095 7.1 2.44 12.76
4/3/2021 5:30:00 PM 6.45 43.61 0.095 7.1 2.37 12.76
4/3/2021 5:45:00 PM 6.29 43.322 0.095 7.09 2.62 12.78
4/3/2021 6:00:00 PM 6.15 43.07 0.095 7.08 2.69 12.81
4/3/2021 6:15:00 PM 6.02 42.836 0.095 7.09 2.5 12.84
4/3/2021 6:30:00 PM 5.89 42.602 0.095 7.03 2.47 12.87
4/3/2021 6:45:00 PM 5.75 42.35 0.095 7.07 2.35 12.87
4/3/2021 7:00:00 PM 5.61 42.098 0.095 7.06 2.36 12.87
4/3/2021 7:15:00 PM 5.48 41.864 0.096 7.06 2.39 12.85
4/3/2021 7:30:00 PM 5.38 41.684 0.096 7.03 2.35 12.82
4/3/2021 7:45:00 PM 5.32 41.576 0.096 7.03 2.38 12.79
4/3/2021 8:00:00 PM 5.3 41.54 0.096 7.04 2.4 12.75
4/3/2021 8:15:00 PM 5.28 41.504 0.096 7.06 2.42 12.73
4/3/2021 8:30:00 PM 5.27 41.486 0.096 7 3.12 12.7
4/3/2021 8:45:00 PM 5.24 41.432 0.096 7.01 2.52 12.69
4/3/2021 9:00:00 PM 5.21 41.378 0.096 7 2.32 12.68
4/3/2021 9:15:00 PM 5.17 41.306 0.096 6.99 2.44 12.68
4/3/2021 9:30:00 PM 5.14 41.252 0.096 6.97 2.42 12.68
4/3/2021 9:45:00 PM 5.1 41.18 0.096 6.99 2.39 12.68
4/3/2021 10:00:00 PM 5.07 41.126 0.096 6.98 2.43 12.69
4/3/2021 10:15:00 PM 5.05 41.09 0.096 6.98 2.86 12.7
4/3/2021 10:30:00 PM 5.04 41.072 0.096 6.94 2.4 12.7
4/3/2021 10:45:00 PM 5.03 41.054 0.096 6.98 2.51 12.69
4/3/2021 11:00:00 PM 5.04 41.072 0.096 6.98 2.46 12.69
4/3/2021 11:15:00 PM 5.05 41.09 0.096 6.97 2.52 12.68
4/3/2021 11:30:00 PM 5.06 41.108 0.096 6.99 2.43 12.68
4/3/2021 11:45:00 PM 5.06 41.108 0.096 6.98 2.44 12.68
4/4/2021 12:00:00 AM 5.07 41.126 0.096 6.99 2.48 12.67
4/4/2021 12:15:00 AM 5.08 41.144 0.096 6.98 2.48 12.67
4/4/2021 12:30:00 AM 5.1 41.18 0.096 6.97 2.39 12.66
4/4/2021 12:45:00 AM 5.13 41.234 0.097 6.99 2.33 12.65
4/4/2021 1:00:00 AM 5.16 41.288 0.096 6.99 2.55 12.63
4/4/2021 1:15:00 AM 5.2 41.36 0.097 6.99 2.41 12.62
4/4/2021 1:30:00 AM 5.23 41.414 0.096 6.98 2.39 12.6
4/4/2021 1:45:00 AM 5.26 41.468 0.096 6.99 2.36 12.59
4/4/2021 2:00:00 AM 5.27 41.486 0.096 6.99 2.45 12.58
4/4/2021 2:15:00 AM 5.29 41.522 0.096 6.99 2.44 12.57
4/4/2021 2:30:00 AM 5.3 41.54 0.096 6.98 2.34 12.56
4/4/2021 2:45:00 AM 5.32 41.576 0.096 6.97 2.32 12.56
4/4/2021 3:00:00 AM 5.34 41.612 0.096 6.99 2.43 12.55
4/4/2021 3:15:00 AM 5.35 41.63 0.096 6.98 2.36 12.53
4/4/2021 3:30:00 AM 5.36 41.648 0.096 6.93 2.34 12.52
4/4/2021 3:45:00 AM 5.39 41.702 0.096 6.98 2.23 12.51
4/4/2021 4:00:00 AM 5.43 41.774 0.096 6.98 2.33 12.49
4/4/2021 4:15:00 AM 5.47 41.846 0.096 6.98 2.27 12.47
4/4/2021 4:30:00 AM 5.52 41.936 0.096 6.96 2.34 12.45
4/4/2021 4:45:00 AM 5.56 42.008 0.095 6.98 2.25 12.43
4/4/2021 5:00:00 AM 5.6 42.08 0.096 6.99 2.35 12.41
4/4/2021 5:15:00 AM 5.65 42.17 0.096 6.98 2.33 12.39
4/4/2021 5:30:00 AM 5.7 42.26 0.095 6.99 2.32 12.37
4/4/2021 5:45:00 AM 5.76 42.368 0.096 6.99 2.42 12.36
4/4/2021 6:00:00 AM 5.81 42.458 0.096 6.98 2.33 12.34
4/4/2021 6:15:00 AM 5.85 42.53 0.096 7 2.28 12.32
4/4/2021 6:30:00 AM 5.89 42.602 0.096 6.99 2.29 12.31
4/4/2021 6:45:00 AM 5.92 42.656 0.097 6.99 2.35 12.31
4/4/2021 7:00:00 AM 5.94 42.692 0.096 6.99 2.25 12.3
4/4/2021 7:15:00 AM 5.96 42.728 0.096 6.99 2.23 12.31
4/4/2021 7:30:00 AM 5.99 42.782 0.096 7 2.28 12.32
4/4/2021 7:45:00 AM 6 42.8 0.096 7 2.19 12.36
4/4/2021 8:00:00 AM 6.01 42.818 0.096 7.01 2.31 12.39
4/4/2021 8:15:00 AM 6.01 42.818 0.096 7.02 2.21 12.42
4/4/2021 8:30:00 AM 6.02 42.836 0.096 6.99 2.25 12.45
4/4/2021 8:45:00 AM 6.04 42.872 0.096 7.04 2.15 12.48
4/4/2021 9:00:00 AM 6.08 42.944 0.096 7.05 2.25 12.51
4/4/2021 9:15:00 AM 6.12 43.016 0.096 7.05 2.33 12.53
4/4/2021 9:30:00 AM 6.17 43.106 0.096 7.06 2.21 12.56
4/4/2021 9:45:00 AM 6.22 43.196 0.096 7.06 2.25 12.58
4/4/2021 10:00:00 AM 6.28 43.304 0.096 7.07 2.31 12.59
4/4/2021 10:15:00 AM 6.36 43.448 0.095 7.08 2.17 12.6
4/4/2021 10:30:00 AM 6.45 43.61 0.096 7.09 2.31 12.61
4/4/2021 10:45:00 AM 6.56 43.808 0.096 7.09 2.28 12.61
4/4/2021 11:00:00 AM 6.7 44.06 0.095 7.1 2.24 12.6
4/4/2021 11:15:00 AM 6.85 44.33 0.096 7.1 2.44 12.58
4/4/2021 11:30:00 AM 7.04 44.672 0.096 7.11 2.27 12.57
4/4/2021 11:45:00 AM 7.24 45.032 0.096 7.12 2.28 12.55
4/4/2021 12:00:00 PM 7.46 45.428 0.095 7.12 2.2 12.52
4/4/2021 12:15:00 PM 7.67 45.806 0.095 7.12 2.2 12.49
4/4/2021 12:30:00 PM 7.87 46.166 0.095 7.13 2.73 12.45
4/4/2021 12:45:00 PM 8.12 46.616 0.095 7.13 2.2 12.43
4/4/2021 1:00:00 PM 8.31 46.958 0.096 7.13 2.2 12.39
4/4/2021 1:15:00 PM 8.52 47.336 0.095 7.13 2.22 12.35
4/4/2021 1:30:00 PM 8.75 47.75 0.095 7.13 2.24 12.3
4/4/2021 1:45:00 PM 8.95 48.11 0.096 7.14 2.13 12.27
4/4/2021 2:00:00 PM 9.11 48.398 0.096 7.13 2.29 12.23
4/4/2021 2:15:00 PM 9.24 48.632 0.095 7.13 2.27 12.2
4/4/2021 2:30:00 PM 9.36 48.848 0.095 7.13 2.28 12.17
4/4/2021 2:45:00 PM 9.4 48.92 0.095 7.12 2.15 12.14
4/4/2021 3:00:00 PM 9.47 49.046 0.096 7.13 2.45 12.11
4/4/2021 3:15:00 PM 9.58 49.244 0.096 7.13 2.27 12.08
4/4/2021 3:30:00 PM 9.65 49.37 0.096 7.13 2.22 12.06
4/4/2021 3:45:00 PM 9.63 49.334 0.096 7.13 2.2 12.03
4/4/2021 4:00:00 PM 9.51 49.118 0.096 7.12 2.27 12
4/4/2021 4:15:00 PM 9.47 49.046 0.095 7.12 2.27 11.99
4/4/2021 4:30:00 PM 9.37 48.866 0.095 7.12 2.34 11.98
4/4/2021 4:45:00 PM 9.21 48.578 0.096 7.12 2.22 11.98
4/4/2021 5:00:00 PM 9 48.2 0.096 7.11 2.26 11.97
4/4/2021 5:15:00 PM 8.8 47.84 0.095 7.1 2.49 11.97
4/4/2021 5:30:00 PM 8.63 47.534 0.096 7 2.36 11.99
4/4/2021 5:45:00 PM 8.47 47.246 0.096 7.1 2.25 12.01
4/4/2021 6:00:00 PM 8.34 47.012 0.096 7.09 2.4 12.01
4/4/2021 6:15:00 PM 8.21 46.778 0.096 7.08 2.26 12.02
4/4/2021 6:30:00 PM 8.08 46.544 0.096 7.08 2.33 12.03
4/4/2021 6:45:00 PM 7.96 46.328 0.096 7.08 2.29 12.03
4/4/2021 7:00:00 PM 7.85 46.13 0.096 7.08 2.4 12.02
4/4/2021 7:15:00 PM 7.74 45.932 0.096 7.06 2.34 12.01
4/4/2021 7:30:00 PM 7.65 45.77 0.096 7.05 2.48 12
4/4/2021 7:45:00 PM 7.55 45.59 0.097 7.05 2.44 11.98
4/4/2021 8:00:00 PM 7.46 45.428 0.097 7.04 2.51 11.98
4/4/2021 8:15:00 PM 7.37 45.266 0.097 7.03 2.33 11.97
4/4/2021 8:30:00 PM 7.28 45.104 0.097 7.02 2.39 11.97
4/4/2021 8:45:00 PM 7.2 44.96 0.097 7.02 2.41 11.97
4/4/2021 9:00:00 PM 7.12 44.816 0.097 7.01 2.46 11.97
4/4/2021 9:15:00 PM 7.06 44.708 0.097 7.01 2.44 11.98
4/4/2021 9:30:00 PM 7 44.6 0.097 7 2.44 11.98
4/4/2021 9:45:00 PM 6.94 44.492 0.097 7 2.46 11.99
4/4/2021 10:00:00 PM 6.9 44.42 0.097 7 2.49 11.99
4/4/2021 10:15:00 PM 6.86 44.348 0.097 7 2.5 11.99
4/4/2021 10:30:00 PM 6.82 44.276 0.097 7 2.46 12
4/4/2021 10:45:00 PM 6.79 44.222 0.097 6.99 2.49 12
4/4/2021 11:00:00 PM 6.77 44.186 0.097 6.99 2.42 12
4/4/2021 11:15:00 PM 6.78 44.204 0.097 6.98 2.41 12
4/4/2021 11:30:00 PM 6.79 44.222 0.097 7 2.44 11.99
4/4/2021 11:45:00 PM 6.82 44.276 0.097 6.99 2.54 11.98
4/5/2021 12:00:00 AM 6.85 44.33 0.097 7 2.4 11.96
4/5/2021 12:15:00 AM 6.88 44.384 0.097 7 2.42 11.95
4/5/2021 12:30:00 AM 6.9 44.42 0.097 7 2.36 11.94
4/5/2021 12:45:00 AM 6.92 44.456 0.097 7 2.39 11.93
4/5/2021 1:00:00 AM 6.92 44.456 0.097 7.01 2.55 11.93
4/5/2021 1:15:00 AM 6.93 44.474 0.097 7 2.36 11.92
4/5/2021 1:30:00 AM 6.95 44.51 0.097 7 2.33 11.92
4/5/2021 1:45:00 AM 6.96 44.528 0.097 7 2.34 11.91
4/5/2021 2:00:00 AM 6.98 44.564 0.097 6.99 2.41 11.9
4/5/2021 2:15:00 AM 6.99 44.582 0.097 7 2.44 11.89
4/5/2021 2:30:00 AM 7 44.6 0.097 6.99 2.5 11.89
4/5/2021 2:45:00 AM 7 44.6 0.097 6.99 2.43 11.89
4/5/2021 3:00:00 AM 7 44.6 0.097 6.99 2.41 11.89
4/5/2021 3:15:00 AM 7 44.6 0.097 6.99 2.42 11.88
4/5/2021 3:30:00 AM 7 44.6 0.097 6.99 2.35 11.88
4/5/2021 3:45:00 AM 6.99 44.582 0.097 6.99 2.4 11.88
4/5/2021 4:00:00 AM 6.99 44.582 0.097 6.99 2.39 11.88
4/5/2021 4:15:00 AM 6.99 44.582 0.097 6.99 2.46 11.88
4/5/2021 4:30:00 AM 6.98 44.564 0.096 6.99 2.42 11.89
4/5/2021 4:45:00 AM 6.96 44.528 0.097 6.99 2.27 11.89
4/5/2021 5:00:00 AM 6.95 44.51 0.097 6.99 2.43 11.89
4/5/2021 5:15:00 AM 6.93 44.474 0.097 6.99 2.41 11.9
4/5/2021 5:30:00 AM 6.92 44.456 0.097 6.99 2.35 11.9
4/5/2021 5:45:00 AM 6.9 44.42 0.097 7 2.46 11.9
4/5/2021 6:00:00 AM 6.89 44.402 0.096 6.99 2.47 11.91
4/5/2021 6:15:00 AM 6.87 44.366 0.097 6.96 2.36 11.91
4/5/2021 6:30:00 AM 6.86 44.348 0.097 6.99 2.52 11.91
4/5/2021 6:45:00 AM 6.85 44.33 0.097 6.98 2.4 11.92
4/5/2021 7:00:00 AM 6.85 44.33 0.097 7 2.39 11.93
4/5/2021 7:15:00 AM 6.86 44.348 0.097 7.01 2.65 11.96
4/5/2021 7:30:00 AM 6.86 44.348 0.097 7.02 2.32 11.99
4/5/2021 7:45:00 AM 6.87 44.366 0.097 7.01 2.25 12.03
4/5/2021 8:00:00 AM 6.87 44.366 0.097 7.02 2.36 12.06
4/5/2021 8:15:00 AM 6.88 44.384 0.096 7.02 2.4 12.08
4/5/2021 8:30:00 AM 6.9 44.42 0.096 7.03 2.34 12.12
4/5/2021 8:45:00 AM 6.94 44.492 0.096 7 2.39 12.15
4/5/2021 9:00:00 AM 6.99 44.582 0.097 7.06 2.33 12.18
4/5/2021 9:15:00 AM 7.05 44.69 0.097 7.06 2.32 12.2
4/5/2021 9:30:00 AM 7.11 44.798 0.097 7.06 2.3 12.22
4/5/2021 9:45:00 AM 7.18 44.924 0.097 7.07 2.34 12.24
4/5/2021 10:00:00 AM 7.26 45.068 0.096 7.08 2.29 12.25
4/5/2021 10:15:00 AM 7.35 45.23 0.096 7.09 2.38 12.26
4/5/2021 10:30:00 AM 7.45 45.41 0.096 7.09 2.35 12.27
4/5/2021 10:45:00 AM 7.59 45.662 0.096 7.11 2.29 12.27
4/5/2021 11:00:00 AM 7.74 45.932 0.096 7.11 2.47 12.26
4/5/2021 11:15:00 AM 7.91 46.238 0.097 7.12 2.3 12.24
4/5/2021 11:30:00 AM 8.1 46.58 0.096 7.13 2.28 12.23
4/5/2021 11:45:00 AM 8.31 46.958 0.097 7.13 2.38 12.21
4/5/2021 12:00:00 PM 8.55 47.39 0.097 7.14 2.22 12.17
4/5/2021 12:15:00 PM 8.8 47.84 0.096 7.14 2.33 12.13
4/5/2021 12:30:00 PM 9.02 48.236 0.096 7.15 2.32 12.09
4/5/2021 12:45:00 PM 9.26 48.668 0.096 7.15 2.31 12.05
4/5/2021 1:00:00 PM 9.51 49.118 0.096 7.15 2.32 12.01
4/5/2021 1:15:00 PM 9.74 49.532 0.096 7.15 2.33 11.97
4/5/2021 1:30:00 PM 9.96 49.928 0.096 7.14 2.23 11.93
4/5/2021 1:45:00 PM 10.17 50.306 0.096 7.15 2.23 11.89
4/5/2021 2:00:00 PM 10.35 50.63 0.096 7.16 2.26 11.85
4/5/2021 2:15:00 PM 10.52 50.936 0.096 7.15 2.32 11.81
4/5/2021 2:30:00 PM 10.62 51.116 0.096 7.15 2.38 11.78
4/5/2021 2:45:00 PM 10.71 51.278 0.096 7.15 2.49 11.76
4/5/2021 3:00:00 PM 10.77 51.386 0.096 7.15 2.24 11.74
4/5/2021 3:15:00 PM 10.78 51.404 0.096 7.15 2.29 11.72
4/5/2021 3:30:00 PM 10.7 51.26 0.096 7.16 2.23 11.71
4/5/2021 3:45:00 PM 10.6 51.08 0.096 7.15 2.26 11.7
4/5/2021 4:00:00 PM 10.53 50.954 0.096 7.16 2.24 11.7
4/5/2021 4:15:00 PM 10.47 50.846 0.096 7.07 2.45 11.69
4/5/2021 4:30:00 PM 10.33 50.594 0.097 7.15 2.19 11.69
4/5/2021 4:45:00 PM 10.18 50.324 0.096 7.13 2.34 11.69
4/5/2021 5:00:00 PM 10.05 50.09 0.096 7.14 2.41 11.69
4/5/2021 5:15:00 PM 9.96 49.928 0.096 7.11 2.41 11.69
4/5/2021 5:30:00 PM 9.87 49.766 0.096 7.14 2.31 11.68
4/5/2021 5:45:00 PM 9.76 49.568 0.097 7.14 2.32 11.69
4/5/2021 6:00:00 PM 9.64 49.352 0.097 7.13 2.27 11.68
4/5/2021 6:15:00 PM 9.55 49.19 0.097 7.15 2.39 11.66
4/5/2021 6:30:00 PM 9.46 49.028 0.096 7.15 2.19 11.64
4/5/2021 6:45:00 PM 9.38 48.884 0.096 7.13 2.45 11.62
4/5/2021 7:00:00 PM 9.3 48.74 0.097 7.11 2.42 11.6
4/5/2021 7:15:00 PM 9.21 48.578 0.097 7.1 2.27 11.57
4/5/2021 7:30:00 PM 9.13 48.434 0.097 7.1 2.4 11.55
4/5/2021 7:45:00 PM 9.04 48.272 0.097 7.07 2.38 11.52
4/5/2021 8:00:00 PM 8.96 48.128 0.097 7.06 2.48 11.5
4/5/2021 8:15:00 PM 8.89 48.002 0.097 7.05 2.44 11.48
4/5/2021 8:30:00 PM 8.83 47.894 0.097 7.04 2.46 11.48
4/5/2021 8:45:00 PM 8.76 47.768 0.097 7.06 2.47 11.47
4/5/2021 9:00:00 PM 8.7 47.66 0.097 7.06 2.43 11.46
4/5/2021 9:15:00 PM 8.65 47.57 0.098 7.05 2.48 11.47
4/5/2021 9:30:00 PM 8.59 47.462 0.097 7.05 2.54 11.48
4/5/2021 9:45:00 PM 8.54 47.372 0.097 7.04 2.54 11.49
4/5/2021 10:00:00 PM 8.5 47.3 0.097 7.02 2.52 11.49
4/5/2021 10:15:00 PM 8.46 47.228 0.098 7.01 2.39 11.5
4/5/2021 10:30:00 PM 8.43 47.174 0.097 7 2.52 11.51
4/5/2021 10:45:00 PM 8.4 47.12 0.098 7 2.53 11.51
4/5/2021 11:00:00 PM 8.38 47.084 0.098 7 2.45 11.51
4/5/2021 11:15:00 PM 8.36 47.048 0.098 7 2.52 11.52
4/5/2021 11:30:00 PM 8.35 47.03 0.097 7 2.36 11.53
4/5/2021 11:45:00 PM 8.33 46.994 0.098 7 2.45 11.53
4/6/2021 12:00:00 AM 8.33 46.994 0.098 7.02 2.46 11.53
4/6/2021 12:15:00 AM 8.32 46.976 0.098 6.99 2.48 11.53
4/6/2021 12:30:00 AM 8.32 46.976 0.097 7 2.37 11.53
4/6/2021 12:45:00 AM 8.32 46.976 0.097 7 2.45 11.52
4/6/2021 1:00:00 AM 8.32 46.976 0.097 7 2.52 11.52
4/6/2021 1:15:00 AM 8.32 46.976 0.098 7 2.47 11.51
4/6/2021 1:30:00 AM 8.31 46.958 0.097 7 2.5 11.51
4/6/2021 1:45:00 AM 8.29 46.922 0.097 7 2.47 11.51
4/6/2021 2:00:00 AM 8.29 46.922 0.097 6.99 2.37 11.51
4/6/2021 2:15:00 AM 8.29 46.922 0.098 6.99 2.54 11.5
4/6/2021 2:30:00 AM 8.3 46.94 0.097 7 2.51 11.5
4/6/2021 2:45:00 AM 8.32 46.976 0.098 6.99 2.4 11.49
4/6/2021 3:00:00 AM 8.34 47.012 0.097 6.99 2.53 11.48
4/6/2021 3:15:00 AM 8.36 47.048 0.097 6.99 2.49 11.46
4/6/2021 3:30:00 AM 8.37 47.066 0.097 6.99 2.48 11.45
4/6/2021 3:45:00 AM 8.39 47.102 0.097 7 2.36 11.44
4/6/2021 4:00:00 AM 8.4 47.12 0.098 6.82 2.46 11.43
4/6/2021 4:15:00 AM 8.41 47.138 0.098 7.01 2.48 11.43
4/6/2021 4:30:00 AM 8.4 47.12 0.098 6.99 2.39 11.43
4/6/2021 4:45:00 AM 8.39 47.102 0.098 6.99 2.37 11.43
4/6/2021 5:00:00 AM 8.37 47.066 0.097 6.99 2.34 11.43
4/6/2021 5:15:00 AM 8.35 47.03 0.098 6.99 2.56 11.44
4/6/2021 5:30:00 AM 8.32 46.976 0.098 6.94 2.49 11.44
4/6/2021 5:45:00 AM 8.28 46.904 0.097 6.99 2.54 11.45
4/6/2021 6:00:00 AM 8.26 46.868 0.097 6.99 2.43 11.46
4/6/2021 6:15:00 AM 8.23 46.814 0.097 7 2.46 11.47
4/6/2021 6:30:00 AM 8.2 46.76 0.097 6.99 2.44 11.48
4/6/2021 6:45:00 AM 8.17 46.706 0.097 6.99 2.46 11.49
4/6/2021 7:00:00 AM 8.14 46.652 0.098 6.99 2.4 11.51
4/6/2021 7:15:00 AM 8.12 46.616 0.098 7 4.41 11.54
4/6/2021 7:30:00 AM 8.1 46.58 0.097 7.01 2.82 11.58
4/6/2021 7:45:00 AM 8.09 46.562 0.097 7.02 2.44 11.62
4/6/2021 8:00:00 AM 8.08 46.544 0.097 7.02 2.41 11.66
4/6/2021 8:15:00 AM 8.07 46.526 0.097 7.03 2.51 11.7
4/6/2021 8:30:00 AM 8.08 46.544 0.097 7.04 2.39 11.75
4/6/2021 8:45:00 AM 8.11 46.598 0.097 7.04 2.35 11.79
4/6/2021 9:00:00 AM 8.15 46.67 0.097 7.07 2.37 11.82
4/6/2021 9:15:00 AM 8.21 46.778 0.097 7.07 2.61 11.85
4/6/2021 9:30:00 AM 8.27 46.886 0.097 7.08 2.51 11.87
4/6/2021 9:45:00 AM 8.34 47.012 0.097 7.09 2.38 11.89
4/6/2021 10:00:00 AM 8.42 47.156 0.097 7.09 2.43 11.91
4/6/2021 10:15:00 AM 8.51 47.318 0.097 7.11 2.5 11.91
4/6/2021 10:30:00 AM 8.61 47.498 0.097 7.12 2.33 11.92
4/6/2021 10:45:00 AM 8.73 47.714 0.097 7.13 2.26 11.92
4/6/2021 11:00:00 AM 8.87 47.966 0.096 7.13 2.31 11.92
4/6/2021 11:15:00 AM 9.03 48.254 0.097 7.14 2.27 11.9
4/6/2021 11:30:00 AM 9.22 48.596 0.097 7.14 2.35 11.89
4/6/2021 11:45:00 AM 9.44 48.992 0.097 7.15 2.33 11.87
4/6/2021 12:00:00 PM 9.67 49.406 0.097 7.16 3.03 11.82
4/6/2021 12:15:00 PM 9.9 49.82 0.097 7.16 2.35 11.8
4/6/2021 12:30:00 PM 10.13 50.234 0.097 7.16 2.44 11.76
4/6/2021 12:45:00 PM 10.37 50.666 0.097 7.15 2.26 11.73
4/6/2021 1:00:00 PM 10.6 51.08 0.097 7.16 2.38 11.7
4/6/2021 1:15:00 PM 10.84 51.512 0.097 7.17 2.28 11.66
4/6/2021 1:30:00 PM 11.06 51.908 0.097 7.17 2.43 11.62
4/6/2021 1:45:00 PM 11.25 52.25 0.097 7.04 2.36 11.58
4/6/2021 2:00:00 PM 11.42 52.556 0.097 7.15 2.69 11.54
4/6/2021 2:15:00 PM 11.6 52.88 0.097 7.17 2.21 11.51
4/6/2021 2:30:00 PM 11.75 53.15 0.097 7.18 2.52 11.48
4/6/2021 2:45:00 PM 11.87 53.366 0.097 7.17 3.06 11.46
4/6/2021 3:00:00 PM 11.93 53.474 0.096 7.16 2.27 11.43
4/6/2021 3:15:00 PM 11.94 53.492 0.097 7.16 2.7 11.41
4/6/2021 3:30:00 PM 11.94 53.492 0.097 7.11 2.38 11.4
4/6/2021 3:45:00 PM 11.9 53.42 0.097 7.17 2.24 11.38
4/6/2021 4:00:00 PM 11.82 53.276 0.097 7.16 3.09 11.38
4/6/2021 4:15:00 PM 11.71 53.078 0.097 7.15 2.87 11.36
4/6/2021 4:30:00 PM 11.54 52.772 0.097 7.15 2.66 11.35
4/6/2021 4:45:00 PM 11.33 52.394 0.097 7.14 2.74 11.35
4/6/2021 5:00:00 PM 11.1 51.98 0.097 7.12 3.62 11.35
4/6/2021 5:15:00 PM 10.94 51.692 0.098 7.04 2.84 11.37
4/6/2021 5:30:00 PM 10.79 51.422 0.097 7.13 3.24 11.36
4/6/2021 5:45:00 PM 10.66 51.188 0.097 7.12 2.34 11.36
4/6/2021 6:00:00 PM 10.57 51.026 0.097 7.14 21.94 11.35
4/6/2021 6:15:00 PM 10.51 50.918 0.098 7.12 2.32 11.33
4/6/2021 6:30:00 PM 10.47 50.846 0.097 7.13 2.39 11.32
4/6/2021 6:45:00 PM 10.45 50.81 0.098 7.13 2.38 11.28
4/6/2021 7:00:00 PM 10.42 50.756 0.097 7.12 2.38 11.24
4/6/2021 7:15:00 PM 10.35 50.63 0.098 7.09 2.34 11.21
4/6/2021 7:30:00 PM 10.26 50.468 0.098 7.1 3.33 11.18
4/6/2021 7:45:00 PM 10.16 50.288 0.098 7.08 2.45 11.16
4/6/2021 8:00:00 PM 10.05 50.09 0.098 7.06 2.59 11.14
4/6/2021 8:15:00 PM 9.94 49.892 0.098 7.03 2.59 11.14
4/6/2021 8:30:00 PM 9.84 49.712 0.098 7.03 2.44 11.13
4/6/2021 8:45:00 PM 9.75 49.55 0.098 7.03 2.32 11.14
4/6/2021 9:00:00 PM 9.66 49.388 0.099 7.02 2.56 11.14
4/6/2021 9:15:00 PM 9.59 49.262 0.098 7.02 2.47 11.14
4/6/2021 9:30:00 PM 9.55 49.19 0.099 7.01 2.47 11.13
4/6/2021 9:45:00 PM 9.53 49.154 0.098 7.01 2.46 11.12
4/6/2021 10:00:00 PM 9.51 49.118 0.099 7.01 2.38 11.11
4/6/2021 10:15:00 PM 9.49 49.082 0.098 7 2.32 11.11
4/6/2021 10:30:00 PM 9.49 49.082 0.098 7.01 2.45 11.1
4/6/2021 10:45:00 PM 9.52 49.136 0.098 7.01 2.37 11.09
4/6/2021 11:00:00 PM 9.57 49.226 0.099 7.01 2.39 11.07
4/6/2021 11:15:00 PM 9.62 49.316 0.098 7.01 2.49 11.06
4/6/2021 11:30:00 PM 9.65 49.37 0.099 7 2.65 11.05
4/6/2021 11:45:00 PM 9.66 49.388 0.099 7 2.42 11.05
4/7/2021 12:00:00 AM 9.67 49.406 0.099 7 2.43 11.05
4/7/2021 12:15:00 AM 9.68 49.424 0.099 7 2.53 11.05
4/7/2021 12:30:00 AM 9.69 49.442 0.099 7 3.27 11.04
4/7/2021 12:45:00 AM 9.7 49.46 0.099 7 2.58 11.04
4/7/2021 1:00:00 AM 9.71 49.478 0.099 6.99 2.55 11.04
4/7/2021 1:15:00 AM 9.72 49.496 0.099 7 2.53 11.03
4/7/2021 1:30:00 AM 9.72 49.496 0.099 6.99 2.66 11.03
4/7/2021 1:45:00 AM 9.73 49.514 0.099 6.99 2.82 11.03
4/7/2021 2:00:00 AM 9.72 49.496 0.099 6.99 2.79 11.04
4/7/2021 2:15:00 AM 9.71 49.478 0.099 6.99 2.49 11.04
4/7/2021 2:30:00 AM 9.69 49.442 0.099 6.9 2.48 11.04
4/7/2021 2:45:00 AM 9.68 49.424 0.099 6.99 2.7 11.05
4/7/2021 3:00:00 AM 9.67 49.406 0.099 6.99 2.45 11.05
4/7/2021 3:15:00 AM 9.65 49.37 0.099 6.99 2.45 11.05
4/7/2021 3:30:00 AM 9.63 49.334 0.099 6.99 2.61 11.05
4/7/2021 3:45:00 AM 9.61 49.298 0.099 6.99 2.77 11.05
4/7/2021 4:00:00 AM 9.59 49.262 0.099 6.99 2.51 11.05
4/7/2021 4:15:00 AM 9.57 49.226 0.099 6.99 2.87 11.05
4/7/2021 4:30:00 AM 9.57 49.226 0.099 6.99 2.44 11.05
4/7/2021 4:45:00 AM 9.57 49.226 0.099 6.97 2.61 11.05
4/7/2021 5:00:00 AM 9.58 49.244 0.1 6.99 2.47 11.05
4/7/2021 5:15:00 AM 9.59 49.262 0.099 6.99 2.52 11.05
4/7/2021 5:30:00 AM 9.59 49.262 0.099 6.99 2.41 11.05
4/7/2021 5:45:00 AM 9.6 49.28 0.099 6.99 2.59 11.05
4/7/2021 6:00:00 AM 9.61 49.298 0.1 7 2.65 11.05
4/7/2021 6:15:00 AM 9.62 49.316 0.1 7 2.52 11.05
4/7/2021 6:30:00 AM 9.61 49.298 0.1 7 2.49 11.05
4/7/2021 6:45:00 AM 9.59 49.262 0.1 7 2.42 11.06
4/7/2021 7:00:00 AM 9.59 49.262 0.099 6.99 2.54 11.07
4/7/2021 7:15:00 AM 9.58 49.244 0.1 7 2.41 11.1
4/7/2021 7:30:00 AM 9.58 49.244 0.1 7.01 2.4 11.14
4/7/2021 7:45:00 AM 9.6 49.28 0.1 7.02 2.62 11.18
4/7/2021 8:00:00 AM 9.61 49.298 0.1 7.01 2.4 11.22
4/7/2021 8:15:00 AM 9.62 49.316 0.1 7.03 2.43 11.23
4/7/2021 8:30:00 AM 9.64 49.352 0.099 7.03 2.46 11.23
4/7/2021 8:45:00 AM 9.68 49.424 0.099 7.05 2.52 11.27
4/7/2021 9:00:00 AM 9.78 49.604 0.099 7.06 10.79 11.32
4/7/2021 9:15:00 AM 9.89 49.802 0.099 7.08 2.81 11.37
4/7/2021 9:30:00 AM 9.95 49.91 0.099 7.08 2.34 11.4
4/7/2021 9:45:00 AM 10.04 50.072 0.099 7.1 2.3 11.41
4/7/2021 10:00:00 AM 10.13 50.234 0.099 7.11 2.37 11.42
4/7/2021 10:15:00 AM 10.21 50.378 0.099 7.11 2.34 11.43
4/7/2021 10:30:00 AM 10.29 50.522 0.099 7.12 2.36 11.44
4/7/2021 10:45:00 AM 10.37 50.666 0.099 7.13 2.35 11.45
4/7/2021 11:00:00 AM 10.47 50.846 0.099 7.14 2.3 11.46
4/7/2021 11:15:00 AM 10.6 51.08 0.098 7.15 2.28 11.47
4/7/2021 11:30:00 AM 10.75 51.35 0.098 7.15 2.27 11.47
4/7/2021 11:45:00 AM 10.94 51.692 0.099 7.16 2.3 11.45
4/7/2021 12:00:00 PM 11.15 52.07 0.099 7.16 2.33 11.43
4/7/2021 12:15:00 PM 11.37 52.466 0.099 7.17 2.37 11.41
4/7/2021 12:30:00 PM 11.6 52.88 0.099 7.18 2.26 11.38
4/7/2021 12:45:00 PM 11.83 53.294 0.099 7.17 2.26 11.35
4/7/2021 1:00:00 PM 12.07 53.726 0.099 7.18 2.33 11.32
4/7/2021 1:15:00 PM 12.31 54.158 0.099 7.19 2.23 11.28
4/7/2021 1:30:00 PM 12.54 54.572 0.099 7.19 2.23 11.24
4/7/2021 1:45:00 PM 12.71 54.878 0.098 7.18 2.23 11.2
4/7/2021 2:00:00 PM 12.86 55.148 0.099 7.18 3.29 11.18
4/7/2021 2:15:00 PM 12.95 55.31 0.099 7.19 2.59 11.15
4/7/2021 2:30:00 PM 13.03 55.454 0.099 7.18 2.28 11.14
4/7/2021 2:45:00 PM 12.99 55.382 0.099 7.18 2.24 11.12
4/7/2021 3:00:00 PM 12.9 55.22 0.099 7.18 2.26 11.11
4/7/2021 3:15:00 PM 12.88 55.184 0.099 7.18 2.78 11.11
4/7/2021 3:30:00 PM 12.74 54.932 0.098 7.18 2.79 11.11
4/7/2021 3:45:00 PM 12.66 54.788 0.098 7.18 2.58 11.12
4/7/2021 4:00:00 PM 12.51 54.518 0.099 7.18 2.54 11.12
4/7/2021 4:15:00 PM 12.46 54.428 0.099 7.19 2.64 11.13
4/7/2021 4:30:00 PM 12.28 54.104 0.099 7.16 2.32 11.14
4/7/2021 4:45:00 PM 12.07 53.726 0.099 7.16 2.93 11.14
4/7/2021 5:00:00 PM 11.95 53.51 0.099 7.17 2.92 11.17
4/7/2021 5:15:00 PM 11.85 53.33 0.099 7.17 2.65 11.19
4/7/2021 5:30:00 PM 11.69 53.042 0.099 7.17 2.72 11.19
4/7/2021 5:45:00 PM 11.51 52.718 0.099 7.16 2.74 11.18
4/7/2021 6:00:00 PM 11.35 52.43 0.099 7.14 2.71 11.2
4/7/2021 6:15:00 PM 11.17 52.106 0.099 7.14 2.79 11.2
4/7/2021 6:30:00 PM 11.02 51.836 0.099 7.13 2.77 11.19
4/7/2021 6:45:00 PM 10.89 51.602 0.1 7.13 2.75 11.18
4/7/2021 7:00:00 PM 10.76 51.368 0.1 7.11 3.2 11.17
4/7/2021 7:15:00 PM 10.64 51.152 0.1 7.1 2.37 11.15
4/7/2021 7:30:00 PM 10.53 50.954 0.1 7.08 3.3 11.12
4/7/2021 7:45:00 PM 10.41 50.738 0.101 7.06 3.57 11.09
4/7/2021 8:00:00 PM 10.31 50.558 0.101 7.06 2.62 11.06
4/7/2021 8:15:00 PM 10.22 50.396 0.101 7.05 2.38 11.04
4/7/2021 8:30:00 PM 10.13 50.234 0.101 7.03 2.66 11.03
4/7/2021 8:45:00 PM 10.04 50.072 0.102 7.02 2.51 11.02
4/7/2021 9:00:00 PM 9.97 49.946 0.102 7.03 2.49 11.02
4/7/2021 9:15:00 PM 9.91 49.838 0.102 7.01 2.55 11.02
4/7/2021 9:30:00 PM 9.87 49.766 0.102 7.01 2.55 11.01
4/7/2021 9:45:00 PM 9.83 49.694 0.102 7.01 2.5 11.01
4/7/2021 10:00:00 PM 9.8 49.64 0.102 7.02 2.57 11.01
4/7/2021 10:15:00 PM 9.78 49.604 0.102 7.02 2.48 11
4/7/2021 10:30:00 PM 9.77 49.586 0.102 7.01 2.58 10.99
4/7/2021 10:45:00 PM 9.78 49.604 0.102 7.01 2.44 10.98
4/7/2021 11:00:00 PM 9.8 49.64 0.102 7.01 2.45 10.97
4/7/2021 11:15:00 PM 9.84 49.712 0.102 7.01 2.54 10.95
4/7/2021 11:30:00 PM 9.9 49.82 0.102 7 2.52 10.92
4/7/2021 11:45:00 PM 9.96 49.928 0.102 7.01 2.49 10.9
4/8/2021 12:00:00 AM 10.03 50.054 0.102 7.01 2.39 10.88
4/8/2021 12:15:00 AM 10.11 50.198 0.102 7.01 2.37 10.85
4/8/2021 12:30:00 AM 10.2 50.36 0.102 7.01 2.49 10.83
4/8/2021 12:45:00 AM 10.29 50.522 0.102 7.01 2.32 10.8
4/8/2021 1:00:00 AM 10.36 50.648 0.102 7.02 2.35 10.78
4/8/2021 1:15:00 AM 10.43 50.774 0.102 7.01 2.36 10.76
4/8/2021 1:30:00 AM 10.49 50.882 0.102 7.01 2.3 10.74
4/8/2021 1:45:00 AM 10.56 51.008 0.102 7.01 2.46 10.72
4/8/2021 2:00:00 AM 10.61 51.098 0.102 7.01 2.34 10.71
4/8/2021 2:15:00 AM 10.63 51.134 0.102 7.01 2.35 10.7
4/8/2021 2:30:00 AM 10.64 51.152 0.102 7 2.33 10.7
4/8/2021 2:45:00 AM 10.64 51.152 0.101 7 2.42 10.7
4/8/2021 3:00:00 AM 10.63 51.134 0.101 7 2.39 10.7
4/8/2021 3:15:00 AM 10.62 51.116 0.101 6.93 2.35 10.71
4/8/2021 3:30:00 AM 10.6 51.08 0.101 7 2.41 10.72
4/8/2021 3:45:00 AM 10.59 51.062 0.102 7 2.37 10.72
4/8/2021 4:00:00 AM 10.58 51.044 0.102 7 2.91 10.72
4/8/2021 4:15:00 AM 10.57 51.026 0.102 7 2.55 10.71
4/8/2021 4:30:00 AM 10.56 51.008 0.102 7 2.25 10.72
4/8/2021 4:45:00 AM 10.56 51.008 0.102 7 2.44 10.72
4/8/2021 5:00:00 AM 10.55 50.99 0.102 6.99 2.44 10.72
4/8/2021 5:15:00 AM 10.54 50.972 0.102 6.93 2.38 10.72
4/8/2021 5:30:00 AM 10.52 50.936 0.102 7 2.29 10.73
4/8/2021 5:45:00 AM 10.5 50.9 0.102 7 2.45 10.73
4/8/2021 6:00:00 AM 10.48 50.864 0.102 7 2.8 10.74
4/8/2021 6:15:00 AM 10.45 50.81 0.102 6.99 2.32 10.75
4/8/2021 6:30:00 AM 10.42 50.756 0.102 6.99 2.42 10.76
4/8/2021 6:45:00 AM 10.39 50.702 0.102 7 2.35 10.76
4/8/2021 7:00:00 AM 10.36 50.648 0.101 7 2.34 10.79
4/8/2021 7:15:00 AM 10.34 50.612 0.102 7.01 2.28 10.83
4/8/2021 7:30:00 AM 10.33 50.594 0.102 7 2.41 10.88
4/8/2021 7:45:00 AM 10.32 50.576 0.101 7.03 2.38 10.93
4/8/2021 8:00:00 AM 10.31 50.558 0.101 7.02 15.89 10.96
4/8/2021 8:15:00 AM 10.31 50.558 0.102 7.03 2.28 11.02
4/8/2021 8:30:00 AM 10.33 50.594 0.102 7.06 2.34 11.06
4/8/2021 8:45:00 AM 10.38 50.684 0.101 7.06 2.44 11.11
4/8/2021 9:00:00 AM 10.44 50.792 0.101 7.07 2.38 11.13
4/8/2021 9:15:00 AM 10.52 50.936 0.101 7.08 2.27 11.17
4/8/2021 9:30:00 AM 10.6 51.08 0.101 7.1 2.7 11.2
4/8/2021 9:45:00 AM 10.68 51.224 0.101 7.11 2.95 11.22
4/8/2021 10:00:00 AM 10.76 51.368 0.101 7.12 2.3 11.24
4/8/2021 10:15:00 AM 10.84 51.512 0.101 7.13 2.33 11.26
4/8/2021 10:30:00 AM 10.94 51.692 0.101 7.13 2.31 11.27
4/8/2021 10:45:00 AM 11.05 51.89 0.101 7.15 2.24 11.27
4/8/2021 11:00:00 AM 11.19 52.142 0.101 7.15 2.32 11.27
4/8/2021 11:15:00 AM 11.35 52.43 0.101 7.16 2.28 11.27
4/8/2021 11:30:00 AM 11.54 52.772 0.101 7.17 2.33 11.26
4/8/2021 11:45:00 AM 11.75 53.15 0.101 7.17 2.25 11.24
4/8/2021 12:00:00 PM 11.99 53.582 0.101 7.18 2.35 11.22
4/8/2021 12:15:00 PM 12.24 54.032 0.101 7.18 2.25 11.19
4/8/2021 12:30:00 PM 12.49 54.482 0.101 7.2 2.6 11.15
4/8/2021 12:45:00 PM 12.74 54.932 0.101 7.2 2.78 11.12
4/8/2021 1:00:00 PM 12.99 55.382 0.101 7.2 2.57 11.08
4/8/2021 1:15:00 PM 13.23 55.814 0.1 7.21 2.54 11.04
4/8/2021 1:30:00 PM 13.46 56.228 0.101 7.21 2.2 11.02
4/8/2021 1:45:00 PM 13.67 56.606 0.101 7.21 2.28 10.98
4/8/2021 2:00:00 PM 13.85 56.93 0.101 7.2 2.29 10.95
4/8/2021 2:15:00 PM 14 57.2 0.101 7.2 2.3 10.92
4/8/2021 2:30:00 PM 14.11 57.398 0.101 7.2 2.23 10.91
4/8/2021 2:45:00 PM 14.18 57.524 0.101 7.2 2.24 10.89
4/8/2021 3:00:00 PM 14.22 57.596 0.101 7.2 2.28 10.88
4/8/2021 3:15:00 PM 14.21 57.578 0.101 7.16 2.38 10.87
4/8/2021 3:30:00 PM 14.16 57.488 0.101 7.2 2.26 10.86
4/8/2021 3:45:00 PM 14.08 57.344 0.101 7.19 2.84 10.87
4/8/2021 4:00:00 PM 13.94 57.092 0.101 7.19 2.33 10.88
4/8/2021 4:15:00 PM 13.78 56.804 0.102 7.19 2.83 10.87
4/8/2021 4:30:00 PM 13.59 56.462 0.102 7.18 2.38 10.88
4/8/2021 4:45:00 PM 13.35 56.03 0.102 7.18 2.41 10.9
4/8/2021 5:00:00 PM 13.06 55.508 0.102 7.15 2.37 10.92
4/8/2021 5:15:00 PM 12.8 55.04 0.102 7.15 2.5 10.91
4/8/2021 5:30:00 PM 12.6 54.68 0.102 7.15 2.41 10.92
4/8/2021 5:45:00 PM 12.42 54.356 0.102 7.15 2.35 10.93
4/8/2021 6:00:00 PM 12.25 54.05 0.103 7.14 2.46 10.93
4/8/2021 6:15:00 PM 12.09 53.762 0.103 7.14 2.48 10.94
4/8/2021 6:30:00 PM 11.94 53.492 0.103 7.14 2.43 10.93
4/8/2021 6:45:00 PM 11.79 53.222 0.103 7.13 2.4 10.93
4/8/2021 7:00:00 PM 11.65 52.97 0.103 7.12 2.32 10.91
4/8/2021 7:15:00 PM 11.52 52.736 0.103 7.11 2.42 10.87
4/8/2021 7:30:00 PM 11.4 52.52 0.103 7.11 2.44 10.84
4/8/2021 7:45:00 PM 11.29 52.322 0.103 7.1 2.39 10.81
4/8/2021 8:00:00 PM 11.2 52.16 0.103 7.09 2.54 10.78
4/8/2021 8:15:00 PM 11.09 51.962 0.103 7.08 2.57 10.78
4/8/2021 8:30:00 PM 11 51.8 0.104 7.07 2.5 10.78
4/8/2021 8:45:00 PM 10.92 51.656 0.104 7.08 2.55 10.77
4/8/2021 9:00:00 PM 10.85 51.53 0.104 7.08 2.53 10.75
4/8/2021 9:15:00 PM 10.82 51.476 0.104 7.07 2.44 10.75
4/8/2021 9:30:00 PM 10.79 51.422 0.104 7.07 2.47 10.73
4/8/2021 9:45:00 PM 10.78 51.404 0.104 7.05 2.52 10.71
4/8/2021 10:00:00 PM 10.77 51.386 0.104 7.07 2.5 10.72
4/8/2021 10:15:00 PM 10.77 51.386 0.104 7.07 2.63 10.7
4/8/2021 10:30:00 PM 10.79 51.422 0.104 7.01 2.47 10.69
4/8/2021 10:45:00 PM 10.82 51.476 0.103 7.06 2.57 10.67
4/8/2021 11:00:00 PM 10.86 51.548 0.104 7.06 2.41 10.64
4/8/2021 11:15:00 PM 10.9 51.62 0.103 7.06 2.47 10.63
4/8/2021 11:30:00 PM 10.94 51.692 0.104 7.05 2.49 10.61
4/8/2021 11:45:00 PM 10.98 51.764 0.103 7.05 2.68 10.6
4/9/2021 12:00:00 AM 11.02 51.836 0.104 6.98 2.24 10.59
4/9/2021 12:15:00 AM 11.05 51.89 0.104 7.05 2.3 10.58
4/9/2021 12:30:00 AM 11.09 51.962 0.103 7.05 2.45 10.57
4/9/2021 12:45:00 AM 11.12 52.016 0.103 7.05 2.33 10.56
4/9/2021 1:00:00 AM 11.14 52.052 0.103 7.04 2.53 10.55
4/9/2021 1:15:00 AM 11.16 52.088 0.103 7.04 2.35 10.55
4/9/2021 1:30:00 AM 11.18 52.124 0.103 7.05 2.27 10.55
4/9/2021 1:45:00 AM 11.19 52.142 0.103 7.04 2.53 10.54
4/9/2021 2:00:00 AM 11.2 52.16 0.103 7.03 2.33 10.54
4/9/2021 2:15:00 AM 11.2 52.16 0.103 7.04 2.88 10.54
4/9/2021 2:30:00 AM 11.19 52.142 0.103 7.04 2.54 10.55
4/9/2021 2:45:00 AM 11.17 52.106 0.103 7.03 2.44 10.55
4/9/2021 3:00:00 AM 11.16 52.088 0.103 7.04 2.32 10.56
4/9/2021 3:15:00 AM 11.14 52.052 0.103 7.03 2.91 10.56
4/9/2021 3:30:00 AM 11.13 52.034 0.103 7.04 2.46 10.57
4/9/2021 3:45:00 AM 11.11 51.998 0.103 6.97 2.37 10.57
4/9/2021 4:00:00 AM 11.09 51.962 0.103 7.04 2.39 10.58
4/9/2021 4:15:00 AM 11.09 51.962 0.103 7.03 2.62 10.58
4/9/2021 4:30:00 AM 11.09 51.962 0.103 7.01 2.89 10.58
4/9/2021 4:45:00 AM 11.1 51.98 0.103 7.04 2.5 10.58
4/9/2021 5:00:00 AM 11.12 52.016 0.103 7.03 2.34 10.58
4/9/2021 5:15:00 AM 11.14 52.052 0.103 7.03 2.45 10.57
4/9/2021 5:30:00 AM 11.16 52.088 0.103 7.03 2.39 10.56
4/9/2021 5:45:00 AM 11.17 52.106 0.103 7.03 2.39 10.56
4/9/2021 6:00:00 AM 11.18 52.124 0.103 7.03 2.3 10.56
4/9/2021 6:15:00 AM 11.19 52.142 0.103 7.03 2.49 10.55
4/9/2021 6:30:00 AM 11.2 52.16 0.103 7.03 2.73 10.55
4/9/2021 6:45:00 AM 11.22 52.196 0.103 7.03 2.34 10.55
4/9/2021 7:00:00 AM 11.24 52.232 0.103 7.04 2.41 10.55
4/9/2021 7:15:00 AM 11.26 52.268 0.103 7.04 2.35 10.56
4/9/2021 7:30:00 AM 11.29 52.322 0.103 7.04 2.29 10.58
4/9/2021 7:45:00 AM 11.33 52.394 0.103 7.05 2.34 10.61
4/9/2021 8:00:00 AM 11.36 52.448 0.103 7.05 2.34 10.62
4/9/2021 8:15:00 AM 11.38 52.484 0.103 7.05 2.39 10.63
4/9/2021 8:30:00 AM 11.4 52.52 0.103 7.06 2.4 10.64
4/9/2021 8:45:00 AM 11.43 52.574 0.103 6.99 2.27 10.66
4/9/2021 9:00:00 AM 11.48 52.664 0.103 7.08 2.28 10.73
4/9/2021 9:15:00 AM 11.52 52.736 0.103 7.09 2.29 10.78
4/9/2021 9:30:00 AM 11.55 52.79 0.103 7.09 2.35 10.83
4/9/2021 9:45:00 AM 11.59 52.862 0.103 7.12 2.61 10.86
4/9/2021 10:00:00 AM 11.62 52.916 0.103 7.12 2.25 10.9
4/9/2021 10:15:00 AM 11.64 52.952 0.103 7.13 2.32 10.93
4/9/2021 10:30:00 AM 11.66 52.988 0.103 7.14 2.35 10.95
4/9/2021 10:45:00 AM 11.65 52.97 0.103 7.15 3.4 10.95
4/9/2021 11:00:00 AM 11.65 52.97 0.103 7.15 2.15 10.96
4/9/2021 11:15:00 AM 11.64 52.952 0.103 7.15 2.32 10.98
4/9/2021 11:30:00 AM 11.67 53.006 0.103 7.16 2.27 11
4/9/2021 11:45:00 AM 11.68 53.024 0.103 7.17 2.4 11.02
4/9/2021 12:00:00 PM 11.69 53.042 0.102 7.17 2.68 11.02
4/9/2021 12:15:00 PM 11.71 53.078 0.103 7.18 2.34 11.03
4/9/2021 12:30:00 PM 11.72 53.096 0.103 7.18 2.39 11.02
4/9/2021 12:45:00 PM 11.73 53.114 0.103 7.18 2.35 11.01
4/9/2021 1:00:00 PM 11.77 53.186 0.103 7.18 2.43 11.02
4/9/2021 1:15:00 PM 11.82 53.276 0.103 7.19 2.42 11.04
4/9/2021 1:30:00 PM 11.84 53.312 0.103 7.2 2.42 11.04
4/9/2021 1:45:00 PM 11.85 53.33 0.103 7.2 2.27 11.04
4/9/2021 2:00:00 PM 11.86 53.348 0.103 7.2 2.37 11.04
4/9/2021 2:15:00 PM 11.88 53.384 0.103 7.21 2.41 11.05
4/9/2021 2:30:00 PM 11.92 53.456 0.103 7.22 2.39 11.08
4/9/2021 2:45:00 PM 11.93 53.474 0.103 7.21 2.54 11.08
4/9/2021 3:00:00 PM 11.9 53.42 0.103 7.19 3.04 11.06
4/9/2021 3:15:00 PM 11.86 53.348 0.103 7.21 2.95 11.06
4/9/2021 3:30:00 PM 11.85 53.33 0.103 7.21 3.46 11.07
4/9/2021 3:45:00 PM 11.84 53.312 0.103 7.21 3.06 11.09
4/9/2021 4:00:00 PM 11.82 53.276 0.103 7.22 3.07 11.11
4/9/2021 4:15:00 PM 11.78 53.204 0.104 7.22 3.22 11.1
4/9/2021 4:30:00 PM 11.73 53.114 0.104 7.22 3.03 11.08
4/9/2021 4:45:00 PM 11.7 53.06 0.104 7.22 3.1 11.08
4/9/2021 5:00:00 PM 11.66 52.988 0.104 7.22 2.86 11.07
4/9/2021 5:15:00 PM 11.63 52.934 0.104 7.21 3.42 11.06
4/9/2021 5:30:00 PM 11.59 52.862 0.104 7.2 3.12 11.03
4/9/2021 5:45:00 PM 11.54 52.772 0.104 7.19 3.6 10.97
4/9/2021 6:00:00 PM 11.5 52.7 0.104 7.18 3.77 10.93
4/9/2021 6:15:00 PM 11.48 52.664 0.104 7.17 3.67 10.92
4/9/2021 6:30:00 PM 11.46 52.628 0.104 7.16 2.53 10.88
4/9/2021 6:45:00 PM 11.44 52.592 0.104 7.15 3.55 10.85
4/9/2021 7:00:00 PM 11.42 52.556 0.104 7.11 3.28 10.8
4/9/2021 7:15:00 PM 11.41 52.538 0.105 7.07 2.63 10.76
4/9/2021 7:30:00 PM 11.39 52.502 0.105 7.07 2.63 10.72
4/9/2021 7:45:00 PM 11.38 52.484 0.105 7.07 2.58 10.67
4/9/2021 8:00:00 PM 11.37 52.466 0.105 7.08 2.64 10.65
4/9/2021 8:15:00 PM 11.37 52.466 0.105 7.08 2.96 10.62
4/9/2021 8:30:00 PM 11.36 52.448 0.105 7.07 2.65 10.6
4/9/2021 8:45:00 PM 11.35 52.43 0.105 7.07 2.62 10.59
4/9/2021 9:00:00 PM 11.34 52.412 0.105 7.07 2.81 10.58
4/9/2021 9:15:00 PM 11.33 52.394 0.105 7.06 2.76 10.57
4/9/2021 9:30:00 PM 11.32 52.376 0.105 7.06 2.8 10.57
4/9/2021 9:45:00 PM 11.29 52.322 0.105 7.06 2.75 10.57
4/9/2021 10:00:00 PM 11.27 52.286 0.105 7.06 2.61 10.57
4/9/2021 10:15:00 PM 11.23 52.214 0.105 7.06 2.83 10.57
4/9/2021 10:30:00 PM 11.2 52.16 0.106 7.05 2.87 10.59
4/9/2021 10:45:00 PM 11.17 52.106 0.106 7.06 2.8 10.59
4/9/2021 11:00:00 PM 11.15 52.07 0.106 7 2.79 10.6
4/9/2021 11:15:00 PM 11.12 52.016 0.105 7.05 2.9 10.6
4/9/2021 11:30:00 PM 11.1 51.98 0.106 7.05 2.72 10.61
4/9/2021 11:45:00 PM 11.08 51.944 0.106 7.05 2.79 10.63
4/10/2021 12:00:00 AM 11.05 51.89 0.106 7.04 2.79 10.63
4/10/2021 12:15:00 AM 11.03 51.854 0.106 7.04 2.71 10.63
4/10/2021 12:30:00 AM 11.02 51.836 0.106 7.05 2.97 10.64
4/10/2021 12:45:00 AM 11.01 51.818 0.106 7.05 3.06 10.64
4/10/2021 1:00:00 AM 11 51.8 0.106 7.05 2.75 10.63
4/10/2021 1:15:00 AM 11 51.8 0.106 7.05 2.88 10.64
4/10/2021 1:30:00 AM 11 51.8 0.106 7.05 2.8 10.63
4/10/2021 1:45:00 AM 11.01 51.818 0.106 7.06 2.82 10.63
4/10/2021 2:00:00 AM 11.03 51.854 0.106 7.04 2.82 10.63
4/10/2021 2:15:00 AM 11.04 51.872 0.106 7.05 2.92 10.62
4/10/2021 2:30:00 AM 11.05 51.89 0.106 7.04 2.85 10.62
4/10/2021 2:45:00 AM 11.05 51.89 0.105 7.04 2.81 10.62
4/10/2021 3:00:00 AM 11.06 51.908 0.106 7.04 2.87 10.62
4/10/2021 3:15:00 AM 11.06 51.908 0.106 7.04 2.75 10.62
4/10/2021 3:30:00 AM 11.05 51.89 0.106 7.03 2.76 10.61
4/10/2021 3:45:00 AM 11.04 51.872 0.106 7.02 2.89 10.61
4/10/2021 4:00:00 AM 11.04 51.872 0.105 7.03 2.87 10.62
4/10/2021 4:15:00 AM 11.03 51.854 0.106 7.04 2.62 10.62
4/10/2021 4:30:00 AM 11.02 51.836 0.106 7.03 2.78 10.63
4/10/2021 4:45:00 AM 11.01 51.818 0.106 7.03 2.93 10.63
4/10/2021 5:00:00 AM 10.99 51.782 0.106 7.03 2.8 10.63
4/10/2021 5:15:00 AM 10.98 51.764 0.105 7.03 2.8 10.63
4/10/2021 5:30:00 AM 10.97 51.746 0.106 7.03 2.91 10.64
4/10/2021 5:45:00 AM 10.95 51.71 0.106 7.03 2.92 10.64
4/10/2021 6:00:00 AM 10.94 51.692 0.106 7.03 2.97 10.64
4/10/2021 6:15:00 AM 10.93 51.674 0.106 7.03 2.8 10.64
4/10/2021 6:30:00 AM 10.92 51.656 0.106 7.03 2.79 10.64
4/10/2021 6:45:00 AM 10.92 51.656 0.106 7.03 2.71 10.64
4/10/2021 7:00:00 AM 10.92 51.656 0.106 7.04 2.81 10.65
4/10/2021 7:15:00 AM 10.93 51.674 0.105 7.03 3.94 10.66
4/10/2021 7:30:00 AM 10.94 51.692 0.106 7.02 4.8 10.67
4/10/2021 7:45:00 AM 10.96 51.728 0.106 7.02 4.52 10.69
4/10/2021 8:00:00 AM 10.98 51.764 0.105 7.04 4.3 10.72
4/10/2021 8:15:00 AM 11 51.8 0.105 7.05 4.07 10.77
4/10/2021 8:30:00 AM 11.03 51.854 0.105 7.08 4.01 10.82
4/10/2021 8:45:00 AM 11.05 51.89 0.105 7.08 3.54 10.86
4/10/2021 9:00:00 AM 11.08 51.944 0.105 7.09 3.56 10.9
4/10/2021 9:15:00 AM 11.11 51.998 0.105 7.12 3.61 10.94
4/10/2021 9:30:00 AM 11.14 52.052 0.105 7.13 2.45 10.98
4/10/2021 9:45:00 AM 11.17 52.106 0.105 7.13 2.59 11.02
4/10/2021 10:00:00 AM 11.19 52.142 0.105 7.16 3.26 11.04
4/10/2021 10:15:00 AM 11.23 52.214 0.105 7.16 2.99 11.08
4/10/2021 10:30:00 AM 11.27 52.286 0.105 7.17 2.55 11.11
4/10/2021 10:45:00 AM 11.3 52.34 0.104 7.18 2.95 11.14
4/10/2021 11:00:00 AM 11.33 52.394 0.104 7.2 2.98 11.15
4/10/2021 11:15:00 AM 11.37 52.466 0.104 7.21 2.99 11.17
4/10/2021 11:30:00 AM 11.41 52.538 0.104 7.19 3.59 11.19
4/10/2021 11:45:00 AM 11.45 52.61 0.105 7.22 3.33 11.2
4/10/2021 12:00:00 PM 11.49 52.682 0.104 7.23 3.14 11.22
4/10/2021 12:15:00 PM 11.54 52.772 0.104 7.24 3.1 11.22
4/10/2021 12:30:00 PM 11.6 52.88 0.104 7.24 2.58 11.23
4/10/2021 12:45:00 PM 11.68 53.024 0.104 7.23 3.16 11.24
4/10/2021 1:00:00 PM 11.78 53.204 0.104 7.26 3.24 11.24
4/10/2021 1:15:00 PM 11.87 53.366 0.104 7.27 3.21 11.24
4/10/2021 1:30:00 PM 12 53.6 0.104 7.27 3.43 11.23
4/10/2021 1:45:00 PM 12.06 53.708 0.104 7.27 2.7 11.22
4/10/2021 2:00:00 PM 12.09 53.762 0.104 7.27 2.64 11.2
4/10/2021 2:15:00 PM 12.11 53.798 0.104 7.27 3.36 11.19
4/10/2021 2:30:00 PM 12.16 53.888 0.105 7.28 3.33 11.18
4/10/2021 2:45:00 PM 12.17 53.906 0.105 7.28 3.48 11.17
4/10/2021 3:00:00 PM 12.16 53.888 0.105 7.27 3.77 11.16
4/10/2021 3:15:00 PM 12.13 53.834 0.105 7.26 2.61 11.13
4/10/2021 3:30:00 PM 12.13 53.834 0.105 7.26 2.61 11.12
4/10/2021 3:45:00 PM 12.26 54.068 0.105 7.28 3.03 11.12
4/10/2021 4:00:00 PM 12.34 54.212 0.105 7.3 3.08 11.13
4/10/2021 4:15:00 PM 12.36 54.248 0.105 7.29 3.19 11.11
4/10/2021 4:30:00 PM 12.35 54.23 0.105 7.3 3.4 11.1
4/10/2021 4:45:00 PM 12.35 54.23 0.105 7.28 3.18 11.09
4/10/2021 5:00:00 PM 12.32 54.176 0.105 7.3 3.25 11.09
4/10/2021 5:15:00 PM 12.25 54.05 0.105 7.28 2.63 11.06
4/10/2021 5:30:00 PM 12.17 53.906 0.105 7.27 4.06 11.03
4/10/2021 5:45:00 PM 12.1 53.78 0.106 7.26 4.05 11.03
4/10/2021 6:00:00 PM 12.03 53.654 0.105 7.22 2.55 11.02
4/10/2021 6:15:00 PM 11.96 53.528 0.105 7.23 2.94 11.01
4/10/2021 6:30:00 PM 11.89 53.402 0.106 7.23 3.13 10.99
4/10/2021 6:45:00 PM 11.81 53.258 0.106 7.22 3.44 10.95
4/10/2021 7:00:00 PM 11.73 53.114 0.106 7.2 3.17 10.92
4/10/2021 7:15:00 PM 11.65 52.97 0.106 7.18 3.36 10.87
4/10/2021 7:30:00 PM 11.58 52.844 0.106 7.16 3.19 10.8
4/10/2021 7:45:00 PM 11.5 52.7 0.106 7.15 2.68 10.74
4/10/2021 8:00:00 PM 11.43 52.574 0.106 7.15 2.73 10.69
4/10/2021 8:15:00 PM 11.35 52.43 0.106 7.13 2.89 10.64
4/10/2021 8:30:00 PM 11.28 52.304 0.106 7.11 2.96 10.62
4/10/2021 8:45:00 PM 11.22 52.196 0.106 7.1 2.87 10.6
4/10/2021 9:00:00 PM 11.17 52.106 0.106 7.1 2.97 10.58
4/10/2021 9:15:00 PM 11.13 52.034 0.106 7.09 2.97 10.57
4/10/2021 9:30:00 PM 11.11 51.998 0.107 7.09 2.81 10.56
4/10/2021 9:45:00 PM 11.1 51.98 0.106 7.08 2.83 10.55
4/10/2021 10:00:00 PM 11.09 51.962 0.107 7.09 2.75 10.54
4/10/2021 10:15:00 PM 11.08 51.944 0.107 7.08 2.56 10.53
4/10/2021 10:30:00 PM 11.06 51.908 0.107 7.08 2.78 10.52
4/10/2021 10:45:00 PM 11.05 51.89 0.107 7.08 2.65 10.52
4/10/2021 11:00:00 PM 11.05 51.89 0.107 7.06 2.97 10.52
4/10/2021 11:15:00 PM 11.06 51.908 0.107 7.06 2.72 10.51
4/10/2021 11:30:00 PM 11.07 51.926 0.107 7.06 2.81 10.5
4/10/2021 11:45:00 PM 11.09 51.962 0.107 7.06 2.72 10.49
4/11/2021 12:00:00 AM 11.11 51.998 0.107 7.06 2.75 10.48
4/11/2021 12:15:00 AM 11.12 52.016 0.106 7.05 2.78 10.47
4/11/2021 12:30:00 AM 11.14 52.052 0.107 7.05 2.59 10.47
4/11/2021 12:45:00 AM 11.15 52.07 0.106 7.05 2.64 10.46
4/11/2021 1:00:00 AM 11.16 52.088 0.106 7.05 2.94 10.45
4/11/2021 1:15:00 AM 11.18 52.124 0.106 7.04 2.85 10.45
4/11/2021 1:30:00 AM 11.19 52.142 0.106 7.04 2.76 10.45
4/11/2021 1:45:00 AM 11.2 52.16 0.106 7.04 2.78 10.44
4/11/2021 2:00:00 AM 11.21 52.178 0.106 7.04 2.95 10.43
4/11/2021 2:15:00 AM 11.22 52.196 0.106 7.04 2.73 10.43
4/11/2021 2:30:00 AM 11.23 52.214 0.106 7.04 2.61 10.42
4/11/2021 2:45:00 AM 11.25 52.25 0.106 7.03 2.7 10.41
4/11/2021 3:00:00 AM 11.26 52.268 0.106 7.03 2.67 10.41
4/11/2021 3:15:00 AM 11.27 52.286 0.106 7.04 2.79 10.4
4/11/2021 3:30:00 AM 11.28 52.304 0.106 7.04 2.62 10.4
4/11/2021 3:45:00 AM 11.28 52.304 0.106 7.03 2.69 10.4
4/11/2021 4:00:00 AM 11.29 52.322 0.106 7.03 2.84 10.39
4/11/2021 4:15:00 AM 11.29 52.322 0.106 7.03 2.62 10.39
4/11/2021 4:30:00 AM 11.3 52.34 0.106 7.03 2.65 10.38
4/11/2021 4:45:00 AM 11.3 52.34 0.106 7.03 2.8 10.37
4/11/2021 5:00:00 AM 11.31 52.358 0.106 7.03 2.61 10.37
4/11/2021 5:15:00 AM 11.31 52.358 0.106 7.02 9.47 10.37
4/11/2021 5:30:00 AM 11.32 52.376 0.106 7.03 2.83 10.36
4/11/2021 5:45:00 AM 11.32 52.376 0.105 7.02 2.53 10.34
4/11/2021 6:00:00 AM 11.33 52.394 0.105 7.03 2.71 10.35
4/11/2021 6:15:00 AM 11.34 52.412 0.105 7.02 3.51 10.35
4/11/2021 6:30:00 AM 11.36 52.448 0.104 7.04 3.92 10.33
4/11/2021 6:45:00 AM 11.37 52.466 0.104 7.04 3.39 10.33
4/11/2021 7:00:00 AM 11.39 52.502 0.104 7.04 4.48 10.32
4/11/2021 7:15:00 AM 11.39 52.502 0.104 7.03 3.45 10.32
4/11/2021 7:30:00 AM 11.4 52.52 0.103 7.03 3.48 10.33
4/11/2021 7:45:00 AM 11.42 52.556 0.102 7.05 3.89 10.33
4/11/2021 8:00:00 AM 11.44 52.592 0.101 7.04 4.3 10.34
4/11/2021 8:15:00 AM 11.53 52.754 0.1 7.22 22.08 10.33
4/11/2021 8:30:00 AM 11.46 52.628 0.101 7.18 13.11 10.36
4/11/2021 8:45:00 AM 11.46 52.628 0.103 7.25 26.88 10.39
4/11/2021 9:00:00 AM 11.47 52.646 0.103 7.23 21.14 10.44
4/11/2021 9:15:00 AM 11.49 52.682 0.102 7.16 12.77 10.48
4/11/2021 9:30:00 AM 11.5 52.7 0.102 7.11 8.62 10.53
4/11/2021 9:45:00 AM 11.52 52.736 0.101 7.09 6.65 10.62
4/11/2021 10:00:00 AM 11.53 52.754 0.101 7.11 5.51 10.65
4/11/2021 10:15:00 AM 11.54 52.772 0.101 7.11 5.08 10.71
4/11/2021 10:30:00 AM 11.56 52.808 0.101 7.13 4.94 10.75
4/11/2021 10:45:00 AM 11.58 52.844 0.101 7.13 4.65 10.79
4/11/2021 11:00:00 AM 11.63 52.934 0.101 7.14 4.35 10.83
4/11/2021 11:15:00 AM 11.72 53.096 0.102 7.17 4.19 10.88
4/11/2021 11:30:00 AM 11.79 53.222 0.102 7.18 5.69 10.93
4/11/2021 11:45:00 AM 11.82 53.276 0.102 7.21 4.99 10.95
4/11/2021 12:00:00 PM 11.82 53.276 0.102 7.21 4.9 10.96
4/11/2021 12:15:00 PM 11.79 53.222 0.103 7.22 4.9 10.97
4/11/2021 12:30:00 PM 11.75 53.15 0.103 7.21 4.53 10.95
4/11/2021 12:45:00 PM 11.7 53.06 0.103 7.21 5.11 10.93
4/11/2021 1:00:00 PM 11.67 53.006 0.103 7.2 4.07 10.91
4/11/2021 1:15:00 PM 11.68 53.024 0.102 7.2 4.42 10.91
4/11/2021 1:30:00 PM 11.73 53.114 0.102 7.24 5.82 10.89
4/11/2021 1:45:00 PM 11.76 53.168 0.101 7.24 6.01 10.9
4/11/2021 2:00:00 PM 11.74 53.132 0.102 7.23 6.66 10.92
4/11/2021 2:15:00 PM 11.71 53.078 0.102 7.23 6.08 10.93
4/11/2021 2:30:00 PM 11.76 53.168 0.103 7.23 5.37 10.96
4/11/2021 2:45:00 PM 11.81 53.258 0.103 7.23 4.64 10.98
4/11/2021 3:00:00 PM 11.82 53.276 0.103 7.23 7.16 10.98
4/11/2021 3:15:00 PM 11.79 53.222 0.103 7.23 3.86 10.97
4/11/2021 3:30:00 PM 11.79 53.222 0.103 7.23 3.6 10.98
4/11/2021 3:45:00 PM 11.84 53.312 0.103 7.23 3.55 10.98
4/11/2021 4:00:00 PM 11.88 53.384 0.103 7.24 4.07 10.98
4/11/2021 4:15:00 PM 11.89 53.402 0.103 7.24 3.8 10.98
4/11/2021 4:30:00 PM 11.9 53.42 0.103 7.24 3.59 10.96
4/11/2021 4:45:00 PM 11.93 53.474 0.103 7.23 3.91 10.95
4/11/2021 5:00:00 PM 11.99 53.582 0.103 7.24 3.59 10.94
4/11/2021 5:15:00 PM 12.03 53.654 0.103 7.25 3.74 10.93
4/11/2021 5:30:00 PM 12.02 53.636 0.103 7.24 3.48 10.9
4/11/2021 5:45:00 PM 12.02 53.636 0.103 7.24 3.52 10.89
4/11/2021 6:00:00 PM 11.98 53.564 0.103 7.23 3.68 10.86
4/11/2021 6:15:00 PM 11.91 53.438 0.103 7.21 3.52 10.81
4/11/2021 6:30:00 PM 11.85 53.33 0.103 7.2 3.94 10.79
4/11/2021 6:45:00 PM 11.8 53.24 0.103 7.2 3.65 10.74
4/11/2021 7:00:00 PM 11.74 53.132 0.103 7.16 3.47 10.68
4/11/2021 7:15:00 PM 11.69 53.042 0.103 7.17 4.89 10.63
4/11/2021 7:30:00 PM 11.65 52.97 0.103 7.14 3.35 10.59
4/11/2021 7:45:00 PM 11.61 52.898 0.103 7.11 3.32 10.56
4/11/2021 8:00:00 PM 11.57 52.826 0.104 7.1 3.57 10.53
4/11/2021 8:15:00 PM 11.52 52.736 0.103 7.1 3.57 10.51
4/11/2021 8:30:00 PM 11.48 52.664 0.104 7.09 3.46 10.49
4/11/2021 8:45:00 PM 11.45 52.61 0.104 7.07 3.38 10.48
4/11/2021 9:00:00 PM 11.4 52.52 0.104 7.07 3.95 10.48
4/11/2021 9:15:00 PM 11.37 52.466 0.104 7.06 3.64 10.49
4/11/2021 9:30:00 PM 11.33 52.394 0.104 7 3.6 10.49
4/11/2021 9:45:00 PM 11.29 52.322 0.104 7.06 3.65 10.5
4/11/2021 10:00:00 PM 11.25 52.25 0.104 7.06 4.64 10.51
4/11/2021 10:15:00 PM 11.22 52.196 0.104 7.05 3.6 10.52
4/11/2021 10:30:00 PM 11.18 52.124 0.105 7.04 3.46 10.53
4/11/2021 10:45:00 PM 11.17 52.106 0.105 7.03 3.66 10.53
4/11/2021 11:00:00 PM 11.15 52.07 0.105 7.03 3.49 10.54
4/11/2021 11:15:00 PM 11.14 52.052 0.105 7.02 3.77 10.55
4/11/2021 11:30:00 PM 11.13 52.034 0.105 7.03 4.55 10.56
4/11/2021 11:45:00 PM 11.13 52.034 0.105 7.02 3.46 10.56
4/12/2021 12:00:00 AM 11.13 52.034 0.104 7.02 3.68 10.57
4/12/2021 12:15:00 AM 11.13 52.034 0.104 7.02 3.57 10.58
4/12/2021 12:30:00 AM 11.13 52.034 0.104 7.02 3.98 10.58
4/12/2021 12:45:00 AM 11.14 52.052 0.104 7.02 4.53 10.58
4/12/2021 1:00:00 AM 11.14 52.052 0.104 7.03 5.03 10.59
4/12/2021 1:15:00 AM 11.14 52.052 0.104 7.05 4.21 10.6
4/12/2021 1:30:00 AM 11.14 52.052 0.105 7.03 4.15 10.6
4/12/2021 1:45:00 AM 11.14 52.052 0.104 7.03 4.25 10.6
4/12/2021 2:00:00 AM 11.15 52.07 0.105 7.02 4.37 10.6
4/12/2021 2:15:00 AM 11.15 52.07 0.105 7.03 4.39 10.61
4/12/2021 2:30:00 AM 11.16 52.088 0.105 7.02 4.27 10.61
4/12/2021 2:45:00 AM 11.15 52.07 0.105 7.02 4.3 10.62
4/12/2021 3:00:00 AM 11.15 52.07 0.106 7.02 4.12 10.62
4/12/2021 3:15:00 AM 11.14 52.052 0.106 7.02 4.32 10.62
4/12/2021 3:30:00 AM 11.14 52.052 0.106 7.02 4.24 10.64
4/12/2021 3:45:00 AM 11.14 52.052 0.107 7.03 4.26 10.64
4/12/2021 4:00:00 AM 11.15 52.07 0.107 7.03 4.01 10.65
4/12/2021 4:15:00 AM 11.16 52.088 0.108 7.04 4.09 10.65
4/12/2021 4:30:00 AM 11.17 52.106 0.108 7.04 4.15 10.66
4/12/2021 4:45:00 AM 11.17 52.106 0.108 7.04 4.22 10.66
4/12/2021 5:00:00 AM 11.17 52.106 0.109 7.04 4.24 10.67
4/12/2021 5:15:00 AM 11.17 52.106 0.109 7.05 4.17 10.68
4/12/2021 5:30:00 AM 11.17 52.106 0.109 7.04 4.43 10.69
4/12/2021 5:45:00 AM 11.17 52.106 0.109 7.05 4.44 10.7
4/12/2021 6:00:00 AM 11.16 52.088 0.109 7.05 4.35 10.7
4/12/2021 6:15:00 AM 11.16 52.088 0.108 7.05 4.64 10.71
4/12/2021 6:30:00 AM 11.15 52.07 0.108 7.05 4.79 10.73
4/12/2021 6:45:00 AM 11.13 52.034 0.107 7.06 4.82 10.74
4/12/2021 7:00:00 AM 11.11 51.998 0.107 7.05 4.69 10.75
4/12/2021 7:15:00 AM 11.1 51.98 0.106 7.05 4.62 10.78
4/12/2021 7:30:00 AM 11.09 51.962 0.106 7.06 4.79 10.8
4/12/2021 7:45:00 AM 11.1 51.98 0.105 7.06 4.73 10.83
4/12/2021 8:00:00 AM 11.1 51.98 0.105 7.07 4.65 10.84
4/12/2021 8:15:00 AM 11.11 51.998 0.105 7.07 4.34 10.86
4/12/2021 8:30:00 AM 11.12 52.016 0.104 7.08 4.52 10.9
4/12/2021 8:45:00 AM 11.12 52.016 0.104 7.08 4.39 10.91
4/12/2021 9:00:00 AM 11.11 51.998 0.104 7.08 4.61 10.93
4/12/2021 9:15:00 AM 11.11 51.998 0.103 7.08 5.2 10.94
4/12/2021 9:30:00 AM 11.1 51.98 0.103 7.09 4.63 10.96
4/12/2021 9:45:00 AM 11.1 51.98 0.103 7.09 5.19 10.99
4/12/2021 10:00:00 AM 11.09 51.962 0.103 7.09 4.8 11
4/12/2021 10:15:00 AM 11.07 51.926 0.103 7.1 5.46 10.99
4/12/2021 10:30:00 AM 11.06 51.908 0.103 7.08 4.62 11.02
4/12/2021 10:45:00 AM 11.05 51.89 0.103 7.1 5.2 11.06
4/12/2021 11:00:00 AM 11.04 51.872 0.102 7.09 5.01 11.08
4/12/2021 11:15:00 AM 11.03 51.854 0.102 7.12 4.86 11.09
4/12/2021 11:30:00 AM 11.03 51.854 0.101 7.13 4.94 11.12
4/12/2021 11:45:00 AM 11.02 51.836 0.101 7.12 5.04 11.14
4/12/2021 12:00:00 PM 11 51.8 0.101 7.14 5.27 11.13
4/12/2021 12:15:00 PM 10.99 51.782 0.1 7.15 5.24 11.14
4/12/2021 12:30:00 PM 10.99 51.782 0.1 7.14 5.17 11.14
4/12/2021 12:45:00 PM 11 51.8 0.1 7.15 5.29 11.15
4/12/2021 1:00:00 PM 11 51.8 0.1 7.14 5.57 11.16
4/12/2021 1:15:00 PM 10.99 51.782 0.1 7.14 5.93 11.15
4/12/2021 1:30:00 PM 10.98 51.764 0.099 7.15 5.83 11.16
4/12/2021 1:45:00 PM 10.99 51.782 0.099 7.14 5.93 11.19
4/12/2021 2:00:00 PM 11 51.8 0.099 7.09 6.87 11.21
4/12/2021 2:15:00 PM 11.01 51.818 0.099 7.17 6.43 11.23
4/12/2021 2:30:00 PM 11.01 51.818 0.099 7.16 6.35 11.24
4/12/2021 2:45:00 PM 11.01 51.818 0.099 7.16 6.31 11.23
4/12/2021 3:00:00 PM 11 51.8 0.099 7.16 6.39 11.22
4/12/2021 3:15:00 PM 10.97 51.746 0.099 7.16 6.62 11.18
4/12/2021 3:30:00 PM 10.94 51.692 0.099 7.13 6.46 11.15
4/12/2021 3:45:00 PM 10.9 51.62 0.099 7.13 6.15 11.13
4/12/2021 4:00:00 PM 10.87 51.566 0.098 7.11 6.57 11.12
4/12/2021 4:15:00 PM 10.85 51.53 0.098 7.12 6.15 11.13
4/12/2021 4:30:00 PM 10.82 51.476 0.098 7.12 6.66 11.14
4/12/2021 4:45:00 PM 10.79 51.422 0.098 7.12 7.61 11.16
4/12/2021 5:00:00 PM 10.75 51.35 0.097 7.12 6.73 11.16
4/12/2021 5:15:00 PM 10.72 51.296 0.097 7.12 6.57 11.16
4/12/2021 5:30:00 PM 10.7 51.26 0.097 7.12 6.57 11.18
4/12/2021 5:45:00 PM 10.68 51.224 0.097 7.11 6.21 11.18
4/12/2021 6:00:00 PM 10.66 51.188 0.097 7.11 6.33 11.17
4/12/2021 6:15:00 PM 10.65 51.17 0.096 7.11 6.32 11.16
4/12/2021 6:30:00 PM 10.63 51.134 0.096 7.11 6.5 11.16
4/12/2021 6:45:00 PM 10.61 51.098 0.096 7.09 6.25 11.16
4/12/2021 7:00:00 PM 10.58 51.044 0.096 7.09 6.16 11.15
4/12/2021 7:15:00 PM 10.56 51.008 0.096 7.09 6.03 11.15
4/12/2021 7:30:00 PM 10.54 50.972 0.096 7.09 6.03 11.14
4/12/2021 7:45:00 PM 10.53 50.954 0.096 7.09 6.28 11.12
4/12/2021 8:00:00 PM 10.51 50.918 0.096 7.09 5.94 11.12
4/12/2021 8:15:00 PM 10.49 50.882 0.096 7.08 6 11.11
4/12/2021 8:30:00 PM 10.47 50.846 0.095 7.09 6.1 11.12
4/12/2021 8:45:00 PM 10.45 50.81 0.095 7.09 6.06 11.12
4/12/2021 9:00:00 PM 10.43 50.774 0.095 7.08 5.55 11.12
4/12/2021 9:15:00 PM 10.42 50.756 0.095 7.08 5.93 11.12
4/12/2021 9:30:00 PM 10.41 50.738 0.095 7.08 5.81 11.12
4/12/2021 9:45:00 PM 10.4 50.72 0.095 7.08 5.49 11.13
4/12/2021 10:00:00 PM 10.39 50.702 0.095 7.08 5.53 11.13
4/12/2021 10:15:00 PM 10.38 50.684 0.095 7.08 5.65 11.13
4/12/2021 10:30:00 PM 10.37 50.666 0.094 7.08 5.77 11.14
4/12/2021 10:45:00 PM 10.36 50.648 0.094 7.08 5.47 11.15
4/12/2021 11:00:00 PM 10.35 50.63 0.094 7.09 5.47 11.14
4/12/2021 11:15:00 PM 10.34 50.612 0.094 7.08 5.3 11.15
4/12/2021 11:30:00 PM 10.33 50.594 0.094 7.08 5.41 11.15
4/12/2021 11:45:00 PM 10.33 50.594 0.094 7.08 5.68 11.15
4/13/2021 12:00:00 AM 10.31 50.558 0.094 7.09 5.35 11.16
4/13/2021 12:15:00 AM 10.3 50.54 0.094 7.08 5.34 11.16
4/13/2021 12:30:00 AM 10.28 50.504 0.094 7.08 5.83 11.17
4/13/2021 12:45:00 AM 10.26 50.468 0.094 7.08 5.37 11.17
4/13/2021 1:00:00 AM 10.24 50.432 0.094 7.09 5.09 11.18
4/13/2021 1:15:00 AM 10.22 50.396 0.094 7.08 5.36 11.19
4/13/2021 1:30:00 AM 10.21 50.378 0.094 7.08 5.34 11.19
4/13/2021 1:45:00 AM 10.2 50.36 0.094 7.08 5.26 11.19
4/13/2021 2:00:00 AM 10.18 50.324 0.094 7.08 5.13 11.19
4/13/2021 2:15:00 AM 10.16 50.288 0.093 7.08 5.14 11.2
4/13/2021 2:30:00 AM 10.15 50.27 0.093 7.08 5.04 11.2
4/13/2021 2:45:00 AM 10.13 50.234 0.093 7.06 4.93 11.21
4/13/2021 3:00:00 AM 10.12 50.216 0.093 7.07 5.12 11.21
4/13/2021 3:15:00 AM 10.1 50.18 0.093 7.07 4.72 11.21
4/13/2021 3:30:00 AM 10.08 50.144 0.093 7.07 5.07 11.22
4/13/2021 3:45:00 AM 10.06 50.108 0.093 7.07 4.97 11.22
4/13/2021 4:00:00 AM 10.04 50.072 0.093 7.06 5.33 11.23
4/13/2021 4:15:00 AM 10.02 50.036 0.093 7.06 4.94 11.23
4/13/2021 4:30:00 AM 10 50 0.093 7.06 5.22 11.23
4/13/2021 4:45:00 AM 9.98 49.964 0.093 7.06 4.59 11.24
4/13/2021 5:00:00 AM 9.96 49.928 0.093 7.06 4.94 11.25
4/13/2021 5:15:00 AM 9.94 49.892 0.093 7.05 4.82 11.25
4/13/2021 5:30:00 AM 9.92 49.856 0.093 7.06 4.75 11.25
4/13/2021 5:45:00 AM 9.9 49.82 0.093 7.05 4.77 11.26
4/13/2021 6:00:00 AM 9.89 49.802 0.093 7.06 5.05 11.26
4/13/2021 6:15:00 AM 9.87 49.766 0.093 7.05 4.89 11.27
4/13/2021 6:30:00 AM 9.86 49.748 0.093 7.05 4.73 11.27
4/13/2021 6:45:00 AM 9.84 49.712 0.092 7.04 4.86 11.28
4/13/2021 7:00:00 AM 9.82 49.676 0.093 7.04 4.67 11.29
4/13/2021 7:15:00 AM 9.8 49.64 0.092 7.05 4.46 11.3
4/13/2021 7:30:00 AM 9.79 49.622 0.092 7.06 5.21 11.32
4/13/2021 7:45:00 AM 9.79 49.622 0.092 7.06 4.58 11.37
4/13/2021 8:00:00 AM 9.78 49.604 0.092 7.08 4.48 11.4
4/13/2021 8:15:00 AM 9.77 49.586 0.092 7.08 4.49 11.42
4/13/2021 8:30:00 AM 9.77 49.586 0.092 7.08 4.36 11.45
4/13/2021 8:45:00 AM 9.78 49.604 0.092 7.09 4.3 11.49
4/13/2021 9:00:00 AM 9.78 49.604 0.092 7.09 4.09 11.53
4/13/2021 9:15:00 AM 9.78 49.604 0.092 7.1 4.81 11.55
4/13/2021 9:30:00 AM 9.77 49.586 0.092 7.11 4.16 11.58
4/13/2021 9:45:00 AM 9.78 49.604 0.092 7.11 4.35 11.61
4/13/2021 10:00:00 AM 9.82 49.676 0.091 7.13 4.05 11.64
4/13/2021 10:15:00 AM 9.86 49.748 0.091 7.14 4.28 11.67
4/13/2021 10:30:00 AM 9.89 49.802 0.091 7.15 4.13 11.69
4/13/2021 10:45:00 AM 9.95 49.91 0.091 7.15 4.19 11.71
4/13/2021 11:00:00 AM 9.98 49.964 0.091 7.16 4.07 11.73
4/13/2021 11:15:00 AM 10.18 50.324 0.091 7.17 4.16 11.73
4/13/2021 11:30:00 AM 10.22 50.396 0.091 7.17 4.74 11.73
4/13/2021 11:45:00 AM 10.17 50.306 0.091 7.17 4.05 11.73
4/13/2021 12:00:00 PM 10.15 50.27 0.091 7.17 4.08 11.73
4/13/2021 12:15:00 PM 10.18 50.324 0.091 7.17 4.01 11.72
4/13/2021 12:30:00 PM 10.46 50.828 0.091 7.19 3.9 11.72
4/13/2021 12:45:00 PM 10.58 51.044 0.091 7.2 3.97 11.71
4/13/2021 1:00:00 PM 10.72 51.296 0.091 7.19 4.04 11.71
4/13/2021 1:15:00 PM 10.81 51.458 0.091 7.19 3.79 11.7
4/13/2021 1:30:00 PM 10.75 51.35 0.091 7.18 3.82 11.69
4/13/2021 1:45:00 PM 10.64 51.152 0.09 7.17 3.87 11.67
4/13/2021 2:00:00 PM 10.56 51.008 0.09 7.16 4.57 11.66
4/13/2021 2:15:00 PM 10.47 50.846 0.09 7.16 3.78 11.63
4/13/2021 2:30:00 PM 10.37 50.666 0.09 7.15 4.14 11.62
4/13/2021 2:45:00 PM 10.29 50.522 0.09 7.14 4.09 11.62
4/13/2021 3:00:00 PM 10.21 50.378 0.09 7.14 3.88 11.63
4/13/2021 3:15:00 PM 10.12 50.216 0.09 7.13 3.91 11.64
4/13/2021 3:30:00 PM 10.05 50.09 0.09 7.13 3.75 11.65
4/13/2021 3:45:00 PM 10.01 50.018 0.09 7.14 4.27 11.67
4/13/2021 4:00:00 PM 9.95 49.91 0.09 7.14 3.81 11.67
4/13/2021 4:15:00 PM 9.9 49.82 0.089 7.14 3.88 11.66
4/13/2021 4:30:00 PM 9.88 49.784 0.09 7.13 3.74 11.67
4/13/2021 4:45:00 PM 9.88 49.784 0.09 7.13 4.05 11.69
4/13/2021 5:00:00 PM 9.89 49.802 0.089 7.14 4.42 11.71
4/13/2021 5:15:00 PM 9.9 49.82 0.089 7.15 3.62 11.72
4/13/2021 5:30:00 PM 9.88 49.784 0.089 7.14 3.65 11.71
4/13/2021 5:45:00 PM 9.83 49.694 0.089 7.13 3.59 11.68
4/13/2021 6:00:00 PM 9.82 49.676 0.089 7.13 3.56 11.67
4/13/2021 6:15:00 PM 9.82 49.676 0.089 7.13 3.55 11.65
4/13/2021 6:30:00 PM 9.82 49.676 0.089 7.13 3.58 11.62
4/13/2021 6:45:00 PM 9.83 49.694 0.089 7.12 3.69 11.6
4/13/2021 7:00:00 PM 9.84 49.712 0.089 7.12 3.92 11.55
4/13/2021 7:15:00 PM 9.86 49.748 0.089 7.11 3.58 11.51
4/13/2021 7:30:00 PM 9.86 49.748 0.089 7.09 3.69 11.47
4/13/2021 7:45:00 PM 9.85 49.73 0.089 7.08 3.41 11.43
4/13/2021 8:00:00 PM 9.85 49.73 0.089 7.07 4.22 11.38
4/13/2021 8:15:00 PM 9.85 49.73 0.089 7.07 7.29 11.36
4/13/2021 8:30:00 PM 9.85 49.73 0.088 7.07 3.57 11.33
4/13/2021 8:45:00 PM 9.86 49.748 0.089 7.07 3.55 11.3
4/13/2021 9:00:00 PM 9.88 49.784 0.089 7.05 3.59 11.29
4/13/2021 9:15:00 PM 9.9 49.82 0.088 7.05 3.78 11.27
4/13/2021 9:30:00 PM 9.92 49.856 0.088 7.05 3.67 11.26
4/13/2021 9:45:00 PM 9.93 49.874 0.088 7.05 3.7 11.25
4/13/2021 10:00:00 PM 9.95 49.91 0.088 7.03 3.53 11.25
4/13/2021 10:15:00 PM 9.96 49.928 0.088 7.05 3.69 11.24
4/13/2021 10:30:00 PM 9.98 49.964 0.088 7.05 3.45 11.23
4/13/2021 10:45:00 PM 9.99 49.982 0.088 7.04 3.57 11.23
4/13/2021 11:00:00 PM 10.01 50.018 0.087 7.05 3.67 11.23
4/13/2021 11:15:00 PM 10.02 50.036 0.087 7.04 3.37 11.22
4/13/2021 11:30:00 PM 10.03 50.054 0.087 7.04 3.29 11.22
4/13/2021 11:45:00 PM 10.04 50.072 0.087 7.05 3.21 11.22
4/14/2021 12:00:00 AM 10.04 50.072 0.087 7.04 3.35 11.21
4/14/2021 12:15:00 AM 10.04 50.072 0.087 7.04 3.1 11.21
4/14/2021 12:30:00 AM 10.05 50.09 0.087 7.05 3.4 11.21
4/14/2021 12:45:00 AM 10.05 50.09 0.087 7.04 3.23 11.21
4/14/2021 1:00:00 AM 10.04 50.072 0.087 7.03 3.1 11.21
4/14/2021 1:15:00 AM 10.03 50.054 0.087 7.04 3.19 11.21
4/14/2021 1:30:00 AM 10.03 50.054 0.086 7.04 3.21 11.21
4/14/2021 1:45:00 AM 10.02 50.036 0.086 6.96 3.16 11.21
4/14/2021 2:00:00 AM 10.02 50.036 0.086 7.04 3.12 11.21
4/14/2021 2:15:00 AM 10.02 50.036 0.086 7.04 3.15 11.21
4/14/2021 2:30:00 AM 10.03 50.054 0.087 7.03 2.98 11.21
4/14/2021 2:45:00 AM 10.04 50.072 0.086 7.03 3.23 11.21
4/14/2021 3:00:00 AM 10.04 50.072 0.086 7.03 3.3 11.21
4/14/2021 3:15:00 AM 10.05 50.09 0.086 7.03 3.21 11.21
4/14/2021 3:30:00 AM 10.05 50.09 0.086 7.04 3.32 11.2
4/14/2021 3:45:00 AM 10.05 50.09 0.086 7.03 3.13 11.21
4/14/2021 4:00:00 AM 10.04 50.072 0.086 7.04 3.22 11.2
4/14/2021 4:15:00 AM 10.03 50.054 0.086 7.03 3.14 11.2
4/14/2021 4:30:00 AM 10.01 50.018 0.086 7.02 3.32 11.21
4/14/2021 4:45:00 AM 10 50 0.086 7.03 3.06 11.21
4/14/2021 5:00:00 AM 9.98 49.964 0.086 7.03 3.17 11.21
4/14/2021 5:15:00 AM 9.97 49.946 0.086 7.03 3.11 11.22
4/14/2021 5:30:00 AM 9.95 49.91 0.086 7.03 3.23 11.22
4/14/2021 5:45:00 AM 9.94 49.892 0.086 7.03 3.26 11.22
4/14/2021 6:00:00 AM 9.94 49.892 0.086 7.01 3.17 11.22
4/14/2021 6:15:00 AM 9.93 49.874 0.086 7.03 3.2 11.22
4/14/2021 6:30:00 AM 9.92 49.856 0.086 7.03 3.23 11.22
4/14/2021 6:45:00 AM 9.92 49.856 0.086 7.03 3.28 11.22
4/14/2021 7:00:00 AM 9.91 49.838 0.086 7.03 3.11 11.24
4/14/2021 7:15:00 AM 9.91 49.838 0.086 7.03 3.22 11.26
4/14/2021 7:30:00 AM 9.91 49.838 0.086 7.04 3 11.3
4/14/2021 7:45:00 AM 9.91 49.838 0.086 7.04 3.08 11.34
4/14/2021 8:00:00 AM 9.91 49.838 0.086 7.05 3.18 11.38
4/14/2021 8:15:00 AM 9.93 49.874 0.086 7.06 54.5 11.41
4/14/2021 8:30:00 AM 9.94 49.892 0.086 7.07 3.14 11.46
4/14/2021 8:45:00 AM 9.95 49.91 0.086 7.08 3.2 11.5
4/14/2021 9:00:00 AM 9.97 49.946 0.086 7.1 3.01 11.53
4/14/2021 9:15:00 AM 10 50 0.086 7.11 3.06 11.57
4/14/2021 9:30:00 AM 10.04 50.072 0.086 7.11 3.02 11.6
4/14/2021 9:45:00 AM 10.07 50.126 0.086 7.13 3.12 11.63
4/14/2021 10:00:00 AM 10.1 50.18 0.086 7.13 3.25 11.64
4/14/2021 10:15:00 AM 10.13 50.234 0.086 7.14 3.15 11.64
4/14/2021 10:30:00 AM 10.16 50.288 0.086 7.15 3.09 11.65
4/14/2021 10:45:00 AM 10.2 50.36 0.086 7.15 3.32 11.66
4/14/2021 11:00:00 AM 10.26 50.468 0.086 7.16 3.18 11.67
4/14/2021 11:15:00 AM 10.31 50.558 0.086 7.16 3.08 11.67
4/14/2021 11:30:00 AM 10.35 50.63 0.085 7.17 3.07 11.67
4/14/2021 11:45:00 AM 10.4 50.72 0.085 7.17 3.01 11.68
4/14/2021 12:00:00 PM 10.44 50.792 0.086 7.17 3.06 11.68
4/14/2021 12:15:00 PM 10.51 50.918 0.085 7.18 3.08 11.68
4/14/2021 12:30:00 PM 10.65 51.17 0.085 7.19 3.23 11.67
4/14/2021 12:45:00 PM 10.63 51.134 0.085 7.18 3.67 11.67
4/14/2021 1:00:00 PM 10.61 51.098 0.085 7.18 3.53 11.66
4/14/2021 1:15:00 PM 10.61 51.098 0.085 7.19 3.36 11.66
4/14/2021 1:30:00 PM 10.65 51.17 0.085 7.18 3.68 11.65
4/14/2021 1:45:00 PM 10.69 51.242 0.085 7.19 3.32 11.64
4/14/2021 2:00:00 PM 10.69 51.242 0.085 7.18 3.12 11.62
4/14/2021 2:15:00 PM 10.68 51.224 0.085 7.17 3.39 11.61
4/14/2021 2:30:00 PM 10.8 51.44 0.085 7.19 3.24 11.61
4/14/2021 2:45:00 PM 10.83 51.494 0.085 7.18 3.01 11.6
4/14/2021 3:00:00 PM 10.89 51.602 0.085 7.18 3.02 11.58
4/14/2021 3:15:00 PM 10.91 51.638 0.085 7.18 3.16 11.57
4/14/2021 3:30:00 PM 10.89 51.602 0.085 7.18 3.27 11.57
4/14/2021 3:45:00 PM 10.89 51.602 0.085 7.17 3.17 11.58
4/14/2021 4:00:00 PM 10.92 51.656 0.084 7.17 2.94 11.58
4/14/2021 4:15:00 PM 10.94 51.692 0.085 7.19 3.11 11.59
4/14/2021 4:30:00 PM 10.89 51.602 0.084 7.18 3.07 11.59
4/14/2021 4:45:00 PM 10.79 51.422 0.085 7.17 3 11.58
4/14/2021 5:00:00 PM 10.76 51.368 0.085 7.17 3.04 11.58
4/14/2021 5:15:00 PM 10.61 51.098 0.084 7.15 3.06 11.57
4/14/2021 5:30:00 PM 10.51 50.918 0.084 7.15 2.94 11.56
4/14/2021 5:45:00 PM 10.44 50.792 0.084 7.14 3.15 11.55
4/14/2021 6:00:00 PM 10.31 50.558 0.084 7.13 3.04 11.54
4/14/2021 6:15:00 PM 10.17 50.306 0.084 7.13 2.98 11.53
4/14/2021 6:30:00 PM 10.04 50.072 0.084 7.11 3.29 11.52
4/14/2021 6:45:00 PM 9.94 49.892 0.084 7.1 3.07 11.51
4/14/2021 7:00:00 PM 9.85 49.73 0.084 7.1 3.05 11.5
4/14/2021 7:15:00 PM 9.78 49.604 0.084 7.08 2.95 11.48
4/14/2021 7:30:00 PM 9.73 49.514 0.084 7.07 3 11.46
4/14/2021 7:45:00 PM 9.69 49.442 0.084 7.07 2.96 11.42
4/14/2021 8:00:00 PM 9.66 49.388 0.084 7.06 3.14 11.39
4/14/2021 8:15:00 PM 9.64 49.352 0.084 7.05 3.02 11.35
4/14/2021 8:30:00 PM 9.62 49.316 0.084 7.05 3.21 11.32
4/14/2021 8:45:00 PM 9.62 49.316 0.085 7.04 2.9 11.29
4/14/2021 9:00:00 PM 9.62 49.316 0.085 7.04 3 11.27
4/14/2021 9:15:00 PM 9.63 49.334 0.085 7.03 3.24 11.25
4/14/2021 9:30:00 PM 9.65 49.37 0.085 6.97 2.94 11.23
4/14/2021 9:45:00 PM 9.67 49.406 0.085 7.03 3.01 11.22
4/14/2021 10:00:00 PM 9.69 49.442 0.085 7.03 2.92 11.2
4/14/2021 10:15:00 PM 9.73 49.514 0.085 7.02 3.03 11.19
4/14/2021 10:30:00 PM 9.78 49.604 0.084 7.02 3.08 11.17
4/14/2021 10:45:00 PM 9.84 49.712 0.085 7.03 2.89 11.15
4/14/2021 11:00:00 PM 9.9 49.82 0.084 7.01 3.06 11.13
4/14/2021 11:15:00 PM 9.95 49.91 0.084 7.04 2.85 11.11
4/14/2021 11:30:00 PM 9.98 49.964 0.084 7.03 3.27 11.1
4/14/2021 11:45:00 PM 10 50 0.084 7.03 2.94 11.1
4/15/2021 12:00:00 AM 10.01 50.018 0.084 7.03 2.97 11.09
4/15/2021 12:15:00 AM 10.01 50.018 0.084 7.02 2.77 11.09
4/15/2021 12:30:00 AM 10.02 50.036 0.084 7.03 2.94 11.09
4/15/2021 12:45:00 AM 10.02 50.036 0.084 7.03 2.83 11.09
4/15/2021 1:00:00 AM 10.02 50.036 0.084 7.03 2.79 11.08
4/15/2021 1:15:00 AM 10.02 50.036 0.084 7.02 2.97 11.08
4/15/2021 1:30:00 AM 10.03 50.054 0.084 7.02 2.81 11.08
4/15/2021 1:45:00 AM 10.03 50.054 0.084 7.02 2.88 11.08
4/15/2021 2:00:00 AM 10.04 50.072 0.084 7.02 2.92 11.08
4/15/2021 2:15:00 AM 10.04 50.072 0.084 7.03 2.77 11.08
4/15/2021 2:30:00 AM 10.04 50.072 0.084 7.03 2.82 11.08
4/15/2021 2:45:00 AM 10.05 50.09 0.084 7.02 2.88 11.08
4/15/2021 3:00:00 AM 10.06 50.108 0.084 7.03 2.82 11.07
4/15/2021 3:15:00 AM 10.07 50.126 0.083 7.03 2.83 11.07
4/15/2021 3:30:00 AM 10.07 50.126 0.083 7.02 2.92 11.06
4/15/2021 3:45:00 AM 10.07 50.126 0.084 7.02 2.94 11.06
4/15/2021 4:00:00 AM 10.07 50.126 0.083 7.02 2.81 11.06
4/15/2021 4:15:00 AM 10.07 50.126 0.083 7.02 2.88 11.05
4/15/2021 4:30:00 AM 10.07 50.126 0.083 7.01 2.78 11.05
4/15/2021 4:45:00 AM 10.06 50.108 0.083 7.02 3.08 11.05
4/15/2021 5:00:00 AM 10.05 50.09 0.083 7.02 2.93 11.05
4/15/2021 5:15:00 AM 10.05 50.09 0.083 7.02 3.16 11.05
4/15/2021 5:30:00 AM 10.04 50.072 0.083 7.02 2.76 11.05
4/15/2021 5:45:00 AM 10.04 50.072 0.083 7.02 2.78 11.05
4/15/2021 6:00:00 AM 10.03 50.054 0.084 7.02 2.73 11.05
4/15/2021 6:15:00 AM 10.03 50.054 0.083 7.02 2.74 11.05
4/15/2021 6:30:00 AM 10.02 50.036 0.083 7.01 2.98 11.05
4/15/2021 6:45:00 AM 10.01 50.018 0.083 7.02 2.83 11.05
4/15/2021 7:00:00 AM 10 50 0.083 7.02 3.05 11.06
4/15/2021 7:15:00 AM 9.99 49.982 0.083 7.02 2.97 11.09
4/15/2021 7:30:00 AM 9.98 49.964 0.083 7.03 2.7 11.12
4/15/2021 7:45:00 AM 9.99 49.982 0.083 7.03 2.73 11.15
4/15/2021 8:00:00 AM 9.99 49.982 0.083 7.04 3.01 11.16
4/15/2021 8:15:00 AM 10.01 50.018 0.083 7.05 3.28 11.2
4/15/2021 8:30:00 AM 10.01 50.018 0.083 7.05 3.16 11.23
4/15/2021 8:45:00 AM 10.02 50.036 0.083 7.07 3.4 11.27
4/15/2021 9:00:00 AM 10.04 50.072 0.083 7.08 3.38 11.3
4/15/2021 9:15:00 AM 10.05 50.09 0.083 7.08 3.24 11.32
4/15/2021 9:30:00 AM 10.06 50.108 0.083 7.08 3.17 11.33
4/15/2021 9:45:00 AM 10.07 50.126 0.083 7.09 3.28 11.33
4/15/2021 10:00:00 AM 10.07 50.126 0.083 7.09 3.36 11.33
4/15/2021 10:15:00 AM 10.07 50.126 0.083 7.09 3.28 11.34
4/15/2021 10:30:00 AM 10.08 50.144 0.083 7.09 3.18 11.36
4/15/2021 10:45:00 AM 10.08 50.144 0.083 7.11 3.24 11.39
4/15/2021 11:00:00 AM 10.06 50.108 0.083 7.11 3.02 11.39
4/15/2021 11:15:00 AM 10.07 50.126 0.083 7.12 2.85 11.42
4/15/2021 11:30:00 AM 10.12 50.216 0.083 7.14 3.34 11.46
4/15/2021 11:45:00 AM 10.23 50.414 0.083 7.15 2.99 11.49
4/15/2021 12:00:00 PM 10.43 50.774 0.083 7.17 2.77 11.51
4/15/2021 12:15:00 PM 10.59 51.062 0.083 7.18 2.66 11.5
4/15/2021 12:30:00 PM 10.74 51.332 0.083 7.18 2.85 11.5
4/15/2021 12:45:00 PM 10.82 51.476 0.083 7.18 2.78 11.49
4/15/2021 1:00:00 PM 10.86 51.548 0.083 7.18 2.85 11.48
4/15/2021 1:15:00 PM 11.07 51.926 0.083 7.2 2.76 11.47
4/15/2021 1:30:00 PM 11.17 52.106 0.083 7.2 2.68 11.45
4/15/2021 1:45:00 PM 11.16 52.088 0.083 7.19 2.82 11.42
4/15/2021 2:00:00 PM 11.38 52.484 0.083 7.21 2.7 11.41
4/15/2021 2:15:00 PM 11.34 52.412 0.083 7.2 2.77 11.4
4/15/2021 2:30:00 PM 11.16 52.088 0.083 7.18 3.03 11.39
4/15/2021 2:45:00 PM 11.02 51.836 0.083 7.18 3.13 11.38
4/15/2021 3:00:00 PM 10.9 51.62 0.083 7.17 3.37 11.39
4/15/2021 3:15:00 PM 10.79 51.422 0.083 7.17 3.47 11.39
4/15/2021 3:30:00 PM 10.69 51.242 0.083 7.16 3.46 11.38
4/15/2021 3:45:00 PM 10.6 51.08 0.083 7.16 3.48 11.37
4/15/2021 4:00:00 PM 10.54 50.972 0.083 7.15 3.43 11.36
4/15/2021 4:15:00 PM 10.52 50.936 0.083 7.16 3.24 11.37
4/15/2021 4:30:00 PM 10.51 50.918 0.083 7.16 3.36 11.4
4/15/2021 4:45:00 PM 10.47 50.846 0.083 7.17 2.75 11.39
4/15/2021 5:00:00 PM 10.41 50.738 0.083 7.16 2.8 11.37
4/15/2021 5:15:00 PM 10.37 50.666 0.083 7.16 2.72 11.36
4/15/2021 5:30:00 PM 10.34 50.612 0.083 7.15 2.97 11.35
4/15/2021 5:45:00 PM 10.34 50.612 0.083 7.16 2.71 11.37
4/15/2021 6:00:00 PM 10.28 50.504 0.083 7.15 2.75 11.34
4/15/2021 6:15:00 PM 10.24 50.432 0.083 7.14 2.84 11.33
4/15/2021 6:30:00 PM 10.17 50.306 0.083 7.14 2.85 11.33
4/15/2021 6:45:00 PM 10.12 50.216 0.083 7.13 2.8 11.34
4/15/2021 7:00:00 PM 10.08 50.144 0.083 7.13 3.15 11.33
4/15/2021 7:15:00 PM 10.01 50.018 0.083 7.12 2.91 11.31
4/15/2021 7:30:00 PM 9.94 49.892 0.083 7.11 3.08 11.27
4/15/2021 7:45:00 PM 9.87 49.766 0.083 7.1 3.04 11.24
4/15/2021 8:00:00 PM 9.83 49.694 0.084 7.08 2.93 11.2
4/15/2021 8:15:00 PM 9.8 49.64 0.084 7.07 2.93 11.18
4/15/2021 8:30:00 PM 9.78 49.604 0.084 7.07 2.92 11.15
4/15/2021 8:45:00 PM 9.74 49.532 0.084 7.07 3.29 11.14
4/15/2021 9:00:00 PM 9.7 49.46 0.084 7.06 2.92 11.12
4/15/2021 9:15:00 PM 9.66 49.388 0.084 7.06 2.98 11.12
4/15/2021 9:30:00 PM 9.61 49.298 0.084 7.05 2.99 11.11
4/15/2021 9:45:00 PM 9.57 49.226 0.084 7.04 2.92 11.12
4/15/2021 10:00:00 PM 9.52 49.136 0.084 7.04 2.94 11.12
4/15/2021 10:15:00 PM 9.48 49.064 0.084 7.04 2.89 11.13
4/15/2021 10:30:00 PM 9.43 48.974 0.084 7.03 2.88 11.15
4/15/2021 10:45:00 PM 9.38 48.884 0.084 7.04 2.94 11.16
4/15/2021 11:00:00 PM 9.34 48.812 0.083 7.04 3.95 11.17
4/15/2021 11:15:00 PM 9.3 48.74 0.083 7.03 2.99 11.18
4/15/2021 11:30:00 PM 9.26 48.668 0.084 7.03 3.13 11.19
4/15/2021 11:45:00 PM 9.22 48.596 0.084 7.02 3.01 11.21
4/16/2021 12:00:00 AM 9.19 48.542 0.084 7.04 2.91 11.22
4/16/2021 12:15:00 AM 9.17 48.506 0.084 7.04 2.99 11.22
4/16/2021 12:30:00 AM 9.15 48.47 0.084 7.04 2.77 11.23
4/16/2021 12:45:00 AM 9.14 48.452 0.084 7.04 2.78 11.23
4/16/2021 1:00:00 AM 9.14 48.452 0.084 7.04 2.96 11.24
4/16/2021 1:15:00 AM 9.12 48.416 0.084 7.04 3.03 11.24
4/16/2021 1:30:00 AM 9.11 48.398 0.084 7.04 2.84 11.25
4/16/2021 1:45:00 AM 9.09 48.362 0.084 7.04 2.85 11.25
4/16/2021 2:00:00 AM 9.08 48.344 0.084 7.01 2.72 11.25
4/16/2021 2:15:00 AM 9.08 48.344 0.084 7.04 2.8 11.25
4/16/2021 2:30:00 AM 9.07 48.326 0.084 7.04 4.74 11.25
4/16/2021 2:45:00 AM 9.07 48.326 0.084 7.05 2.73 11.25
4/16/2021 3:00:00 AM 9.05 48.29 0.084 7.04 2.79 11.26
4/16/2021 3:15:00 AM 9.04 48.272 0.084 7.04 2.94 11.26
4/16/2021 3:30:00 AM 9.03 48.254 0.084 7.04 2.79 11.26
4/16/2021 3:45:00 AM 9.02 48.236 0.084 7.04 2.75 11.26
4/16/2021 4:00:00 AM 9.01 48.218 0.084 7.04 2.89 11.26
4/16/2021 4:15:00 AM 9.01 48.218 0.084 7.04 2.8 11.26
4/16/2021 4:30:00 AM 9 48.2 0.084 7.04 2.76 11.27
4/16/2021 4:45:00 AM 8.98 48.164 0.084 7.04 2.86 11.27
4/16/2021 5:00:00 AM 8.98 48.164 0.084 7.04 2.92 11.27
4/16/2021 5:15:00 AM 8.96 48.128 0.084 7.04 2.79 11.27
4/16/2021 5:30:00 AM 8.94 48.092 0.084 7.04 2.98 11.27
4/16/2021 5:45:00 AM 8.93 48.074 0.084 7.04 2.85 11.28
4/16/2021 6:00:00 AM 8.91 48.038 0.084 7.04 2.74 11.28
4/16/2021 6:15:00 AM 8.91 48.038 0.084 7.02 2.79 11.28
4/16/2021 6:30:00 AM 8.9 48.02 0.084 7.04 2.79 11.28
4/16/2021 6:45:00 AM 8.88 47.984 0.083 7.04 2.73 11.29
4/16/2021 7:00:00 AM 8.86 47.948 0.083 7.04 2.89 11.31
4/16/2021 7:15:00 AM 8.84 47.912 0.084 7.05 2.8 11.35
4/16/2021 7:30:00 AM 8.83 47.894 0.084 7.06 2.74 11.37
4/16/2021 7:45:00 AM 8.82 47.876 0.083 7.07 3.06 11.41
4/16/2021 8:00:00 AM 8.82 47.876 0.083 7.08 2.81 11.48
4/16/2021 8:15:00 AM 8.82 47.876 0.083 7.09 2.77 11.55
4/16/2021 8:30:00 AM 8.83 47.894 0.083 7.1 2.76 11.6
4/16/2021 8:45:00 AM 8.85 47.93 0.083 7.12 3.2 11.66
4/16/2021 9:00:00 AM 8.83 47.894 0.084 7.13 3.2 11.68
4/16/2021 9:15:00 AM 8.81 47.858 0.083 7.13 3.1 11.7
4/16/2021 9:30:00 AM 8.81 47.858 0.083 7.14 3.13 11.72
4/16/2021 9:45:00 AM 8.82 47.876 0.083 7.15 2.83 11.75
4/16/2021 10:00:00 AM 8.84 47.912 0.083 7.16 2.85 11.79
4/16/2021 10:15:00 AM 8.88 47.984 0.083 7.14 2.91 11.81
4/16/2021 10:30:00 AM 8.92 48.056 0.083 7.18 2.96 11.83